<?xml version='1.0' encoding='UTF-8'?><gpx version="1.1" creator="JPX - https://github.com/jenetics/jpx" xmlns="http://www.topografix.com/GPX/1/1"><trk><trkseg><trkpt lat="39.816305" lon="-0.2464433"><ele>176.16666666666666</ele><time>2026-04-02T16:03:43.66Z</time></trkpt><trkpt lat="39.8162483" lon="-0.246565"><ele>176.33333333333331</ele><time>2026-04-02T16:03:45.66Z</time></trkpt><trkpt lat="39.8161833" lon="-0.2466967"><ele>176.5</ele><time>2026-04-02T16:03:47.66Z</time></trkpt><trkpt lat="39.816145" lon="-0.246765"><ele>176.66666666666666</ele><time>2026-04-02T16:03:48.66Z</time></trkpt><trkpt lat="39.8161117" lon="-0.246835"><ele>176.83333333333334</ele><time>2026-04-02T16:03:49.66Z</time></trkpt><trkpt lat="39.8160833" lon="-0.2469117"><ele>177.0</ele><time>2026-04-02T16:03:50.66Z</time></trkpt><trkpt lat="39.81605" lon="-0.246985"><ele>177.0</ele><time>2026-04-02T16:03:51.66Z</time></trkpt><trkpt lat="39.816025" lon="-0.2470617"><ele>177.0</ele><time>2026-04-02T16:03:52.66Z</time></trkpt><trkpt lat="39.8160017" lon="-0.2471433"><ele>177.0</ele><time>2026-04-02T16:03:53.661Z</time></trkpt><trkpt lat="39.81598" lon="-0.2472233"><ele>177.0</ele><time>2026-04-02T16:03:54.66Z</time></trkpt><trkpt lat="39.8159333" lon="-0.24737"><ele>177.0</ele><time>2026-04-02T16:03:56.66Z</time></trkpt><trkpt lat="39.81589" lon="-0.2475033"><ele>177.0</ele><time>2026-04-02T16:03:58.66Z</time></trkpt><trkpt lat="39.8158333" lon="-0.247645"><ele>175.33333333333334</ele><time>2026-04-02T16:04:00.66Z</time></trkpt><trkpt lat="39.8157683" lon="-0.2477833"><ele>173.66666666666666</ele><time>2026-04-02T16:04:02.66Z</time></trkpt><trkpt lat="39.8157283" lon="-0.2478533"><ele>172.0</ele><time>2026-04-02T16:04:03.66Z</time></trkpt><trkpt lat="39.8156833" lon="-0.2479233"><ele>170.33333333333331</ele><time>2026-04-02T16:04:04.66Z</time></trkpt><trkpt lat="39.81564" lon="-0.247985"><ele>168.66666666666666</ele><time>2026-04-02T16:04:05.661Z</time></trkpt><trkpt lat="39.8155917" lon="-0.248045"><ele>167.0</ele><time>2026-04-02T16:04:06.66Z</time></trkpt><trkpt lat="39.815545" lon="-0.248105"><ele>167.83333333333331</ele><time>2026-04-02T16:04:07.66Z</time></trkpt><trkpt lat="39.8154567" lon="-0.248205"><ele>168.66666666666666</ele><time>2026-04-02T16:04:09.66Z</time></trkpt><trkpt lat="39.8153917" lon="-0.2482917"><ele>169.5</ele><time>2026-04-02T16:04:11.661Z</time></trkpt><trkpt lat="39.815345" lon="-0.2483517"><ele>170.33333333333334</ele><time>2026-04-02T16:04:13.66Z</time></trkpt><trkpt lat="39.8152817" lon="-0.2483867"><ele>171.16666666666669</ele><time>2026-04-02T16:04:16.66Z</time></trkpt><trkpt lat="39.81521" lon="-0.2483783"><ele>172.0</ele><time>2026-04-02T16:04:18.66Z</time></trkpt><trkpt lat="39.815105" lon="-0.24835"><ele>170.16666666666669</ele><time>2026-04-02T16:04:20.66Z</time></trkpt><trkpt lat="39.814985" lon="-0.2483033"><ele>168.33333333333334</ele><time>2026-04-02T16:04:22.66Z</time></trkpt><trkpt lat="39.81491" lon="-0.24828"><ele>166.5</ele><time>2026-04-02T16:04:23.66Z</time></trkpt><trkpt lat="39.8148283" lon="-0.24825"><ele>164.66666666666666</ele><time>2026-04-02T16:04:24.661Z</time></trkpt><trkpt lat="39.8147533" lon="-0.2482267"><ele>162.83333333333331</ele><time>2026-04-02T16:04:25.66Z</time></trkpt><trkpt lat="39.8146783" lon="-0.248195"><ele>161.0</ele><time>2026-04-02T16:04:26.661Z</time></trkpt><trkpt lat="39.8146033" lon="-0.24817"><ele>161.0</ele><time>2026-04-02T16:04:27.66Z</time></trkpt><trkpt lat="39.8145267" lon="-0.2481533"><ele>161.0</ele><time>2026-04-02T16:04:28.66Z</time></trkpt><trkpt lat="39.81446" lon="-0.2481533"><ele>161.0</ele><time>2026-04-02T16:04:29.66Z</time></trkpt><trkpt lat="39.81439" lon="-0.2481433"><ele>161.0</ele><time>2026-04-02T16:04:30.661Z</time></trkpt><trkpt lat="39.8142767" lon="-0.2481117"><ele>161.0</ele><time>2026-04-02T16:04:32.66Z</time></trkpt><trkpt lat="39.8142" lon="-0.2480683"><ele>161.0</ele><time>2026-04-02T16:04:34.661Z</time></trkpt><trkpt lat="39.8141633" lon="-0.24799"><ele>159.5</ele><time>2026-04-02T16:04:36.661Z</time></trkpt><trkpt lat="39.8141517" lon="-0.2478817"><ele>158.0</ele><time>2026-04-02T16:04:38.66Z</time></trkpt><trkpt lat="39.8141433" lon="-0.2477783"><ele>156.5</ele><time>2026-04-02T16:04:40.66Z</time></trkpt><trkpt lat="39.81413" lon="-0.247665"><ele>155.0</ele><time>2026-04-02T16:04:42.66Z</time></trkpt><trkpt lat="39.81412" lon="-0.2475583"><ele>153.5</ele><time>2026-04-02T16:04:44.66Z</time></trkpt><trkpt lat="39.8141083" lon="-0.247475"><ele>152.0</ele><time>2026-04-02T16:04:46.66Z</time></trkpt><trkpt lat="39.8140967" lon="-0.2473867"><ele>152.83333333333331</ele><time>2026-04-02T16:04:49.66Z</time></trkpt><trkpt lat="39.81408" lon="-0.247285"><ele>153.66666666666666</ele><time>2026-04-02T16:04:52.66Z</time></trkpt><trkpt lat="39.8140633" lon="-0.2471867"><ele>154.5</ele><time>2026-04-02T16:04:55.66Z</time></trkpt><trkpt lat="39.8140267" lon="-0.24708"><ele>155.33333333333334</ele><time>2026-04-02T16:04:58.66Z</time></trkpt><trkpt lat="39.8139633" lon="-0.2470183"><ele>156.16666666666669</ele><time>2026-04-02T16:05:00.66Z</time></trkpt><trkpt lat="39.8138567" lon="-0.246965"><ele>157.0</ele><time>2026-04-02T16:05:02.66Z</time></trkpt><trkpt lat="39.8137417" lon="-0.2469133"><ele>157.0</ele><time>2026-04-02T16:05:04.66Z</time></trkpt><trkpt lat="39.8136517" lon="-0.246845"><ele>157.0</ele><time>2026-04-02T16:05:06.661Z</time></trkpt><trkpt lat="39.8136267" lon="-0.2467233"><ele>157.0</ele><time>2026-04-02T16:05:08.66Z</time></trkpt><trkpt lat="39.8136267" lon="-0.2465917"><ele>157.0</ele><time>2026-04-02T16:05:10.66Z</time></trkpt><trkpt lat="39.81363" lon="-0.2464733"><ele>157.0</ele><time>2026-04-02T16:05:12.66Z</time></trkpt><trkpt lat="39.813635" lon="-0.2463467"><ele>157.0</ele><time>2026-04-02T16:05:14.66Z</time></trkpt><trkpt lat="39.813625" lon="-0.2462267"><ele>157.0</ele><time>2026-04-02T16:05:16.66Z</time></trkpt><trkpt lat="39.813615" lon="-0.24612"><ele>157.0</ele><time>2026-04-02T16:05:18.66Z</time></trkpt><trkpt lat="39.8135933" lon="-0.24601"><ele>157.0</ele><time>2026-04-02T16:05:20.66Z</time></trkpt><trkpt lat="39.8135667" lon="-0.2459017"><ele>157.0</ele><time>2026-04-02T16:05:22.661Z</time></trkpt><trkpt lat="39.8135417" lon="-0.2457983"><ele>157.0</ele><time>2026-04-02T16:05:24.661Z</time></trkpt><trkpt lat="39.81351" lon="-0.2456783"><ele>154.79999999999998</ele><time>2026-04-02T16:05:26.66Z</time></trkpt><trkpt lat="39.81348" lon="-0.2455533"><ele>152.6</ele><time>2026-04-02T16:05:28.66Z</time></trkpt><trkpt lat="39.81344" lon="-0.2454333"><ele>150.39999999999998</ele><time>2026-04-02T16:05:30.66Z</time></trkpt><trkpt lat="39.813405" lon="-0.2453117"><ele>148.2</ele><time>2026-04-02T16:05:32.66Z</time></trkpt><trkpt lat="39.8133667" lon="-0.2451967"><ele>146.0</ele><time>2026-04-02T16:05:34.661Z</time></trkpt><trkpt lat="39.813275" lon="-0.245125"><ele>146.0</ele><time>2026-04-02T16:05:36.66Z</time></trkpt><trkpt lat="39.813155" lon="-0.24513"><ele>146.0</ele><time>2026-04-02T16:05:38.661Z</time></trkpt><trkpt lat="39.8130383" lon="-0.245185"><ele>146.0</ele><time>2026-04-02T16:05:40.66Z</time></trkpt><trkpt lat="39.8129833" lon="-0.2452283"><ele>146.0</ele><time>2026-04-02T16:05:41.66Z</time></trkpt><trkpt lat="39.8129167" lon="-0.2452633"><ele>146.0</ele><time>2026-04-02T16:05:42.66Z</time></trkpt><trkpt lat="39.8128517" lon="-0.2452967"><ele>146.0</ele><time>2026-04-02T16:05:43.66Z</time></trkpt><trkpt lat="39.81278" lon="-0.2453233"><ele>146.0</ele><time>2026-04-02T16:05:44.66Z</time></trkpt><trkpt lat="39.8127033" lon="-0.2453483"><ele>146.0</ele><time>2026-04-02T16:05:45.66Z</time></trkpt><trkpt lat="39.8126317" lon="-0.245375"><ele>146.0</ele><time>2026-04-02T16:05:46.66Z</time></trkpt><trkpt lat="39.8125683" lon="-0.2454"><ele>146.0</ele><time>2026-04-02T16:05:47.66Z</time></trkpt><trkpt lat="39.8124983" lon="-0.245425"><ele>146.0</ele><time>2026-04-02T16:05:48.66Z</time></trkpt><trkpt lat="39.8124283" lon="-0.2454483"><ele>146.0</ele><time>2026-04-02T16:05:49.66Z</time></trkpt><trkpt lat="39.8123617" lon="-0.2454717"><ele>144.8</ele><time>2026-04-02T16:05:50.66Z</time></trkpt><trkpt lat="39.8122933" lon="-0.2454967"><ele>143.6</ele><time>2026-04-02T16:05:51.66Z</time></trkpt><trkpt lat="39.8121717" lon="-0.24554"><ele>142.4</ele><time>2026-04-02T16:05:53.66Z</time></trkpt><trkpt lat="39.81211" lon="-0.2455683"><ele>141.2</ele><time>2026-04-02T16:05:54.66Z</time></trkpt><trkpt lat="39.8119967" lon="-0.24562"><ele>140.0</ele><time>2026-04-02T16:05:56.66Z</time></trkpt><trkpt lat="39.8119" lon="-0.2456817"><ele>139.66666666666666</ele><time>2026-04-02T16:05:58.66Z</time></trkpt><trkpt lat="39.8118283" lon="-0.2457683"><ele>139.33333333333331</ele><time>2026-04-02T16:06:00.66Z</time></trkpt><trkpt lat="39.8118017" lon="-0.245885"><ele>139.0</ele><time>2026-04-02T16:06:02.66Z</time></trkpt><trkpt lat="39.8118267" lon="-0.2460017"><ele>138.66666666666666</ele><time>2026-04-02T16:06:04.66Z</time></trkpt><trkpt lat="39.811865" lon="-0.2460967"><ele>138.33333333333334</ele><time>2026-04-02T16:06:06.66Z</time></trkpt><trkpt lat="39.81189" lon="-0.246185"><ele>138.0</ele><time>2026-04-02T16:06:08.66Z</time></trkpt><trkpt lat="39.8119033" lon="-0.24628"><ele>138.0</ele><time>2026-04-02T16:06:10.66Z</time></trkpt><trkpt lat="39.8119183" lon="-0.2463783"><ele>138.0</ele><time>2026-04-02T16:06:12.66Z</time></trkpt><trkpt lat="39.81193" lon="-0.2464667"><ele>138.0</ele><time>2026-04-02T16:06:14.661Z</time></trkpt><trkpt lat="39.8119433" lon="-0.246555"><ele>138.0</ele><time>2026-04-02T16:06:16.66Z</time></trkpt><trkpt lat="39.811965" lon="-0.246675"><ele>138.0</ele><time>2026-04-02T16:06:19.66Z</time></trkpt><trkpt lat="39.811975" lon="-0.2467683"><ele>138.0</ele><time>2026-04-02T16:06:21.66Z</time></trkpt><trkpt lat="39.811985" lon="-0.2468867"><ele>137.71428571428572</ele><time>2026-04-02T16:06:24.66Z</time></trkpt><trkpt lat="39.8119933" lon="-0.24697"><ele>137.42857142857144</ele><time>2026-04-02T16:06:26.661Z</time></trkpt><trkpt lat="39.81201" lon="-0.24705"><ele>137.14285714285714</ele><time>2026-04-02T16:06:28.66Z</time></trkpt><trkpt lat="39.812025" lon="-0.247135"><ele>136.85714285714286</ele><time>2026-04-02T16:06:30.66Z</time></trkpt><trkpt lat="39.8120333" lon="-0.24722"><ele>136.57142857142856</ele><time>2026-04-02T16:06:32.661Z</time></trkpt><trkpt lat="39.81206" lon="-0.2473383"><ele>136.28571428571428</ele><time>2026-04-02T16:06:35.66Z</time></trkpt><trkpt lat="39.8120933" lon="-0.2474333"><ele>136.0</ele><time>2026-04-02T16:06:37.66Z</time></trkpt><trkpt lat="39.81217" lon="-0.2475667"><ele>136.0</ele><time>2026-04-02T16:06:39.66Z</time></trkpt><trkpt lat="39.81221" lon="-0.2476467"><ele>136.0</ele><time>2026-04-02T16:06:40.661Z</time></trkpt><trkpt lat="39.8122433" lon="-0.2477333"><ele>136.0</ele><time>2026-04-02T16:06:41.66Z</time></trkpt><trkpt lat="39.812275" lon="-0.2478217"><ele>136.0</ele><time>2026-04-02T16:06:42.66Z</time></trkpt><trkpt lat="39.812305" lon="-0.2479"><ele>136.0</ele><time>2026-04-02T16:06:43.66Z</time></trkpt><trkpt lat="39.8123467" lon="-0.2480483"><ele>136.0</ele><time>2026-04-02T16:06:45.66Z</time></trkpt><trkpt lat="39.81238" lon="-0.2481833"><ele>136.33333333333334</ele><time>2026-04-02T16:06:47.66Z</time></trkpt><trkpt lat="39.8124117" lon="-0.2482867"><ele>136.66666666666669</ele><time>2026-04-02T16:06:49.66Z</time></trkpt><trkpt lat="39.812415" lon="-0.24838"><ele>137.0</ele><time>2026-04-02T16:06:51.661Z</time></trkpt><trkpt lat="39.8124067" lon="-0.248465"><ele>137.33333333333334</ele><time>2026-04-02T16:06:53.661Z</time></trkpt><trkpt lat="39.8123883" lon="-0.2485783"><ele>137.66666666666666</ele><time>2026-04-02T16:06:56.659Z</time></trkpt><trkpt lat="39.8123783" lon="-0.2486717"><ele>138.0</ele><time>2026-04-02T16:06:59.659Z</time></trkpt><trkpt lat="39.8123583" lon="-0.248765"><ele>138.0</ele><time>2026-04-02T16:07:02.659Z</time></trkpt><trkpt lat="39.81234" lon="-0.248875"><ele>138.0</ele><time>2026-04-02T16:07:05.659Z</time></trkpt><trkpt lat="39.8123233" lon="-0.2489867"><ele>138.0</ele><time>2026-04-02T16:07:08.66Z</time></trkpt><trkpt lat="39.8123033" lon="-0.2490717"><ele>138.0</ele><time>2026-04-02T16:07:10.659Z</time></trkpt><trkpt lat="39.8122883" lon="-0.2491933"><ele>138.0</ele><time>2026-04-02T16:07:13.659Z</time></trkpt><trkpt lat="39.81224" lon="-0.2492967"><ele>138.0</ele><time>2026-04-02T16:07:16.659Z</time></trkpt><trkpt lat="39.8121817" lon="-0.24934"><ele>138.83333333333334</ele><time>2026-04-02T16:07:18.659Z</time></trkpt><trkpt lat="39.8121133" lon="-0.2493933"><ele>139.66666666666666</ele><time>2026-04-02T16:07:20.66Z</time></trkpt><trkpt lat="39.8120683" lon="-0.2494867"><ele>140.5</ele><time>2026-04-02T16:07:22.659Z</time></trkpt><trkpt lat="39.8120617" lon="-0.24961"><ele>141.33333333333331</ele><time>2026-04-02T16:07:24.659Z</time></trkpt><trkpt lat="39.8120883" lon="-0.24972"><ele>142.16666666666666</ele><time>2026-04-02T16:07:26.659Z</time></trkpt><trkpt lat="39.8121217" lon="-0.24983"><ele>143.0</ele><time>2026-04-02T16:07:28.659Z</time></trkpt><trkpt lat="39.8121417" lon="-0.2499483"><ele>143.4</ele><time>2026-04-02T16:07:30.659Z</time></trkpt><trkpt lat="39.8121633" lon="-0.2500683"><ele>143.8</ele><time>2026-04-02T16:07:32.659Z</time></trkpt><trkpt lat="39.8121733" lon="-0.25019"><ele>144.2</ele><time>2026-04-02T16:07:34.659Z</time></trkpt><trkpt lat="39.8121767" lon="-0.25032"><ele>144.6</ele><time>2026-04-02T16:07:36.659Z</time></trkpt><trkpt lat="39.81217" lon="-0.2504417"><ele>145.0</ele><time>2026-04-02T16:07:38.659Z</time></trkpt><trkpt lat="39.8121567" lon="-0.25056"><ele>145.57142857142858</ele><time>2026-04-02T16:07:40.659Z</time></trkpt><trkpt lat="39.8121383" lon="-0.250665"><ele>146.14285714285717</ele><time>2026-04-02T16:07:42.659Z</time></trkpt><trkpt lat="39.8121233" lon="-0.250765"><ele>146.71428571428572</ele><time>2026-04-02T16:07:44.659Z</time></trkpt><trkpt lat="39.8121067" lon="-0.2508667"><ele>147.28571428571428</ele><time>2026-04-02T16:07:46.659Z</time></trkpt><trkpt lat="39.812095" lon="-0.250955"><ele>147.85714285714283</ele><time>2026-04-02T16:07:48.66Z</time></trkpt><trkpt lat="39.8120767" lon="-0.2510367"><ele>148.42857142857142</ele><time>2026-04-02T16:07:50.659Z</time></trkpt><trkpt lat="39.8120583" lon="-0.2511233"><ele>149.0</ele><time>2026-04-02T16:07:52.66Z</time></trkpt><trkpt lat="39.8120467" lon="-0.2512117"><ele>149.0</ele><time>2026-04-02T16:07:54.659Z</time></trkpt><trkpt lat="39.8120383" lon="-0.251295"><ele>149.0</ele><time>2026-04-02T16:07:56.659Z</time></trkpt><trkpt lat="39.812065" lon="-0.251405"><ele>149.0</ele><time>2026-04-02T16:07:59.659Z</time></trkpt><trkpt lat="39.8121067" lon="-0.2514733"><ele>149.0</ele><time>2026-04-02T16:08:01.66Z</time></trkpt><trkpt lat="39.81216" lon="-0.2515333"><ele>149.0</ele><time>2026-04-02T16:08:03.659Z</time></trkpt><trkpt lat="39.812215" lon="-0.2515917"><ele>149.0</ele><time>2026-04-02T16:08:05.659Z</time></trkpt><trkpt lat="39.8122717" lon="-0.25165"><ele>149.0</ele><time>2026-04-02T16:08:07.659Z</time></trkpt><trkpt lat="39.81233" lon="-0.2517133"><ele>149.71428571428572</ele><time>2026-04-02T16:08:09.66Z</time></trkpt><trkpt lat="39.8123867" lon="-0.2517717"><ele>150.42857142857142</ele><time>2026-04-02T16:08:11.659Z</time></trkpt><trkpt lat="39.81244" lon="-0.2518383"><ele>151.14285714285714</ele><time>2026-04-02T16:08:13.659Z</time></trkpt><trkpt lat="39.8124817" lon="-0.2519167"><ele>151.85714285714286</ele><time>2026-04-02T16:08:15.659Z</time></trkpt><trkpt lat="39.8125033" lon="-0.2520083"><ele>152.57142857142856</ele><time>2026-04-02T16:08:17.659Z</time></trkpt><trkpt lat="39.8124933" lon="-0.25209"><ele>153.28571428571428</ele><time>2026-04-02T16:08:19.659Z</time></trkpt><trkpt lat="39.8124733" lon="-0.2521717"><ele>154.0</ele><time>2026-04-02T16:08:21.66Z</time></trkpt><trkpt lat="39.8124283" lon="-0.252275"><ele>155.0</ele><time>2026-04-02T16:08:24.66Z</time></trkpt><trkpt lat="39.8123967" lon="-0.25235"><ele>156.0</ele><time>2026-04-02T16:08:26.66Z</time></trkpt><trkpt lat="39.81236" lon="-0.2524433"><ele>157.0</ele><time>2026-04-02T16:08:29.659Z</time></trkpt><trkpt lat="39.8123217" lon="-0.252525"><ele>158.0</ele><time>2026-04-02T16:08:32.659Z</time></trkpt><trkpt lat="39.8122867" lon="-0.25261"><ele>159.0</ele><time>2026-04-02T16:08:35.659Z</time></trkpt><trkpt lat="39.8122583" lon="-0.2527"><ele>160.0</ele><time>2026-04-02T16:08:38.66Z</time></trkpt><trkpt lat="39.81223" lon="-0.2527917"><ele>161.0</ele><time>2026-04-02T16:08:41.659Z</time></trkpt><trkpt lat="39.8122167" lon="-0.2528983"><ele>161.0</ele><time>2026-04-02T16:08:44.659Z</time></trkpt><trkpt lat="39.8122317" lon="-0.2530183"><ele>161.0</ele><time>2026-04-02T16:08:47.659Z</time></trkpt><trkpt lat="39.8122433" lon="-0.2531267"><ele>161.0</ele><time>2026-04-02T16:08:50.659Z</time></trkpt><trkpt lat="39.8122467" lon="-0.2532333"><ele>161.0</ele><time>2026-04-02T16:08:54.659Z</time></trkpt><trkpt lat="39.8122433" lon="-0.2533217"><ele>161.0</ele><time>2026-04-02T16:08:57.66Z</time></trkpt><trkpt lat="39.8122283" lon="-0.253405"><ele>161.0</ele><time>2026-04-02T16:09:00.659Z</time></trkpt><trkpt lat="39.8122417" lon="-0.2534933"><ele>161.66666666666666</ele><time>2026-04-02T16:09:03.66Z</time></trkpt><trkpt lat="39.8122633" lon="-0.2535967"><ele>162.33333333333331</ele><time>2026-04-02T16:09:06.66Z</time></trkpt><trkpt lat="39.8122833" lon="-0.2537017"><ele>163.0</ele><time>2026-04-02T16:09:09.659Z</time></trkpt><trkpt lat="39.812305" lon="-0.253815"><ele>163.66666666666666</ele><time>2026-04-02T16:09:12.66Z</time></trkpt><trkpt lat="39.8123267" lon="-0.2539"><ele>164.33333333333334</ele><time>2026-04-02T16:09:14.659Z</time></trkpt><trkpt lat="39.8123583" lon="-0.253985"><ele>165.0</ele><time>2026-04-02T16:09:16.659Z</time></trkpt><trkpt lat="39.8124033" lon="-0.2540633"><ele>166.0</ele><time>2026-04-02T16:09:18.66Z</time></trkpt><trkpt lat="39.8124433" lon="-0.2541433"><ele>167.0</ele><time>2026-04-02T16:09:20.659Z</time></trkpt><trkpt lat="39.812485" lon="-0.254235"><ele>168.0</ele><time>2026-04-02T16:09:22.659Z</time></trkpt><trkpt lat="39.8125283" lon="-0.2543283"><ele>169.0</ele><time>2026-04-02T16:09:24.66Z</time></trkpt><trkpt lat="39.8125683" lon="-0.2544217"><ele>170.0</ele><time>2026-04-02T16:09:26.659Z</time></trkpt><trkpt lat="39.8126067" lon="-0.2545117"><ele>171.0</ele><time>2026-04-02T16:09:28.659Z</time></trkpt><trkpt lat="39.8126367" lon="-0.2546067"><ele>171.0</ele><time>2026-04-02T16:09:30.659Z</time></trkpt><trkpt lat="39.812655" lon="-0.2547"><ele>171.0</ele><time>2026-04-02T16:09:32.659Z</time></trkpt><trkpt lat="39.812675" lon="-0.2547867"><ele>171.0</ele><time>2026-04-02T16:09:34.66Z</time></trkpt><trkpt lat="39.81267" lon="-0.254905"><ele>171.0</ele><time>2026-04-02T16:09:37.659Z</time></trkpt><trkpt lat="39.8126583" lon="-0.255005"><ele>171.0</ele><time>2026-04-02T16:09:40.659Z</time></trkpt><trkpt lat="39.81265" lon="-0.2551217"><ele>171.0</ele><time>2026-04-02T16:09:43.659Z</time></trkpt><trkpt lat="39.8126617" lon="-0.255235"><ele>171.28571428571428</ele><time>2026-04-02T16:09:46.659Z</time></trkpt><trkpt lat="39.8126617" lon="-0.2553233"><ele>171.57142857142856</ele><time>2026-04-02T16:09:48.659Z</time></trkpt><trkpt lat="39.8126617" lon="-0.2554067"><ele>171.85714285714283</ele><time>2026-04-02T16:09:50.659Z</time></trkpt><trkpt lat="39.8126583" lon="-0.2554967"><ele>172.14285714285714</ele><time>2026-04-02T16:09:52.659Z</time></trkpt><trkpt lat="39.81265" lon="-0.2555817"><ele>172.42857142857144</ele><time>2026-04-02T16:09:54.659Z</time></trkpt><trkpt lat="39.81265" lon="-0.2557"><ele>172.7142857142857</ele><time>2026-04-02T16:09:57.659Z</time></trkpt><trkpt lat="39.8126533" lon="-0.2558017"><ele>173.0</ele><time>2026-04-02T16:10:00.659Z</time></trkpt><trkpt lat="39.8126583" lon="-0.25591"><ele>173.0</ele><time>2026-04-02T16:10:03.659Z</time></trkpt><trkpt lat="39.81267" lon="-0.256005"><ele>173.0</ele><time>2026-04-02T16:10:06.659Z</time></trkpt><trkpt lat="39.812685" lon="-0.2561083"><ele>173.0</ele><time>2026-04-02T16:10:09.659Z</time></trkpt><trkpt lat="39.81269" lon="-0.256205"><ele>173.0</ele><time>2026-04-02T16:10:12.659Z</time></trkpt><trkpt lat="39.8127017" lon="-0.2562933"><ele>173.0</ele><time>2026-04-02T16:10:15.659Z</time></trkpt><trkpt lat="39.812715" lon="-0.2563883"><ele>173.0</ele><time>2026-04-02T16:10:18.659Z</time></trkpt><trkpt lat="39.8127267" lon="-0.25649"><ele>173.66666666666666</ele><time>2026-04-02T16:10:21.659Z</time></trkpt><trkpt lat="39.8127433" lon="-0.256585"><ele>174.33333333333331</ele><time>2026-04-02T16:10:24.66Z</time></trkpt><trkpt lat="39.8127633" lon="-0.256685"><ele>175.0</ele><time>2026-04-02T16:10:27.66Z</time></trkpt><trkpt lat="39.8127817" lon="-0.25679"><ele>175.66666666666666</ele><time>2026-04-02T16:10:30.659Z</time></trkpt><trkpt lat="39.8128133" lon="-0.2569"><ele>176.33333333333334</ele><time>2026-04-02T16:10:33.659Z</time></trkpt><trkpt lat="39.81284" lon="-0.256975"><ele>177.0</ele><time>2026-04-02T16:10:35.659Z</time></trkpt><trkpt lat="39.812865" lon="-0.2570583"><ele>177.0</ele><time>2026-04-02T16:10:37.66Z</time></trkpt><trkpt lat="39.8128917" lon="-0.2571483"><ele>177.0</ele><time>2026-04-02T16:10:39.659Z</time></trkpt><trkpt lat="39.8129183" lon="-0.2572417"><ele>177.0</ele><time>2026-04-02T16:10:41.66Z</time></trkpt><trkpt lat="39.8129367" lon="-0.2573317"><ele>177.0</ele><time>2026-04-02T16:10:43.659Z</time></trkpt><trkpt lat="39.8129517" lon="-0.2574167"><ele>177.0</ele><time>2026-04-02T16:10:45.66Z</time></trkpt><trkpt lat="39.812945" lon="-0.2575083"><ele>177.0</ele><time>2026-04-02T16:10:47.659Z</time></trkpt><trkpt lat="39.812925" lon="-0.2576267"><ele>177.33333333333334</ele><time>2026-04-02T16:10:50.659Z</time></trkpt><trkpt lat="39.8129067" lon="-0.2577317"><ele>177.66666666666666</ele><time>2026-04-02T16:10:53.659Z</time></trkpt><trkpt lat="39.8128867" lon="-0.2578267"><ele>178.0</ele><time>2026-04-02T16:10:56.659Z</time></trkpt><trkpt lat="39.8128567" lon="-0.257915"><ele>178.33333333333331</ele><time>2026-04-02T16:10:59.659Z</time></trkpt><trkpt lat="39.812835" lon="-0.258015"><ele>178.66666666666666</ele><time>2026-04-02T16:11:02.659Z</time></trkpt><trkpt lat="39.8128083" lon="-0.2581033"><ele>179.0</ele><time>2026-04-02T16:11:05.659Z</time></trkpt><trkpt lat="39.81277" lon="-0.25821"><ele>179.66666666666666</ele><time>2026-04-02T16:11:09.66Z</time></trkpt><trkpt lat="39.8127417" lon="-0.25829"><ele>180.33333333333331</ele><time>2026-04-02T16:11:12.659Z</time></trkpt><trkpt lat="39.812695" lon="-0.2583767"><ele>181.0</ele><time>2026-04-02T16:11:16.659Z</time></trkpt><trkpt lat="39.8126417" lon="-0.25846"><ele>181.66666666666666</ele><time>2026-04-02T16:11:20.659Z</time></trkpt><trkpt lat="39.8126033" lon="-0.2585483"><ele>182.33333333333334</ele><time>2026-04-02T16:11:23.659Z</time></trkpt><trkpt lat="39.8125667" lon="-0.2586183"><ele>183.0</ele><time>2026-04-02T16:11:25.659Z</time></trkpt><trkpt lat="39.8125133" lon="-0.25871"><ele>184.33333333333334</ele><time>2026-04-02T16:11:27.659Z</time></trkpt><trkpt lat="39.8124467" lon="-0.258805"><ele>185.66666666666666</ele><time>2026-04-02T16:11:29.659Z</time></trkpt><trkpt lat="39.8123633" lon="-0.2588633"><ele>187.0</ele><time>2026-04-02T16:11:31.659Z</time></trkpt><trkpt lat="39.812285" lon="-0.2589083"><ele>188.33333333333331</ele><time>2026-04-02T16:11:33.659Z</time></trkpt><trkpt lat="39.812225" lon="-0.2589717"><ele>189.66666666666666</ele><time>2026-04-02T16:11:35.659Z</time></trkpt><trkpt lat="39.81217" lon="-0.2590233"><ele>191.0</ele><time>2026-04-02T16:11:37.659Z</time></trkpt><trkpt lat="39.8121117" lon="-0.25907"><ele>191.0</ele><time>2026-04-02T16:11:39.66Z</time></trkpt><trkpt lat="39.8120333" lon="-0.259125"><ele>191.0</ele><time>2026-04-02T16:11:42.66Z</time></trkpt><trkpt lat="39.8119783" lon="-0.2591717"><ele>191.0</ele><time>2026-04-02T16:11:44.659Z</time></trkpt><trkpt lat="39.811895" lon="-0.2592233"><ele>191.0</ele><time>2026-04-02T16:11:47.659Z</time></trkpt><trkpt lat="39.8118117" lon="-0.259275"><ele>191.0</ele><time>2026-04-02T16:11:50.659Z</time></trkpt><trkpt lat="39.8117617" lon="-0.259325"><ele>191.0</ele><time>2026-04-02T16:11:52.659Z</time></trkpt><trkpt lat="39.8116883" lon="-0.2593767"><ele>192.66666666666666</ele><time>2026-04-02T16:11:55.659Z</time></trkpt><trkpt lat="39.8116067" lon="-0.2594333"><ele>194.33333333333331</ele><time>2026-04-02T16:11:58.659Z</time></trkpt><trkpt lat="39.81153" lon="-0.2594833"><ele>196.0</ele><time>2026-04-02T16:12:01.659Z</time></trkpt><trkpt lat="39.8114567" lon="-0.25954"><ele>197.66666666666666</ele><time>2026-04-02T16:12:04.659Z</time></trkpt><trkpt lat="39.8113983" lon="-0.2595867"><ele>199.33333333333334</ele><time>2026-04-02T16:12:06.66Z</time></trkpt><trkpt lat="39.811335" lon="-0.2596167"><ele>201.0</ele><time>2026-04-02T16:12:08.659Z</time></trkpt><trkpt lat="39.8112633" lon="-0.25964"><ele>201.0</ele><time>2026-04-02T16:12:10.659Z</time></trkpt><trkpt lat="39.8111917" lon="-0.2596667"><ele>201.0</ele><time>2026-04-02T16:12:12.659Z</time></trkpt><trkpt lat="39.8111283" lon="-0.2597083"><ele>201.0</ele><time>2026-04-02T16:12:14.659Z</time></trkpt><trkpt lat="39.81106" lon="-0.2597267"><ele>201.0</ele><time>2026-04-02T16:12:16.659Z</time></trkpt><trkpt lat="39.810985" lon="-0.2597483"><ele>201.0</ele><time>2026-04-02T16:12:18.659Z</time></trkpt><trkpt lat="39.8108983" lon="-0.2597667"><ele>201.0</ele><time>2026-04-02T16:12:20.659Z</time></trkpt><trkpt lat="39.810825" lon="-0.2598133"><ele>201.5</ele><time>2026-04-02T16:12:22.659Z</time></trkpt><trkpt lat="39.810765" lon="-0.2598583"><ele>202.0</ele><time>2026-04-02T16:12:24.659Z</time></trkpt><trkpt lat="39.8107117" lon="-0.2599117"><ele>202.5</ele><time>2026-04-02T16:12:26.659Z</time></trkpt><trkpt lat="39.8106467" lon="-0.259995"><ele>203.0</ele><time>2026-04-02T16:12:29.659Z</time></trkpt><trkpt lat="39.8105833" lon="-0.2600683"><ele>203.5</ele><time>2026-04-02T16:12:32.659Z</time></trkpt><trkpt lat="39.8105117" lon="-0.2601283"><ele>204.0</ele><time>2026-04-02T16:12:35.659Z</time></trkpt><trkpt lat="39.810455" lon="-0.2601833"><ele>204.0</ele><time>2026-04-02T16:12:37.66Z</time></trkpt><trkpt lat="39.8104083" lon="-0.2602667"><ele>204.0</ele><time>2026-04-02T16:12:39.659Z</time></trkpt><trkpt lat="39.8103683" lon="-0.2603617"><ele>204.0</ele><time>2026-04-02T16:12:41.659Z</time></trkpt><trkpt lat="39.81036" lon="-0.260465"><ele>204.0</ele><time>2026-04-02T16:12:43.66Z</time></trkpt><trkpt lat="39.8103783" lon="-0.260565"><ele>204.0</ele><time>2026-04-02T16:12:45.659Z</time></trkpt><trkpt lat="39.8104083" lon="-0.26065"><ele>204.0</ele><time>2026-04-02T16:12:47.659Z</time></trkpt><trkpt lat="39.810425" lon="-0.2607317"><ele>204.33333333333334</ele><time>2026-04-02T16:12:49.659Z</time></trkpt><trkpt lat="39.8104383" lon="-0.260855"><ele>204.66666666666669</ele><time>2026-04-02T16:12:52.659Z</time></trkpt><trkpt lat="39.8104233" lon="-0.2609433"><ele>205.0</ele><time>2026-04-02T16:12:54.66Z</time></trkpt><trkpt lat="39.8103983" lon="-0.261045"><ele>205.33333333333334</ele><time>2026-04-02T16:12:56.66Z</time></trkpt><trkpt lat="39.8103733" lon="-0.261155"><ele>205.66666666666669</ele><time>2026-04-02T16:12:58.659Z</time></trkpt><trkpt lat="39.8103633" lon="-0.2612583"><ele>206.0</ele><time>2026-04-02T16:13:00.659Z</time></trkpt><trkpt lat="39.810355" lon="-0.2613467"><ele>206.00000000000003</ele><time>2026-04-02T16:13:02.659Z</time></trkpt><trkpt lat="39.810345" lon="-0.2614317"><ele>206.0</ele><time>2026-04-02T16:13:04.659Z</time></trkpt><trkpt lat="39.81034" lon="-0.2615183"><ele>206.0</ele><time>2026-04-02T16:13:06.66Z</time></trkpt><trkpt lat="39.8103333" lon="-0.2616367"><ele>206.0</ele><time>2026-04-02T16:13:09.66Z</time></trkpt><trkpt lat="39.810325" lon="-0.2617367"><ele>206.00000000000003</ele><time>2026-04-02T16:13:12.66Z</time></trkpt><trkpt lat="39.8103133" lon="-0.261845"><ele>206.0</ele><time>2026-04-02T16:13:16.66Z</time></trkpt><trkpt lat="39.810315" lon="-0.2619333"><ele>206.16666666666669</ele><time>2026-04-02T16:13:19.659Z</time></trkpt><trkpt lat="39.81034" lon="-0.26201"><ele>206.33333333333334</ele><time>2026-04-02T16:13:21.659Z</time></trkpt><trkpt lat="39.8103883" lon="-0.2620767"><ele>206.5</ele><time>2026-04-02T16:13:23.659Z</time></trkpt><trkpt lat="39.8104383" lon="-0.2621567"><ele>206.66666666666669</ele><time>2026-04-02T16:13:25.66Z</time></trkpt><trkpt lat="39.8104617" lon="-0.2622667"><ele>206.83333333333334</ele><time>2026-04-02T16:13:27.659Z</time></trkpt><trkpt lat="39.81047" lon="-0.262385"><ele>207.0</ele><time>2026-04-02T16:13:29.66Z</time></trkpt><trkpt lat="39.81046" lon="-0.2624883"><ele>208.0</ele><time>2026-04-02T16:13:31.659Z</time></trkpt><trkpt lat="39.8104317" lon="-0.2625733"><ele>209.0</ele><time>2026-04-02T16:13:33.659Z</time></trkpt><trkpt lat="39.8103733" lon="-0.2626467"><ele>210.0</ele><time>2026-04-02T16:13:36.659Z</time></trkpt><trkpt lat="39.8103067" lon="-0.262735"><ele>211.0</ele><time>2026-04-02T16:13:39.659Z</time></trkpt><trkpt lat="39.8102633" lon="-0.262805"><ele>212.0</ele><time>2026-04-02T16:13:41.66Z</time></trkpt><trkpt lat="39.8102217" lon="-0.26287"><ele>213.0</ele><time>2026-04-02T16:13:43.659Z</time></trkpt><trkpt lat="39.81017" lon="-0.26296"><ele>217.16666666666666</ele><time>2026-04-02T16:13:46.66Z</time></trkpt><trkpt lat="39.8101183" lon="-0.26305"><ele>221.33333333333331</ele><time>2026-04-02T16:13:49.659Z</time></trkpt><trkpt lat="39.8100717" lon="-0.2631417"><ele>225.5</ele><time>2026-04-02T16:13:52.659Z</time></trkpt><trkpt lat="39.81005" lon="-0.263225"><ele>229.66666666666666</ele><time>2026-04-02T16:13:55.659Z</time></trkpt><trkpt lat="39.81002" lon="-0.2633233"><ele>233.83333333333331</ele><time>2026-04-02T16:13:59.659Z</time></trkpt><trkpt lat="39.81001" lon="-0.26343"><ele>238.0</ele><time>2026-04-02T16:14:02.659Z</time></trkpt><trkpt lat="39.810015" lon="-0.26353"><ele>238.14285714285714</ele><time>2026-04-02T16:14:05.659Z</time></trkpt><trkpt lat="39.81003" lon="-0.2636267"><ele>238.28571428571428</ele><time>2026-04-02T16:14:08.659Z</time></trkpt><trkpt lat="39.81007" lon="-0.2637317"><ele>238.42857142857144</ele><time>2026-04-02T16:14:11.659Z</time></trkpt><trkpt lat="39.8101" lon="-0.2638083"><ele>238.57142857142858</ele><time>2026-04-02T16:14:13.659Z</time></trkpt><trkpt lat="39.8101483" lon="-0.2638667"><ele>238.71428571428572</ele><time>2026-04-02T16:14:15.659Z</time></trkpt><trkpt lat="39.8102033" lon="-0.2639233"><ele>238.8571428571429</ele><time>2026-04-02T16:14:17.66Z</time></trkpt><trkpt lat="39.81026" lon="-0.2639683"><ele>239.00000000000003</ele><time>2026-04-02T16:14:19.659Z</time></trkpt><trkpt lat="39.8103317" lon="-0.26402"><ele>238.50000000000003</ele><time>2026-04-02T16:14:22.659Z</time></trkpt><trkpt lat="39.810385" lon="-0.264065"><ele>238.0</ele><time>2026-04-02T16:14:24.659Z</time></trkpt><trkpt lat="39.810435" lon="-0.2641167"><ele>237.5</ele><time>2026-04-02T16:14:26.659Z</time></trkpt><trkpt lat="39.8104933" lon="-0.2642017"><ele>237.0</ele><time>2026-04-02T16:14:29.659Z</time></trkpt><trkpt lat="39.8105317" lon="-0.2642967"><ele>236.50000000000003</ele><time>2026-04-02T16:14:32.659Z</time></trkpt><trkpt lat="39.8105383" lon="-0.2644"><ele>236.0</ele><time>2026-04-02T16:14:35.659Z</time></trkpt><trkpt lat="39.81056" lon="-0.264495"><ele>236.0</ele><time>2026-04-02T16:14:38.659Z</time></trkpt><trkpt lat="39.8105483" lon="-0.2645983"><ele>236.0</ele><time>2026-04-02T16:14:42.659Z</time></trkpt><trkpt lat="39.810575" lon="-0.2646833"><ele>236.0</ele><time>2026-04-02T16:14:45.659Z</time></trkpt><trkpt lat="39.810585" lon="-0.2647733"><ele>236.0</ele><time>2026-04-02T16:14:48.659Z</time></trkpt><trkpt lat="39.8105983" lon="-0.26488"><ele>236.0</ele><time>2026-04-02T16:14:52.659Z</time></trkpt><trkpt lat="39.810605" lon="-0.2649717"><ele>236.0</ele><time>2026-04-02T16:14:55.659Z</time></trkpt><trkpt lat="39.81059" lon="-0.26506"><ele>236.0</ele><time>2026-04-02T16:14:58.659Z</time></trkpt><trkpt lat="39.810595" lon="-0.26517"><ele>239.0</ele><time>2026-04-02T16:15:02.659Z</time></trkpt><trkpt lat="39.8105767" lon="-0.2652617"><ele>242.0</ele><time>2026-04-02T16:15:05.659Z</time></trkpt><trkpt lat="39.810585" lon="-0.2653583"><ele>245.0</ele><time>2026-04-02T16:15:08.66Z</time></trkpt><trkpt lat="39.810585" lon="-0.2654617"><ele>248.0</ele><time>2026-04-02T16:15:11.659Z</time></trkpt><trkpt lat="39.81057" lon="-0.2655567"><ele>251.0</ele><time>2026-04-02T16:15:14.659Z</time></trkpt><trkpt lat="39.8105467" lon="-0.2656333"><ele>254.0</ele><time>2026-04-02T16:15:18.659Z</time></trkpt><trkpt lat="39.81051" lon="-0.2657183"><ele>257.0</ele><time>2026-04-02T16:15:46.659Z</time></trkpt><trkpt lat="39.8104817" lon="-0.2658283"><ele>260.0</ele><time>2026-04-02T16:15:50.659Z</time></trkpt><trkpt lat="39.8104533" lon="-0.2659033"><ele>263.0</ele><time>2026-04-02T16:15:52.659Z</time></trkpt><trkpt lat="39.8104283" lon="-0.265995"><ele>266.0</ele><time>2026-04-02T16:15:54.659Z</time></trkpt><trkpt lat="39.8104017" lon="-0.2660967"><ele>269.0</ele><time>2026-04-02T16:15:56.659Z</time></trkpt><trkpt lat="39.8103783" lon="-0.26621"><ele>272.0</ele><time>2026-04-02T16:15:58.66Z</time></trkpt><trkpt lat="39.81036" lon="-0.2662967"><ele>275.0</ele><time>2026-04-02T16:16:00.659Z</time></trkpt><trkpt lat="39.8103383" lon="-0.2663967"><ele>275.5</ele><time>2026-04-02T16:16:03.659Z</time></trkpt><trkpt lat="39.8103217" lon="-0.266485"><ele>276.0</ele><time>2026-04-02T16:16:05.66Z</time></trkpt><trkpt lat="39.8103067" lon="-0.2665767"><ele>276.5</ele><time>2026-04-02T16:16:07.659Z</time></trkpt><trkpt lat="39.8102867" lon="-0.2666783"><ele>277.0</ele><time>2026-04-02T16:16:09.658Z</time></trkpt><trkpt lat="39.8102483" lon="-0.2668"><ele>277.5</ele><time>2026-04-02T16:16:11.658Z</time></trkpt><trkpt lat="39.8102017" lon="-0.2669317"><ele>278.0</ele><time>2026-04-02T16:16:13.658Z</time></trkpt><trkpt lat="39.8101617" lon="-0.267"><ele>275.6666666666667</ele><time>2026-04-02T16:16:14.658Z</time></trkpt><trkpt lat="39.8101183" lon="-0.2670717"><ele>273.33333333333337</ele><time>2026-04-02T16:16:15.659Z</time></trkpt><trkpt lat="39.8100783" lon="-0.2671517"><ele>271.0</ele><time>2026-04-02T16:16:16.658Z</time></trkpt><trkpt lat="39.8100083" lon="-0.2672883"><ele>268.6666666666667</ele><time>2026-04-02T16:16:18.658Z</time></trkpt><trkpt lat="39.8099217" lon="-0.2673517"><ele>266.3333333333333</ele><time>2026-04-02T16:16:20.658Z</time></trkpt><trkpt lat="39.8098583" lon="-0.2673533"><ele>264.0</ele><time>2026-04-02T16:16:22.658Z</time></trkpt><trkpt lat="39.8097767" lon="-0.2673533"><ele>264.0</ele><time>2026-04-02T16:16:25.659Z</time></trkpt><trkpt lat="39.80972" lon="-0.267395"><ele>264.0</ele><time>2026-04-02T16:16:28.658Z</time></trkpt><trkpt lat="39.8096567" lon="-0.267465"><ele>264.0</ele><time>2026-04-02T16:16:32.658Z</time></trkpt><trkpt lat="39.8095983" lon="-0.2675117"><ele>264.0</ele><time>2026-04-02T16:16:35.658Z</time></trkpt><trkpt lat="39.8095417" lon="-0.2675817"><ele>264.0</ele><time>2026-04-02T16:16:38.658Z</time></trkpt><trkpt lat="39.8094683" lon="-0.2676367"><ele>264.0</ele><time>2026-04-02T16:16:41.658Z</time></trkpt><trkpt lat="39.80942" lon="-0.2676933"><ele>264.0</ele><time>2026-04-02T16:16:43.658Z</time></trkpt><trkpt lat="39.8093733" lon="-0.2677667"><ele>264.0</ele><time>2026-04-02T16:16:45.659Z</time></trkpt><trkpt lat="39.8093267" lon="-0.2678283"><ele>264.0</ele><time>2026-04-02T16:16:47.658Z</time></trkpt><trkpt lat="39.8092867" lon="-0.2679083"><ele>264.0</ele><time>2026-04-02T16:16:49.659Z</time></trkpt><trkpt lat="39.809245" lon="-0.267985"><ele>264.0</ele><time>2026-04-02T16:16:51.658Z</time></trkpt><trkpt lat="39.8092133" lon="-0.2680667"><ele>264.0</ele><time>2026-04-02T16:16:53.658Z</time></trkpt><trkpt lat="39.809195" lon="-0.26815"><ele>264.0</ele><time>2026-04-02T16:16:55.658Z</time></trkpt><trkpt lat="39.809175" lon="-0.2682283"><ele>264.0</ele><time>2026-04-02T16:16:57.658Z</time></trkpt><trkpt lat="39.80916" lon="-0.2683383"><ele>263.7142857142857</ele><time>2026-04-02T16:17:00.658Z</time></trkpt><trkpt lat="39.8091483" lon="-0.2684333"><ele>263.42857142857144</ele><time>2026-04-02T16:17:03.659Z</time></trkpt><trkpt lat="39.8091333" lon="-0.2685267"><ele>263.14285714285717</ele><time>2026-04-02T16:17:06.658Z</time></trkpt><trkpt lat="39.809125" lon="-0.2686367"><ele>262.8571428571429</ele><time>2026-04-02T16:17:09.658Z</time></trkpt><trkpt lat="39.809125" lon="-0.2687217"><ele>262.5714285714286</ele><time>2026-04-02T16:17:11.658Z</time></trkpt><trkpt lat="39.8091267" lon="-0.26881"><ele>262.2857142857143</ele><time>2026-04-02T16:17:13.659Z</time></trkpt><trkpt lat="39.8091367" lon="-0.2689033"><ele>262.0</ele><time>2026-04-02T16:17:15.658Z</time></trkpt><trkpt lat="39.8091467" lon="-0.269015"><ele>262.0</ele><time>2026-04-02T16:17:18.658Z</time></trkpt><trkpt lat="39.8091617" lon="-0.2691233"><ele>262.0</ele><time>2026-04-02T16:17:21.658Z</time></trkpt><trkpt lat="39.80917" lon="-0.2692067"><ele>262.0</ele><time>2026-04-02T16:17:23.658Z</time></trkpt><trkpt lat="39.8091667" lon="-0.26932"><ele>262.0</ele><time>2026-04-02T16:17:25.658Z</time></trkpt><trkpt lat="39.809175" lon="-0.26943"><ele>262.0</ele><time>2026-04-02T16:17:27.659Z</time></trkpt><trkpt lat="39.8091583" lon="-0.2695267"><ele>262.0</ele><time>2026-04-02T16:17:29.659Z</time></trkpt><trkpt lat="39.8091467" lon="-0.2696083"><ele>262.0</ele><time>2026-04-02T16:17:31.658Z</time></trkpt><trkpt lat="39.8091583" lon="-0.2697117"><ele>262.0</ele><time>2026-04-02T16:17:34.659Z</time></trkpt><trkpt lat="39.8091517" lon="-0.2698"><ele>262.0</ele><time>2026-04-02T16:17:37.659Z</time></trkpt><trkpt lat="39.8091567" lon="-0.2698833"><ele>262.0</ele><time>2026-04-02T16:17:40.658Z</time></trkpt><trkpt lat="39.80917" lon="-0.269985"><ele>262.0</ele><time>2026-04-02T16:17:43.658Z</time></trkpt><trkpt lat="39.8091833" lon="-0.2700833"><ele>262.0</ele><time>2026-04-02T16:17:46.659Z</time></trkpt><trkpt lat="39.8091983" lon="-0.2701717"><ele>262.0</ele><time>2026-04-02T16:17:49.658Z</time></trkpt><trkpt lat="39.8092133" lon="-0.270265"><ele>262.0</ele><time>2026-04-02T16:17:52.659Z</time></trkpt><trkpt lat="39.8092283" lon="-0.2703733"><ele>262.0</ele><time>2026-04-02T16:17:55.658Z</time></trkpt><trkpt lat="39.8092233" lon="-0.2704567"><ele>262.0</ele><time>2026-04-02T16:17:57.658Z</time></trkpt><trkpt lat="39.809195" lon="-0.2705733"><ele>262.0</ele><time>2026-04-02T16:18:00.658Z</time></trkpt><trkpt lat="39.8091867" lon="-0.2706617"><ele>262.0</ele><time>2026-04-02T16:18:02.658Z</time></trkpt><trkpt lat="39.8091767" lon="-0.2707467"><ele>262.0</ele><time>2026-04-02T16:18:04.658Z</time></trkpt><trkpt lat="39.8091733" lon="-0.27084"><ele>262.0</ele><time>2026-04-02T16:18:06.658Z</time></trkpt><trkpt lat="39.809175" lon="-0.2709267"><ele>261.66666666666663</ele><time>2026-04-02T16:18:08.658Z</time></trkpt><trkpt lat="39.8091583" lon="-0.2710067"><ele>261.3333333333333</ele><time>2026-04-02T16:18:10.658Z</time></trkpt><trkpt lat="39.8091367" lon="-0.2711067"><ele>261.0</ele><time>2026-04-02T16:18:13.659Z</time></trkpt><trkpt lat="39.8091183" lon="-0.271215"><ele>260.6666666666667</ele><time>2026-04-02T16:18:16.658Z</time></trkpt><trkpt lat="39.8091433" lon="-0.2713017"><ele>260.33333333333337</ele><time>2026-04-02T16:18:19.658Z</time></trkpt><trkpt lat="39.809185" lon="-0.271385"><ele>260.0</ele><time>2026-04-02T16:18:22.658Z</time></trkpt><trkpt lat="39.8092367" lon="-0.2714533"><ele>260.00000000000006</ele><time>2026-04-02T16:18:25.658Z</time></trkpt><trkpt lat="39.80929" lon="-0.2715317"><ele>260.0</ele><time>2026-04-02T16:18:28.658Z</time></trkpt><trkpt lat="39.8093467" lon="-0.2715917"><ele>260.0</ele><time>2026-04-02T16:18:31.658Z</time></trkpt><trkpt lat="39.8094" lon="-0.2716533"><ele>260.0</ele><time>2026-04-02T16:18:34.659Z</time></trkpt><trkpt lat="39.8094433" lon="-0.2717217"><ele>260.0</ele><time>2026-04-02T16:18:37.659Z</time></trkpt><trkpt lat="39.8094833" lon="-0.2717933"><ele>260.00000000000006</ele><time>2026-04-02T16:18:40.658Z</time></trkpt><trkpt lat="39.809535" lon="-0.2718733"><ele>260.0</ele><time>2026-04-02T16:18:43.659Z</time></trkpt><trkpt lat="39.8095633" lon="-0.271985"><ele>260.00000000000006</ele><time>2026-04-02T16:18:46.658Z</time></trkpt><trkpt lat="39.809535" lon="-0.2721033"><ele>260.0</ele><time>2026-04-02T16:18:49.658Z</time></trkpt><trkpt lat="39.809495" lon="-0.2721683"><ele>260.0</ele><time>2026-04-02T16:18:52.659Z</time></trkpt><trkpt lat="39.80941" lon="-0.27218"><ele>260.0</ele><time>2026-04-02T16:18:56.658Z</time></trkpt><trkpt lat="39.8093483" lon="-0.2722033"><ele>260.0</ele><time>2026-04-02T16:18:59.658Z</time></trkpt><trkpt lat="39.80928" lon="-0.27222"><ele>260.00000000000006</ele><time>2026-04-02T16:19:02.658Z</time></trkpt><trkpt lat="39.8092133" lon="-0.2722433"><ele>260.0</ele><time>2026-04-02T16:19:05.658Z</time></trkpt><trkpt lat="39.8091567" lon="-0.2722933"><ele>262.00000000000006</ele><time>2026-04-02T16:19:08.658Z</time></trkpt><trkpt lat="39.809085" lon="-0.2723333"><ele>264.0</ele><time>2026-04-02T16:19:11.659Z</time></trkpt><trkpt lat="39.8090483" lon="-0.2724033"><ele>266.0</ele><time>2026-04-02T16:19:14.658Z</time></trkpt><trkpt lat="39.80903" lon="-0.2725083"><ele>268.0</ele><time>2026-04-02T16:19:17.659Z</time></trkpt><trkpt lat="39.809005" lon="-0.272615"><ele>270.0</ele><time>2026-04-02T16:19:20.658Z</time></trkpt><trkpt lat="39.8089583" lon="-0.2726783"><ele>272.00000000000006</ele><time>2026-04-02T16:19:22.659Z</time></trkpt><trkpt lat="39.8089183" lon="-0.2727517"><ele>274.0</ele><time>2026-04-02T16:19:24.658Z</time></trkpt><trkpt lat="39.80887" lon="-0.2728267"><ele>274.00000000000006</ele><time>2026-04-02T16:19:26.658Z</time></trkpt><trkpt lat="39.8088317" lon="-0.272895"><ele>274.0</ele><time>2026-04-02T16:19:28.658Z</time></trkpt><trkpt lat="39.8087817" lon="-0.272965"><ele>274.0</ele><time>2026-04-02T16:19:30.658Z</time></trkpt><trkpt lat="39.8087233" lon="-0.27302"><ele>274.0</ele><time>2026-04-02T16:19:32.658Z</time></trkpt><trkpt lat="39.808665" lon="-0.2730783"><ele>274.0</ele><time>2026-04-02T16:19:34.658Z</time></trkpt><trkpt lat="39.8085983" lon="-0.2731317"><ele>274.00000000000006</ele><time>2026-04-02T16:19:36.658Z</time></trkpt><trkpt lat="39.8085333" lon="-0.2731717"><ele>274.0</ele><time>2026-04-02T16:19:38.658Z</time></trkpt><trkpt lat="39.8084733" lon="-0.2731967"><ele>274.8333333333333</ele><time>2026-04-02T16:19:40.658Z</time></trkpt><trkpt lat="39.8084017" lon="-0.2732433"><ele>275.66666666666663</ele><time>2026-04-02T16:19:43.659Z</time></trkpt><trkpt lat="39.8083217" lon="-0.273295"><ele>276.5</ele><time>2026-04-02T16:19:46.658Z</time></trkpt><trkpt lat="39.8082383" lon="-0.2733417"><ele>277.3333333333333</ele><time>2026-04-02T16:19:49.659Z</time></trkpt><trkpt lat="39.80818" lon="-0.273375"><ele>278.1666666666667</ele><time>2026-04-02T16:19:51.658Z</time></trkpt><trkpt lat="39.8081233" lon="-0.2734217"><ele>279.0</ele><time>2026-04-02T16:19:53.658Z</time></trkpt><trkpt lat="39.808065" lon="-0.273465"><ele>279.0</ele><time>2026-04-02T16:19:55.658Z</time></trkpt><trkpt lat="39.80798" lon="-0.2735083"><ele>279.0</ele><time>2026-04-02T16:19:58.659Z</time></trkpt><trkpt lat="39.8079167" lon="-0.2735417"><ele>279.0</ele><time>2026-04-02T16:20:00.658Z</time></trkpt><trkpt lat="39.8078717" lon="-0.2736033"><ele>279.0</ele><time>2026-04-02T16:20:02.659Z</time></trkpt><trkpt lat="39.8078283" lon="-0.2736667"><ele>279.0</ele><time>2026-04-02T16:20:04.659Z</time></trkpt><trkpt lat="39.8077867" lon="-0.273745"><ele>279.0</ele><time>2026-04-02T16:20:06.658Z</time></trkpt><trkpt lat="39.8077383" lon="-0.2738467"><ele>278.5</ele><time>2026-04-02T16:20:08.658Z</time></trkpt><trkpt lat="39.8077167" lon="-0.2739633"><ele>278.0</ele><time>2026-04-02T16:20:10.658Z</time></trkpt><trkpt lat="39.8076917" lon="-0.27407"><ele>277.5</ele><time>2026-04-02T16:20:12.659Z</time></trkpt><trkpt lat="39.8076567" lon="-0.274165"><ele>277.0</ele><time>2026-04-02T16:20:14.658Z</time></trkpt><trkpt lat="39.8076233" lon="-0.274245"><ele>276.5</ele><time>2026-04-02T16:20:16.658Z</time></trkpt><trkpt lat="39.8076" lon="-0.2743267"><ele>276.0</ele><time>2026-04-02T16:20:18.658Z</time></trkpt><trkpt lat="39.8075683" lon="-0.274405"><ele>276.0</ele><time>2026-04-02T16:20:20.658Z</time></trkpt><trkpt lat="39.8075333" lon="-0.2745167"><ele>276.0</ele><time>2026-04-02T16:20:23.658Z</time></trkpt><trkpt lat="39.8075067" lon="-0.2745917"><ele>276.0</ele><time>2026-04-02T16:20:25.658Z</time></trkpt><trkpt lat="39.80748" lon="-0.27467"><ele>276.0</ele><time>2026-04-02T16:20:27.658Z</time></trkpt><trkpt lat="39.8074617" lon="-0.2747533"><ele>276.0</ele><time>2026-04-02T16:20:29.659Z</time></trkpt><trkpt lat="39.80744" lon="-0.2748367"><ele>276.0</ele><time>2026-04-02T16:20:31.658Z</time></trkpt><trkpt lat="39.8074167" lon="-0.2749333"><ele>276.0</ele><time>2026-04-02T16:20:33.658Z</time></trkpt><trkpt lat="39.807395" lon="-0.2750217"><ele>278.0</ele><time>2026-04-02T16:20:35.659Z</time></trkpt><trkpt lat="39.8073583" lon="-0.275125"><ele>280.0</ele><time>2026-04-02T16:20:38.658Z</time></trkpt><trkpt lat="39.8073233" lon="-0.2751983"><ele>282.0</ele><time>2026-04-02T16:20:40.659Z</time></trkpt><trkpt lat="39.80729" lon="-0.2752833"><ele>284.0</ele><time>2026-04-02T16:20:43.658Z</time></trkpt><trkpt lat="39.8072467" lon="-0.2753633"><ele>286.0</ele><time>2026-04-02T16:20:46.658Z</time></trkpt><trkpt lat="39.807195" lon="-0.27544"><ele>288.0</ele><time>2026-04-02T16:20:49.658Z</time></trkpt><trkpt lat="39.8071417" lon="-0.27551"><ele>288.00000000000006</ele><time>2026-04-02T16:20:52.658Z</time></trkpt><trkpt lat="39.8070833" lon="-0.2755467"><ele>288.0</ele><time>2026-04-02T16:20:55.658Z</time></trkpt><trkpt lat="39.8070183" lon="-0.2755633"><ele>288.0</ele><time>2026-04-02T16:20:58.658Z</time></trkpt><trkpt lat="39.80696" lon="-0.275615"><ele>288.0</ele><time>2026-04-02T16:21:01.658Z</time></trkpt><trkpt lat="39.8068933" lon="-0.275665"><ele>288.0</ele><time>2026-04-02T16:21:04.659Z</time></trkpt><trkpt lat="39.8068317" lon="-0.2757217"><ele>288.00000000000006</ele><time>2026-04-02T16:21:06.658Z</time></trkpt><trkpt lat="39.80677" lon="-0.2757767"><ele>288.0</ele><time>2026-04-02T16:21:08.658Z</time></trkpt><trkpt lat="39.8067183" lon="-0.2758483"><ele>287.42857142857144</ele><time>2026-04-02T16:21:10.659Z</time></trkpt><trkpt lat="39.8066783" lon="-0.27593"><ele>286.8571428571429</ele><time>2026-04-02T16:21:12.658Z</time></trkpt><trkpt lat="39.80665" lon="-0.2760267"><ele>286.2857142857143</ele><time>2026-04-02T16:21:14.658Z</time></trkpt><trkpt lat="39.8066217" lon="-0.2761133"><ele>285.7142857142857</ele><time>2026-04-02T16:21:16.658Z</time></trkpt><trkpt lat="39.8066083" lon="-0.27623"><ele>285.1428571428571</ele><time>2026-04-02T16:21:19.659Z</time></trkpt><trkpt lat="39.806615" lon="-0.2763133"><ele>284.57142857142856</ele><time>2026-04-02T16:21:21.658Z</time></trkpt><trkpt lat="39.8066133" lon="-0.2763983"><ele>284.0</ele><time>2026-04-02T16:21:23.658Z</time></trkpt><trkpt lat="39.8065733" lon="-0.2764833"><ele>285.5</ele><time>2026-04-02T16:21:25.658Z</time></trkpt><trkpt lat="39.8065167" lon="-0.2765533"><ele>287.0</ele><time>2026-04-02T16:21:27.658Z</time></trkpt><trkpt lat="39.8064383" lon="-0.2765567"><ele>288.5</ele><time>2026-04-02T16:21:29.658Z</time></trkpt><trkpt lat="39.806365" lon="-0.2765333"><ele>290.0</ele><time>2026-04-02T16:21:31.658Z</time></trkpt><trkpt lat="39.8063" lon="-0.2765133"><ele>291.5</ele><time>2026-04-02T16:21:33.658Z</time></trkpt><trkpt lat="39.8062217" lon="-0.276505"><ele>293.0</ele><time>2026-04-02T16:21:35.659Z</time></trkpt><trkpt lat="39.806135" lon="-0.276525"><ele>293.0</ele><time>2026-04-02T16:21:37.658Z</time></trkpt><trkpt lat="39.8060733" lon="-0.2765717"><ele>293.0</ele><time>2026-04-02T16:21:39.658Z</time></trkpt><trkpt lat="39.8059933" lon="-0.2766417"><ele>293.0</ele><time>2026-04-02T16:21:41.658Z</time></trkpt><trkpt lat="39.8058983" lon="-0.2767167"><ele>293.0</ele><time>2026-04-02T16:21:43.659Z</time></trkpt><trkpt lat="39.8058067" lon="-0.2767983"><ele>293.0</ele><time>2026-04-02T16:21:45.658Z</time></trkpt><trkpt lat="39.8057433" lon="-0.27688"><ele>292.1666666666667</ele><time>2026-04-02T16:21:47.659Z</time></trkpt><trkpt lat="39.8056917" lon="-0.276965"><ele>291.33333333333337</ele><time>2026-04-02T16:21:49.658Z</time></trkpt><trkpt lat="39.8056483" lon="-0.2770633"><ele>290.5</ele><time>2026-04-02T16:21:51.658Z</time></trkpt><trkpt lat="39.8056217" lon="-0.277155"><ele>289.6666666666667</ele><time>2026-04-02T16:21:53.658Z</time></trkpt><trkpt lat="39.8056233" lon="-0.277245"><ele>288.8333333333333</ele><time>2026-04-02T16:21:55.658Z</time></trkpt><trkpt lat="39.805655" lon="-0.2773283"><ele>288.0</ele><time>2026-04-02T16:21:57.658Z</time></trkpt><trkpt lat="39.8056783" lon="-0.27743"><ele>288.0</ele><time>2026-04-02T16:21:59.658Z</time></trkpt><trkpt lat="39.8056883" lon="-0.2775517"><ele>288.0</ele><time>2026-04-02T16:22:01.658Z</time></trkpt><trkpt lat="39.8056467" lon="-0.2776617"><ele>288.0</ele><time>2026-04-02T16:22:03.658Z</time></trkpt><trkpt lat="39.8055683" lon="-0.277735"><ele>288.0</ele><time>2026-04-02T16:22:05.658Z</time></trkpt><trkpt lat="39.8054633" lon="-0.2777383"><ele>288.0</ele><time>2026-04-02T16:22:07.658Z</time></trkpt><trkpt lat="39.8053767" lon="-0.277685"><ele>288.00000000000006</ele><time>2026-04-02T16:22:09.659Z</time></trkpt><trkpt lat="39.8053183" lon="-0.2776317"><ele>288.0</ele><time>2026-04-02T16:22:11.658Z</time></trkpt><trkpt lat="39.8052633" lon="-0.27759"><ele>288.0</ele><time>2026-04-02T16:22:13.658Z</time></trkpt><trkpt lat="39.8052" lon="-0.2775767"><ele>288.0</ele><time>2026-04-02T16:22:15.658Z</time></trkpt><trkpt lat="39.8051367" lon="-0.2775867"><ele>288.0</ele><time>2026-04-02T16:22:17.658Z</time></trkpt><trkpt lat="39.8050667" lon="-0.2776417"><ele>288.00000000000006</ele><time>2026-04-02T16:22:19.658Z</time></trkpt><trkpt lat="39.8049983" lon="-0.2777217"><ele>288.0</ele><time>2026-04-02T16:22:21.658Z</time></trkpt><trkpt lat="39.8049433" lon="-0.2778083"><ele>285.5</ele><time>2026-04-02T16:22:23.659Z</time></trkpt><trkpt lat="39.804905" lon="-0.27791"><ele>283.0</ele><time>2026-04-02T16:22:25.658Z</time></trkpt><trkpt lat="39.8048933" lon="-0.2780133"><ele>280.5</ele><time>2026-04-02T16:22:27.659Z</time></trkpt><trkpt lat="39.8049017" lon="-0.2781117"><ele>278.0</ele><time>2026-04-02T16:22:29.658Z</time></trkpt><trkpt lat="39.8049117" lon="-0.27821"><ele>275.5</ele><time>2026-04-02T16:22:31.659Z</time></trkpt><trkpt lat="39.8049133" lon="-0.2783083"><ele>273.0</ele><time>2026-04-02T16:22:33.658Z</time></trkpt><trkpt lat="39.8049233" lon="-0.2784217"><ele>273.0</ele><time>2026-04-02T16:22:36.658Z</time></trkpt><trkpt lat="39.80491" lon="-0.278515"><ele>273.0</ele><time>2026-04-02T16:22:39.659Z</time></trkpt><trkpt lat="39.804845" lon="-0.2785883"><ele>273.0</ele><time>2026-04-02T16:22:42.659Z</time></trkpt><trkpt lat="39.8047533" lon="-0.2786"><ele>273.0</ele><time>2026-04-02T16:22:44.658Z</time></trkpt><trkpt lat="39.8046517" lon="-0.278585"><ele>273.0</ele><time>2026-04-02T16:22:46.659Z</time></trkpt><trkpt lat="39.8045883" lon="-0.278585"><ele>273.0</ele><time>2026-04-02T16:22:47.658Z</time></trkpt><trkpt lat="39.8045217" lon="-0.2785767"><ele>273.0</ele><time>2026-04-02T16:22:48.658Z</time></trkpt><trkpt lat="39.8044183" lon="-0.27857"><ele>273.0</ele><time>2026-04-02T16:22:50.659Z</time></trkpt><trkpt lat="39.80432" lon="-0.2785683"><ele>273.0</ele><time>2026-04-02T16:22:52.658Z</time></trkpt><trkpt lat="39.8042133" lon="-0.2785817"><ele>273.0</ele><time>2026-04-02T16:22:54.658Z</time></trkpt><trkpt lat="39.8041" lon="-0.278585"><ele>273.0</ele><time>2026-04-02T16:22:56.659Z</time></trkpt><trkpt lat="39.8040067" lon="-0.278585"><ele>269.8333333333333</ele><time>2026-04-02T16:22:58.658Z</time></trkpt><trkpt lat="39.80393" lon="-0.278545"><ele>266.6666666666667</ele><time>2026-04-02T16:23:00.658Z</time></trkpt><trkpt lat="39.8038717" lon="-0.278445"><ele>263.5</ele><time>2026-04-02T16:23:02.658Z</time></trkpt><trkpt lat="39.80383" lon="-0.2783383"><ele>260.33333333333337</ele><time>2026-04-02T16:23:04.658Z</time></trkpt><trkpt lat="39.8037967" lon="-0.27823"><ele>257.1666666666667</ele><time>2026-04-02T16:23:06.658Z</time></trkpt><trkpt lat="39.8037567" lon="-0.27813"><ele>254.0</ele><time>2026-04-02T16:23:08.659Z</time></trkpt><trkpt lat="39.8036917" lon="-0.2780633"><ele>254.00000000000003</ele><time>2026-04-02T16:23:10.658Z</time></trkpt><trkpt lat="39.8036167" lon="-0.2780617"><ele>254.0</ele><time>2026-04-02T16:23:12.658Z</time></trkpt><trkpt lat="39.80356" lon="-0.278135"><ele>254.0</ele><time>2026-04-02T16:23:14.658Z</time></trkpt><trkpt lat="39.80354" lon="-0.27824"><ele>254.0</ele><time>2026-04-02T16:23:16.659Z</time></trkpt><trkpt lat="39.80353" lon="-0.2783633"><ele>254.00000000000003</ele><time>2026-04-02T16:23:18.658Z</time></trkpt><trkpt lat="39.8035167" lon="-0.2784967"><ele>254.0</ele><time>2026-04-02T16:23:20.658Z</time></trkpt><trkpt lat="39.803525" lon="-0.2786267"><ele>254.00000000000003</ele><time>2026-04-02T16:23:22.659Z</time></trkpt><trkpt lat="39.8035233" lon="-0.2787417"><ele>254.0</ele><time>2026-04-02T16:23:24.658Z</time></trkpt><trkpt lat="39.8035217" lon="-0.27885"><ele>254.0</ele><time>2026-04-02T16:23:26.658Z</time></trkpt><trkpt lat="39.8035017" lon="-0.27893"><ele>254.0</ele><time>2026-04-02T16:23:28.658Z</time></trkpt><trkpt lat="39.80343" lon="-0.2790067"><ele>254.00000000000003</ele><time>2026-04-02T16:23:31.659Z</time></trkpt><trkpt lat="39.80334" lon="-0.2790117"><ele>254.0</ele><time>2026-04-02T16:23:33.658Z</time></trkpt><trkpt lat="39.80323" lon="-0.2789983"><ele>251.6</ele><time>2026-04-02T16:23:35.659Z</time></trkpt><trkpt lat="39.8031283" lon="-0.2789583"><ele>249.2</ele><time>2026-04-02T16:23:37.659Z</time></trkpt><trkpt lat="39.803035" lon="-0.278945"><ele>246.79999999999998</ele><time>2026-04-02T16:23:39.658Z</time></trkpt><trkpt lat="39.8029267" lon="-0.27891"><ele>244.39999999999998</ele><time>2026-04-02T16:23:41.658Z</time></trkpt><trkpt lat="39.802865" lon="-0.27889"><ele>242.0</ele><time>2026-04-02T16:23:42.659Z</time></trkpt><trkpt lat="39.8027583" lon="-0.2788417"><ele>241.66666666666669</ele><time>2026-04-02T16:23:44.658Z</time></trkpt><trkpt lat="39.8026717" lon="-0.2787917"><ele>241.33333333333334</ele><time>2026-04-02T16:23:46.658Z</time></trkpt><trkpt lat="39.8026033" lon="-0.2787617"><ele>241.0</ele><time>2026-04-02T16:23:48.658Z</time></trkpt><trkpt lat="39.8025267" lon="-0.2787183"><ele>240.66666666666669</ele><time>2026-04-02T16:23:50.658Z</time></trkpt><trkpt lat="39.8024633" lon="-0.278685"><ele>240.33333333333334</ele><time>2026-04-02T16:23:52.658Z</time></trkpt><trkpt lat="39.8023933" lon="-0.2786267"><ele>240.0</ele><time>2026-04-02T16:23:54.658Z</time></trkpt><trkpt lat="39.8023083" lon="-0.2785483"><ele>237.33333333333334</ele><time>2026-04-02T16:23:56.658Z</time></trkpt><trkpt lat="39.8022217" lon="-0.2784583"><ele>234.66666666666669</ele><time>2026-04-02T16:23:58.658Z</time></trkpt><trkpt lat="39.802135" lon="-0.2783967"><ele>232.0</ele><time>2026-04-02T16:24:00.658Z</time></trkpt><trkpt lat="39.8020683" lon="-0.2783683"><ele>229.33333333333334</ele><time>2026-04-02T16:24:02.659Z</time></trkpt><trkpt lat="39.8019917" lon="-0.27838"><ele>226.66666666666669</ele><time>2026-04-02T16:24:04.659Z</time></trkpt><trkpt lat="39.8019167" lon="-0.2784267"><ele>224.0</ele><time>2026-04-02T16:24:06.659Z</time></trkpt><trkpt lat="39.80185" lon="-0.27849"><ele>223.33333333333334</ele><time>2026-04-02T16:24:08.659Z</time></trkpt><trkpt lat="39.8017983" lon="-0.2785567"><ele>222.66666666666669</ele><time>2026-04-02T16:24:10.658Z</time></trkpt><trkpt lat="39.8017433" lon="-0.2786283"><ele>222.0</ele><time>2026-04-02T16:24:12.659Z</time></trkpt><trkpt lat="39.80167" lon="-0.2787"><ele>221.33333333333331</ele><time>2026-04-02T16:24:14.658Z</time></trkpt><trkpt lat="39.801585" lon="-0.2787267"><ele>220.66666666666666</ele><time>2026-04-02T16:24:16.659Z</time></trkpt><trkpt lat="39.80149" lon="-0.2786733"><ele>220.0</ele><time>2026-04-02T16:24:18.658Z</time></trkpt><trkpt lat="39.8013867" lon="-0.2786083"><ele>219.99999999999997</ele><time>2026-04-02T16:24:20.658Z</time></trkpt><trkpt lat="39.8012667" lon="-0.2785567"><ele>220.0</ele><time>2026-04-02T16:24:22.658Z</time></trkpt><trkpt lat="39.801205" lon="-0.2785233"><ele>220.0</ele><time>2026-04-02T16:24:23.658Z</time></trkpt><trkpt lat="39.8011383" lon="-0.2784783"><ele>220.0</ele><time>2026-04-02T16:24:24.658Z</time></trkpt><trkpt lat="39.801075" lon="-0.2784417"><ele>219.99999999999997</ele><time>2026-04-02T16:24:25.658Z</time></trkpt><trkpt lat="39.8010117" lon="-0.2784083"><ele>220.0</ele><time>2026-04-02T16:24:26.659Z</time></trkpt><trkpt lat="39.8009483" lon="-0.278375"><ele>218.99999999999997</ele><time>2026-04-02T16:24:27.658Z</time></trkpt><trkpt lat="39.8008817" lon="-0.2783383"><ele>218.0</ele><time>2026-04-02T16:24:28.659Z</time></trkpt><trkpt lat="39.8008183" lon="-0.2783083"><ele>217.0</ele><time>2026-04-02T16:24:29.658Z</time></trkpt><trkpt lat="39.8007183" lon="-0.27826"><ele>216.0</ele><time>2026-04-02T16:24:31.659Z</time></trkpt><trkpt lat="39.800605" lon="-0.2782017"><ele>214.99999999999997</ele><time>2026-04-02T16:24:33.658Z</time></trkpt><trkpt lat="39.8005433" lon="-0.2781617"><ele>214.0</ele><time>2026-04-02T16:24:34.658Z</time></trkpt><trkpt lat="39.8004883" lon="-0.27812"><ele>212.2</ele><time>2026-04-02T16:24:35.659Z</time></trkpt><trkpt lat="39.800405" lon="-0.27798"><ele>210.39999999999998</ele><time>2026-04-02T16:24:37.658Z</time></trkpt><trkpt lat="39.800375" lon="-0.2778767"><ele>208.6</ele><time>2026-04-02T16:24:38.658Z</time></trkpt><trkpt lat="39.8003467" lon="-0.2777567"><ele>206.8</ele><time>2026-04-02T16:24:39.658Z</time></trkpt><trkpt lat="39.80032" lon="-0.27764"><ele>205.0</ele><time>2026-04-02T16:24:40.658Z</time></trkpt><trkpt lat="39.80029" lon="-0.2775383"><ele>204.99999999999997</ele><time>2026-04-02T16:24:41.659Z</time></trkpt><trkpt lat="39.8002533" lon="-0.2774433"><ele>205.0</ele><time>2026-04-02T16:24:42.658Z</time></trkpt><trkpt lat="39.8002217" lon="-0.27736"><ele>205.0</ele><time>2026-04-02T16:24:43.658Z</time></trkpt><trkpt lat="39.8001867" lon="-0.2772767"><ele>205.0</ele><time>2026-04-02T16:24:44.658Z</time></trkpt><trkpt lat="39.8001517" lon="-0.2771933"><ele>204.99999999999997</ele><time>2026-04-02T16:24:45.658Z</time></trkpt><trkpt lat="39.8000967" lon="-0.2770483"><ele>205.0</ele><time>2026-04-02T16:24:47.658Z</time></trkpt><trkpt lat="39.8000217" lon="-0.2769183"><ele>202.6</ele><time>2026-04-02T16:24:49.658Z</time></trkpt><trkpt lat="39.7999267" lon="-0.27682"><ele>200.2</ele><time>2026-04-02T16:24:51.658Z</time></trkpt><trkpt lat="39.7998233" lon="-0.2767283"><ele>197.8</ele><time>2026-04-02T16:24:53.659Z</time></trkpt><trkpt lat="39.799715" lon="-0.2766433"><ele>195.4</ele><time>2026-04-02T16:24:55.658Z</time></trkpt><trkpt lat="39.7996517" lon="-0.2765983"><ele>193.0</ele><time>2026-04-02T16:24:56.659Z</time></trkpt><trkpt lat="39.7995933" lon="-0.276555"><ele>192.99999999999997</ele><time>2026-04-02T16:24:57.658Z</time></trkpt><trkpt lat="39.799535" lon="-0.2765117"><ele>193.0</ele><time>2026-04-02T16:24:58.658Z</time></trkpt><trkpt lat="39.7994783" lon="-0.2764683"><ele>193.0</ele><time>2026-04-02T16:24:59.658Z</time></trkpt><trkpt lat="39.7993983" lon="-0.27641"><ele>193.0</ele><time>2026-04-02T16:25:01.658Z</time></trkpt><trkpt lat="39.7993333" lon="-0.2763167"><ele>192.99999999999997</ele><time>2026-04-02T16:25:03.658Z</time></trkpt><trkpt lat="39.799275" lon="-0.276245"><ele>193.0</ele><time>2026-04-02T16:25:05.658Z</time></trkpt><trkpt lat="39.799215" lon="-0.2762017"><ele>192.16666666666666</ele><time>2026-04-02T16:25:07.658Z</time></trkpt><trkpt lat="39.7991483" lon="-0.276225"><ele>191.33333333333331</ele><time>2026-04-02T16:25:09.658Z</time></trkpt><trkpt lat="39.7990733" lon="-0.27628"><ele>190.5</ele><time>2026-04-02T16:25:12.658Z</time></trkpt><trkpt lat="39.7990167" lon="-0.27632"><ele>189.66666666666666</ele><time>2026-04-02T16:25:14.657Z</time></trkpt><trkpt lat="39.7989333" lon="-0.2763733"><ele>188.83333333333331</ele><time>2026-04-02T16:25:17.657Z</time></trkpt><trkpt lat="39.7988583" lon="-0.276425"><ele>188.0</ele><time>2026-04-02T16:25:20.657Z</time></trkpt><trkpt lat="39.798785" lon="-0.27649"><ele>187.85714285714286</ele><time>2026-04-02T16:25:23.657Z</time></trkpt><trkpt lat="39.7987217" lon="-0.2765433"><ele>187.71428571428572</ele><time>2026-04-02T16:25:26.657Z</time></trkpt><trkpt lat="39.7986367" lon="-0.2765933"><ele>187.57142857142856</ele><time>2026-04-02T16:25:29.657Z</time></trkpt><trkpt lat="39.798575" lon="-0.2766367"><ele>187.42857142857144</ele><time>2026-04-02T16:25:31.658Z</time></trkpt><trkpt lat="39.7985083" lon="-0.276675"><ele>187.2857142857143</ele><time>2026-04-02T16:25:33.657Z</time></trkpt><trkpt lat="39.79845" lon="-0.276715"><ele>187.14285714285714</ele><time>2026-04-02T16:25:35.658Z</time></trkpt><trkpt lat="39.7983883" lon="-0.27675"><ele>187.0</ele><time>2026-04-02T16:25:37.657Z</time></trkpt><trkpt lat="39.7983317" lon="-0.2767867"><ele>188.5</ele><time>2026-04-02T16:25:39.657Z</time></trkpt><trkpt lat="39.7982567" lon="-0.27684"><ele>190.0</ele><time>2026-04-02T16:25:42.657Z</time></trkpt><trkpt lat="39.798185" lon="-0.2768917"><ele>191.5</ele><time>2026-04-02T16:25:45.657Z</time></trkpt><trkpt lat="39.7981" lon="-0.2769183"><ele>193.0</ele><time>2026-04-02T16:25:48.657Z</time></trkpt><trkpt lat="39.7980233" lon="-0.2769483"><ele>194.49999999999997</ele><time>2026-04-02T16:25:51.658Z</time></trkpt><trkpt lat="39.7979567" lon="-0.2769633"><ele>196.0</ele><time>2026-04-02T16:25:54.657Z</time></trkpt><trkpt lat="39.7978783" lon="-0.2769683"><ele>195.99999999999997</ele><time>2026-04-02T16:25:57.657Z</time></trkpt><trkpt lat="39.797805" lon="-0.276925"><ele>196.0</ele><time>2026-04-02T16:26:00.657Z</time></trkpt><trkpt lat="39.79776" lon="-0.2768583"><ele>196.0</ele><time>2026-04-02T16:26:02.657Z</time></trkpt><trkpt lat="39.797715" lon="-0.2767867"><ele>196.0</ele><time>2026-04-02T16:26:04.657Z</time></trkpt><trkpt lat="39.7976683" lon="-0.2767183"><ele>195.99999999999997</ele><time>2026-04-02T16:26:06.657Z</time></trkpt><trkpt lat="39.7976267" lon="-0.27664"><ele>196.0</ele><time>2026-04-02T16:26:08.657Z</time></trkpt><trkpt lat="39.7975717" lon="-0.2765517"><ele>197.99999999999997</ele><time>2026-04-02T16:26:11.657Z</time></trkpt><trkpt lat="39.7975083" lon="-0.2764733"><ele>200.0</ele><time>2026-04-02T16:26:14.657Z</time></trkpt><trkpt lat="39.7974467" lon="-0.276405"><ele>202.0</ele><time>2026-04-02T16:26:17.657Z</time></trkpt><trkpt lat="39.7973817" lon="-0.2763383"><ele>204.0</ele><time>2026-04-02T16:26:20.657Z</time></trkpt><trkpt lat="39.7973433" lon="-0.2762317"><ele>205.99999999999997</ele><time>2026-04-02T16:26:23.657Z</time></trkpt><trkpt lat="39.797365" lon="-0.2761383"><ele>208.0</ele><time>2026-04-02T16:26:25.658Z</time></trkpt><trkpt lat="39.7974167" lon="-0.27606"><ele>207.16666666666666</ele><time>2026-04-02T16:26:27.657Z</time></trkpt><trkpt lat="39.797475" lon="-0.2760017"><ele>206.33333333333331</ele><time>2026-04-02T16:26:29.658Z</time></trkpt><trkpt lat="39.7975333" lon="-0.27594"><ele>205.5</ele><time>2026-04-02T16:26:31.657Z</time></trkpt><trkpt lat="39.7975817" lon="-0.2758867"><ele>204.66666666666669</ele><time>2026-04-02T16:26:33.658Z</time></trkpt><trkpt lat="39.7976433" lon="-0.275805"><ele>203.83333333333334</ele><time>2026-04-02T16:26:36.657Z</time></trkpt><trkpt lat="39.7977117" lon="-0.27573"><ele>203.0</ele><time>2026-04-02T16:26:39.658Z</time></trkpt><trkpt lat="39.797775" lon="-0.2756517"><ele>204.16666666666669</ele><time>2026-04-02T16:26:42.657Z</time></trkpt><trkpt lat="39.7978267" lon="-0.275565"><ele>205.33333333333334</ele><time>2026-04-02T16:26:45.657Z</time></trkpt><trkpt lat="39.7978767" lon="-0.2755117"><ele>206.5</ele><time>2026-04-02T16:26:48.657Z</time></trkpt><trkpt lat="39.7979217" lon="-0.27543"><ele>207.66666666666669</ele><time>2026-04-02T16:26:51.657Z</time></trkpt><trkpt lat="39.7979817" lon="-0.27535"><ele>208.83333333333334</ele><time>2026-04-02T16:26:54.658Z</time></trkpt><trkpt lat="39.798015" lon="-0.2752383"><ele>210.0</ele><time>2026-04-02T16:26:57.657Z</time></trkpt><trkpt lat="39.7980317" lon="-0.2751583"><ele>210.0</ele><time>2026-04-02T16:26:59.658Z</time></trkpt><trkpt lat="39.798055" lon="-0.2750567"><ele>210.0</ele><time>2026-04-02T16:27:01.657Z</time></trkpt><trkpt lat="39.7980683" lon="-0.274955"><ele>210.0</ele><time>2026-04-02T16:27:03.657Z</time></trkpt><trkpt lat="39.7980817" lon="-0.2748567"><ele>210.0</ele><time>2026-04-02T16:27:05.657Z</time></trkpt><trkpt lat="39.7980917" lon="-0.2747567"><ele>210.0</ele><time>2026-04-02T16:27:07.657Z</time></trkpt><trkpt lat="39.7981067" lon="-0.27465"><ele>210.0</ele><time>2026-04-02T16:27:09.657Z</time></trkpt><trkpt lat="39.79812" lon="-0.2745467"><ele>209.0</ele><time>2026-04-02T16:27:11.657Z</time></trkpt><trkpt lat="39.7981267" lon="-0.2744383"><ele>208.0</ele><time>2026-04-02T16:27:13.657Z</time></trkpt><trkpt lat="39.7981333" lon="-0.2743267"><ele>207.0</ele><time>2026-04-02T16:27:15.657Z</time></trkpt><trkpt lat="39.7981333" lon="-0.2742217"><ele>206.0</ele><time>2026-04-02T16:27:17.657Z</time></trkpt><trkpt lat="39.7981283" lon="-0.2741133"><ele>205.0</ele><time>2026-04-02T16:27:19.657Z</time></trkpt><trkpt lat="39.7981183" lon="-0.2740167"><ele>204.0</ele><time>2026-04-02T16:27:21.657Z</time></trkpt><trkpt lat="39.798115" lon="-0.273925"><ele>203.66666666666666</ele><time>2026-04-02T16:27:23.657Z</time></trkpt><trkpt lat="39.7981083" lon="-0.2738367"><ele>203.33333333333331</ele><time>2026-04-02T16:27:25.657Z</time></trkpt><trkpt lat="39.7981033" lon="-0.2737333"><ele>203.0</ele><time>2026-04-02T16:27:28.657Z</time></trkpt><trkpt lat="39.798105" lon="-0.273635"><ele>202.66666666666666</ele><time>2026-04-02T16:27:31.657Z</time></trkpt><trkpt lat="39.798105" lon="-0.27354"><ele>202.33333333333331</ele><time>2026-04-02T16:27:34.657Z</time></trkpt><trkpt lat="39.798115" lon="-0.2734283"><ele>202.0</ele><time>2026-04-02T16:27:37.657Z</time></trkpt><trkpt lat="39.79812" lon="-0.273305"><ele>201.99999999999997</ele><time>2026-04-02T16:27:40.657Z</time></trkpt><trkpt lat="39.7981033" lon="-0.2731817"><ele>202.0</ele><time>2026-04-02T16:27:43.657Z</time></trkpt><trkpt lat="39.7980983" lon="-0.2731"><ele>202.0</ele><time>2026-04-02T16:27:45.657Z</time></trkpt><trkpt lat="39.7980833" lon="-0.2729933"><ele>202.0</ele><time>2026-04-02T16:27:47.657Z</time></trkpt><trkpt lat="39.798055" lon="-0.2728883"><ele>201.99999999999997</ele><time>2026-04-02T16:27:49.658Z</time></trkpt><trkpt lat="39.7980167" lon="-0.272795"><ele>202.0</ele><time>2026-04-02T16:27:51.657Z</time></trkpt><trkpt lat="39.7979633" lon="-0.2727117"><ele>200.6</ele><time>2026-04-02T16:27:53.657Z</time></trkpt><trkpt lat="39.7978917" lon="-0.2726383"><ele>199.2</ele><time>2026-04-02T16:27:55.657Z</time></trkpt><trkpt lat="39.7978283" lon="-0.2725517"><ele>197.8</ele><time>2026-04-02T16:27:57.658Z</time></trkpt><trkpt lat="39.7977567" lon="-0.27248"><ele>196.4</ele><time>2026-04-02T16:27:59.657Z</time></trkpt><trkpt lat="39.79768" lon="-0.2724083"><ele>195.0</ele><time>2026-04-02T16:28:01.657Z</time></trkpt><trkpt lat="39.7975983" lon="-0.2723467"><ele>194.83333333333334</ele><time>2026-04-02T16:28:03.657Z</time></trkpt><trkpt lat="39.7975117" lon="-0.2722867"><ele>194.66666666666669</ele><time>2026-04-02T16:28:05.658Z</time></trkpt><trkpt lat="39.7974267" lon="-0.2722383"><ele>194.5</ele><time>2026-04-02T16:28:07.658Z</time></trkpt><trkpt lat="39.797345" lon="-0.272185"><ele>194.33333333333334</ele><time>2026-04-02T16:28:09.657Z</time></trkpt><trkpt lat="39.7972817" lon="-0.2721517"><ele>194.16666666666669</ele><time>2026-04-02T16:28:11.658Z</time></trkpt><trkpt lat="39.7972267" lon="-0.2721117"><ele>194.0</ele><time>2026-04-02T16:28:13.657Z</time></trkpt><trkpt lat="39.7971517" lon="-0.2720567"><ele>194.00000000000003</ele><time>2026-04-02T16:28:16.657Z</time></trkpt><trkpt lat="39.797095" lon="-0.27202"><ele>194.0</ele><time>2026-04-02T16:28:18.657Z</time></trkpt><trkpt lat="39.7970133" lon="-0.271955"><ele>194.0</ele><time>2026-04-02T16:28:21.658Z</time></trkpt><trkpt lat="39.7969733" lon="-0.2718733"><ele>194.0</ele><time>2026-04-02T16:28:24.657Z</time></trkpt><trkpt lat="39.7969417" lon="-0.2717817"><ele>194.00000000000003</ele><time>2026-04-02T16:28:27.657Z</time></trkpt><trkpt lat="39.79696" lon="-0.2716717"><ele>194.0</ele><time>2026-04-02T16:28:30.658Z</time></trkpt><trkpt lat="39.79701" lon="-0.2715617"><ele>194.0</ele><time>2026-04-02T16:28:32.657Z</time></trkpt><trkpt lat="39.797065" lon="-0.2714567"><ele>194.0</ele><time>2026-04-02T16:28:34.658Z</time></trkpt><trkpt lat="39.7971133" lon="-0.271375"><ele>194.0</ele><time>2026-04-02T16:28:36.657Z</time></trkpt><trkpt lat="39.7971517" lon="-0.271305"><ele>194.0</ele><time>2026-04-02T16:28:38.657Z</time></trkpt><trkpt lat="39.79718" lon="-0.2712283"><ele>194.0</ele><time>2026-04-02T16:28:40.657Z</time></trkpt><trkpt lat="39.7971933" lon="-0.2711467"><ele>194.0</ele><time>2026-04-02T16:28:42.657Z</time></trkpt><trkpt lat="39.7971767" lon="-0.2710517"><ele>194.0</ele><time>2026-04-02T16:28:49.657Z</time></trkpt><trkpt lat="39.7971117" lon="-0.2710617"><ele>193.42857142857142</ele><time>2026-04-02T16:28:53.657Z</time></trkpt><trkpt lat="39.7970443" lon="-0.271053"><ele>192.85714285714286</ele><time>2026-04-02T16:29:06.71Z</time></trkpt><trkpt lat="39.796978" lon="-0.2710287"><ele>192.28571428571428</ele><time>2026-04-02T16:29:16.693Z</time></trkpt><trkpt lat="39.7969103" lon="-0.2710307"><ele>191.71428571428572</ele><time>2026-04-02T16:29:21.658Z</time></trkpt><trkpt lat="39.7968444" lon="-0.2710181"><ele>191.14285714285717</ele><time>2026-04-02T16:29:27.665Z</time></trkpt><trkpt lat="39.7967868" lon="-0.270959"><ele>190.57142857142858</ele><time>2026-04-02T16:29:34.686Z</time></trkpt><trkpt lat="39.7968578" lon="-0.2710219"><ele>190.0</ele><time>2026-04-02T16:29:49.717Z</time></trkpt><trkpt lat="39.7969258" lon="-0.271053"><ele>190.0</ele><time>2026-04-02T16:29:52.679Z</time></trkpt><trkpt lat="39.7970175" lon="-0.2710597"><ele>190.0</ele><time>2026-04-02T16:29:55.657Z</time></trkpt><trkpt lat="39.7971066" lon="-0.2710665"><ele>190.0</ele><time>2026-04-02T16:29:58.713Z</time></trkpt><trkpt lat="39.7971827" lon="-0.271069"><ele>190.0</ele><time>2026-04-02T16:30:00.688Z</time></trkpt><trkpt lat="39.7972537" lon="-0.2710309"><ele>190.0</ele><time>2026-04-02T16:30:02.663Z</time></trkpt><trkpt lat="39.7973388" lon="-0.2709365"><ele>190.0</ele><time>2026-04-02T16:30:04.658Z</time></trkpt><trkpt lat="39.7974053" lon="-0.2708383"><ele>190.0</ele><time>2026-04-02T16:30:06.722Z</time></trkpt><trkpt lat="39.7974847" lon="-0.2707473"><ele>190.0</ele><time>2026-04-02T16:30:08.698Z</time></trkpt><trkpt lat="39.7975628" lon="-0.2706848"><ele>190.0</ele><time>2026-04-02T16:30:10.657Z</time></trkpt><trkpt lat="39.7976171" lon="-0.2706095"><ele>190.0</ele><time>2026-04-02T16:30:31.658Z</time></trkpt><trkpt lat="39.7976885" lon="-0.2705568"><ele>190.0</ele><time>2026-04-02T16:30:33.657Z</time></trkpt><trkpt lat="39.7977634" lon="-0.2704963"><ele>190.0</ele><time>2026-04-02T16:30:35.657Z</time></trkpt><trkpt lat="39.7978288" lon="-0.2704428"><ele>186.0</ele><time>2026-04-02T16:30:37.657Z</time></trkpt><trkpt lat="39.7978739" lon="-0.2703726"><ele>182.0</ele><time>2026-04-02T16:30:39.657Z</time></trkpt><trkpt lat="39.7978899" lon="-0.2702636"><ele>178.0</ele><time>2026-04-02T16:30:41.657Z</time></trkpt><trkpt lat="39.797873" lon="-0.2701261"><ele>174.0</ele><time>2026-04-02T16:30:43.657Z</time></trkpt><trkpt lat="39.7978415" lon="-0.2699845"><ele>170.0</ele><time>2026-04-02T16:30:45.657Z</time></trkpt><trkpt lat="39.7977903" lon="-0.2698545"><ele>169.0</ele><time>2026-04-02T16:30:47.657Z</time></trkpt><trkpt lat="39.7977228" lon="-0.2697415"><ele>168.0</ele><time>2026-04-02T16:30:49.657Z</time></trkpt><trkpt lat="39.797675" lon="-0.269645"><ele>167.0</ele><time>2026-04-02T16:30:51.657Z</time></trkpt><trkpt lat="39.7976867" lon="-0.2695467"><ele>166.0</ele><time>2026-04-02T16:30:53.657Z</time></trkpt><trkpt lat="39.7977683" lon="-0.269495"><ele>165.0</ele><time>2026-04-02T16:30:55.658Z</time></trkpt><trkpt lat="39.7978733" lon="-0.2694533"><ele>165.0</ele><time>2026-04-02T16:30:57.657Z</time></trkpt><trkpt lat="39.7979983" lon="-0.2694233"><ele>165.0</ele><time>2026-04-02T16:30:59.657Z</time></trkpt><trkpt lat="39.798115" lon="-0.2693683"><ele>165.0</ele><time>2026-04-02T16:31:01.657Z</time></trkpt><trkpt lat="39.79817" lon="-0.26932"><ele>165.0</ele><time>2026-04-02T16:31:02.657Z</time></trkpt><trkpt lat="39.7982333" lon="-0.26927"><ele>165.0</ele><time>2026-04-02T16:31:03.657Z</time></trkpt><trkpt lat="39.7982917" lon="-0.2692133"><ele>165.0</ele><time>2026-04-02T16:31:04.658Z</time></trkpt><trkpt lat="39.79835" lon="-0.26916"><ele>165.0</ele><time>2026-04-02T16:31:05.657Z</time></trkpt><trkpt lat="39.7984067" lon="-0.2691117"><ele>165.0</ele><time>2026-04-02T16:31:06.657Z</time></trkpt><trkpt lat="39.7984633" lon="-0.2690683"><ele>165.0</ele><time>2026-04-02T16:31:07.657Z</time></trkpt><trkpt lat="39.7985533" lon="-0.2689883"><ele>165.0</ele><time>2026-04-02T16:31:09.657Z</time></trkpt><trkpt lat="39.7986" lon="-0.268925"><ele>165.0</ele><time>2026-04-02T16:31:11.657Z</time></trkpt><trkpt lat="39.798625" lon="-0.2688167"><ele>162.8</ele><time>2026-04-02T16:31:14.658Z</time></trkpt><trkpt lat="39.79861" lon="-0.2687217"><ele>160.6</ele><time>2026-04-02T16:31:16.658Z</time></trkpt><trkpt lat="39.7986083" lon="-0.2686117"><ele>158.4</ele><time>2026-04-02T16:31:18.657Z</time></trkpt><trkpt lat="39.798635" lon="-0.26849"><ele>156.2</ele><time>2026-04-02T16:31:20.657Z</time></trkpt><trkpt lat="39.79867" lon="-0.268385"><ele>154.0</ele><time>2026-04-02T16:31:22.657Z</time></trkpt><trkpt lat="39.7987533" lon="-0.2682917"><ele>154.0</ele><time>2026-04-02T16:31:24.657Z</time></trkpt><trkpt lat="39.7988317" lon="-0.2681767"><ele>154.0</ele><time>2026-04-02T16:31:26.657Z</time></trkpt><trkpt lat="39.7988883" lon="-0.2680433"><ele>154.0</ele><time>2026-04-02T16:31:28.658Z</time></trkpt><trkpt lat="39.7989333" lon="-0.2678933"><ele>154.0</ele><time>2026-04-02T16:31:30.657Z</time></trkpt><trkpt lat="39.798975" lon="-0.2677283"><ele>154.0</ele><time>2026-04-02T16:31:32.657Z</time></trkpt><trkpt lat="39.7990017" lon="-0.2676467"><ele>154.0</ele><time>2026-04-02T16:31:33.657Z</time></trkpt><trkpt lat="39.7990233" lon="-0.2675633"><ele>154.0</ele><time>2026-04-02T16:31:34.657Z</time></trkpt><trkpt lat="39.7990467" lon="-0.267475"><ele>154.0</ele><time>2026-04-02T16:31:35.657Z</time></trkpt><trkpt lat="39.79907" lon="-0.2673933"><ele>154.0</ele><time>2026-04-02T16:31:36.657Z</time></trkpt><trkpt lat="39.7990933" lon="-0.2672267"><ele>154.0</ele><time>2026-04-02T16:31:38.657Z</time></trkpt><trkpt lat="39.7991017" lon="-0.2671367"><ele>153.28571428571428</ele><time>2026-04-02T16:31:39.658Z</time></trkpt><trkpt lat="39.7990967" lon="-0.2670417"><ele>152.57142857142856</ele><time>2026-04-02T16:31:40.657Z</time></trkpt><trkpt lat="39.7990967" lon="-0.2669483"><ele>151.85714285714286</ele><time>2026-04-02T16:31:41.657Z</time></trkpt><trkpt lat="39.7991033" lon="-0.266855"><ele>151.14285714285714</ele><time>2026-04-02T16:31:42.658Z</time></trkpt><trkpt lat="39.7991117" lon="-0.2667483"><ele>150.42857142857142</ele><time>2026-04-02T16:31:43.657Z</time></trkpt><trkpt lat="39.7991183" lon="-0.2666533"><ele>149.71428571428572</ele><time>2026-04-02T16:31:44.657Z</time></trkpt><trkpt lat="39.7991317" lon="-0.2665583"><ele>149.0</ele><time>2026-04-02T16:31:45.657Z</time></trkpt><trkpt lat="39.7991533" lon="-0.2664567"><ele>148.5</ele><time>2026-04-02T16:31:46.657Z</time></trkpt><trkpt lat="39.7991733" lon="-0.266345"><ele>148.0</ele><time>2026-04-02T16:31:47.657Z</time></trkpt><trkpt lat="39.79919" lon="-0.2662333"><ele>147.5</ele><time>2026-04-02T16:31:48.657Z</time></trkpt><trkpt lat="39.7992033" lon="-0.2661283"><ele>147.0</ele><time>2026-04-02T16:31:49.657Z</time></trkpt><trkpt lat="39.799225" lon="-0.266015"><ele>146.5</ele><time>2026-04-02T16:31:50.658Z</time></trkpt><trkpt lat="39.7992433" lon="-0.2658967"><ele>146.0</ele><time>2026-04-02T16:31:51.658Z</time></trkpt><trkpt lat="39.7992567" lon="-0.2657717"><ele>146.0</ele><time>2026-04-02T16:31:52.657Z</time></trkpt><trkpt lat="39.7992717" lon="-0.2656517"><ele>146.0</ele><time>2026-04-02T16:31:53.658Z</time></trkpt><trkpt lat="39.79928" lon="-0.2655367"><ele>146.0</ele><time>2026-04-02T16:31:54.657Z</time></trkpt><trkpt lat="39.7992867" lon="-0.2654317"><ele>146.0</ele><time>2026-04-02T16:31:55.657Z</time></trkpt><trkpt lat="39.799305" lon="-0.2653333"><ele>146.0</ele><time>2026-04-02T16:31:56.657Z</time></trkpt><trkpt lat="39.7993233" lon="-0.2652283"><ele>146.0</ele><time>2026-04-02T16:31:57.657Z</time></trkpt><trkpt lat="39.7993483" lon="-0.26513"><ele>146.42857142857142</ele><time>2026-04-02T16:31:58.657Z</time></trkpt><trkpt lat="39.7993667" lon="-0.26503"><ele>146.85714285714286</ele><time>2026-04-02T16:31:59.657Z</time></trkpt><trkpt lat="39.7993817" lon="-0.2649267"><ele>147.28571428571428</ele><time>2026-04-02T16:32:00.658Z</time></trkpt><trkpt lat="39.799385" lon="-0.2648367"><ele>147.71428571428572</ele><time>2026-04-02T16:32:01.658Z</time></trkpt><trkpt lat="39.7993867" lon="-0.264745"><ele>148.14285714285714</ele><time>2026-04-02T16:32:02.657Z</time></trkpt><trkpt lat="39.7993783" lon="-0.26465"><ele>148.57142857142856</ele><time>2026-04-02T16:32:03.657Z</time></trkpt><trkpt lat="39.7993667" lon="-0.2645633"><ele>149.0</ele><time>2026-04-02T16:32:04.658Z</time></trkpt><trkpt lat="39.79935" lon="-0.2644833"><ele>148.0</ele><time>2026-04-02T16:32:05.657Z</time></trkpt><trkpt lat="39.79933" lon="-0.2644033"><ele>147.0</ele><time>2026-04-02T16:32:06.657Z</time></trkpt><trkpt lat="39.7993083" lon="-0.2643233"><ele>146.0</ele><time>2026-04-02T16:32:07.657Z</time></trkpt><trkpt lat="39.7992933" lon="-0.2641683"><ele>145.0</ele><time>2026-04-02T16:32:09.657Z</time></trkpt><trkpt lat="39.7992917" lon="-0.2640783"><ele>144.0</ele><time>2026-04-02T16:32:10.657Z</time></trkpt><trkpt lat="39.799295" lon="-0.2639783"><ele>143.0</ele><time>2026-04-02T16:32:11.657Z</time></trkpt><trkpt lat="39.7992983" lon="-0.2638867"><ele>142.66666666666666</ele><time>2026-04-02T16:32:12.657Z</time></trkpt><trkpt lat="39.7993083" lon="-0.2637967"><ele>142.33333333333331</ele><time>2026-04-02T16:32:13.658Z</time></trkpt><trkpt lat="39.79934" lon="-0.26366"><ele>142.0</ele><time>2026-04-02T16:32:15.657Z</time></trkpt><trkpt lat="39.7993783" lon="-0.2635733"><ele>141.66666666666666</ele><time>2026-04-02T16:32:17.657Z</time></trkpt><trkpt lat="39.799445" lon="-0.2635167"><ele>141.33333333333334</ele><time>2026-04-02T16:32:20.657Z</time></trkpt><trkpt lat="39.7995233" lon="-0.263485"><ele>141.0</ele><time>2026-04-02T16:32:23.657Z</time></trkpt><trkpt lat="39.7995917" lon="-0.2634483"><ele>141.66666666666666</ele><time>2026-04-02T16:32:26.658Z</time></trkpt><trkpt lat="39.7996567" lon="-0.263415"><ele>142.33333333333334</ele><time>2026-04-02T16:32:28.657Z</time></trkpt><trkpt lat="39.799715" lon="-0.2633767"><ele>143.0</ele><time>2026-04-02T16:32:30.657Z</time></trkpt><trkpt lat="39.7997833" lon="-0.2633383"><ele>143.66666666666669</ele><time>2026-04-02T16:32:32.657Z</time></trkpt><trkpt lat="39.7998567" lon="-0.2632867"><ele>144.33333333333334</ele><time>2026-04-02T16:32:34.657Z</time></trkpt><trkpt lat="39.7999333" lon="-0.263235"><ele>145.0</ele><time>2026-04-02T16:32:36.657Z</time></trkpt><trkpt lat="39.8000067" lon="-0.2631783"><ele>145.0</ele><time>2026-04-02T16:32:38.657Z</time></trkpt><trkpt lat="39.800075" lon="-0.2631217"><ele>145.0</ele><time>2026-04-02T16:32:40.657Z</time></trkpt><trkpt lat="39.8001583" lon="-0.26307"><ele>145.0</ele><time>2026-04-02T16:32:42.657Z</time></trkpt><trkpt lat="39.8002533" lon="-0.2630117"><ele>145.0</ele><time>2026-04-02T16:32:44.658Z</time></trkpt><trkpt lat="39.800335" lon="-0.26294"><ele>145.0</ele><time>2026-04-02T16:32:46.658Z</time></trkpt><trkpt lat="39.800415" lon="-0.2628567"><ele>145.2</ele><time>2026-04-02T16:32:48.657Z</time></trkpt><trkpt lat="39.8004867" lon="-0.26278"><ele>145.4</ele><time>2026-04-02T16:32:50.657Z</time></trkpt><trkpt lat="39.8005583" lon="-0.262685"><ele>145.6</ele><time>2026-04-02T16:32:52.658Z</time></trkpt><trkpt lat="39.8006283" lon="-0.2625933"><ele>145.8</ele><time>2026-04-02T16:32:54.657Z</time></trkpt><trkpt lat="39.800685" lon="-0.2625083"><ele>146.0</ele><time>2026-04-02T16:32:56.658Z</time></trkpt><trkpt lat="39.8007417" lon="-0.262425"><ele>146.0</ele><time>2026-04-02T16:32:58.658Z</time></trkpt><trkpt lat="39.8008017" lon="-0.2623333"><ele>146.0</ele><time>2026-04-02T16:33:00.658Z</time></trkpt><trkpt lat="39.80087" lon="-0.2622617"><ele>146.0</ele><time>2026-04-02T16:33:02.657Z</time></trkpt><trkpt lat="39.800935" lon="-0.26221"><ele>146.0</ele><time>2026-04-02T16:33:04.657Z</time></trkpt><trkpt lat="39.8010083" lon="-0.2621683"><ele>146.0</ele><time>2026-04-02T16:33:06.657Z</time></trkpt><trkpt lat="39.8010833" lon="-0.262145"><ele>146.0</ele><time>2026-04-02T16:33:08.657Z</time></trkpt><trkpt lat="39.80116" lon="-0.2621333"><ele>147.16666666666666</ele><time>2026-04-02T16:33:10.657Z</time></trkpt><trkpt lat="39.8012367" lon="-0.2620967"><ele>148.33333333333331</ele><time>2026-04-02T16:33:13.657Z</time></trkpt><trkpt lat="39.801315" lon="-0.2620483"><ele>149.5</ele><time>2026-04-02T16:33:16.657Z</time></trkpt><trkpt lat="39.8013783" lon="-0.2619883"><ele>150.66666666666666</ele><time>2026-04-02T16:33:19.657Z</time></trkpt><trkpt lat="39.8014417" lon="-0.2619267"><ele>151.83333333333334</ele><time>2026-04-02T16:33:22.658Z</time></trkpt><trkpt lat="39.80151" lon="-0.2618467"><ele>153.0</ele><time>2026-04-02T16:33:25.658Z</time></trkpt><trkpt lat="39.8015783" lon="-0.2617683"><ele>153.0</ele><time>2026-04-02T16:33:28.657Z</time></trkpt><trkpt lat="39.80163" lon="-0.2616733"><ele>153.0</ele><time>2026-04-02T16:33:31.657Z</time></trkpt><trkpt lat="39.8016617" lon="-0.26159"><ele>153.0</ele><time>2026-04-02T16:33:33.657Z</time></trkpt><trkpt lat="39.801685" lon="-0.261505"><ele>153.0</ele><time>2026-04-02T16:33:35.657Z</time></trkpt><trkpt lat="39.8017117" lon="-0.2614167"><ele>153.0</ele><time>2026-04-02T16:33:37.657Z</time></trkpt><trkpt lat="39.80174" lon="-0.2613333"><ele>153.0</ele><time>2026-04-02T16:33:39.657Z</time></trkpt><trkpt lat="39.801765" lon="-0.26125"><ele>153.0</ele><time>2026-04-02T16:33:41.657Z</time></trkpt><trkpt lat="39.8017883" lon="-0.2611733"><ele>153.83333333333334</ele><time>2026-04-02T16:33:43.657Z</time></trkpt><trkpt lat="39.801845" lon="-0.26108"><ele>154.66666666666666</ele><time>2026-04-02T16:33:46.658Z</time></trkpt><trkpt lat="39.80191" lon="-0.26101"><ele>155.5</ele><time>2026-04-02T16:33:49.657Z</time></trkpt><trkpt lat="39.8019833" lon="-0.2609683"><ele>156.33333333333331</ele><time>2026-04-02T16:33:52.658Z</time></trkpt><trkpt lat="39.8020667" lon="-0.2609467"><ele>157.16666666666666</ele><time>2026-04-02T16:33:55.657Z</time></trkpt><trkpt lat="39.802155" lon="-0.2609117"><ele>158.0</ele><time>2026-04-02T16:33:58.657Z</time></trkpt><trkpt lat="39.802225" lon="-0.2608833"><ele>158.0</ele><time>2026-04-02T16:34:00.657Z</time></trkpt><trkpt lat="39.8023033" lon="-0.26086"><ele>158.0</ele><time>2026-04-02T16:34:02.657Z</time></trkpt><trkpt lat="39.8023817" lon="-0.2608233"><ele>158.0</ele><time>2026-04-02T16:34:04.657Z</time></trkpt><trkpt lat="39.8024633" lon="-0.2607917"><ele>158.0</ele><time>2026-04-02T16:34:06.658Z</time></trkpt><trkpt lat="39.802555" lon="-0.2607583"><ele>158.0</ele><time>2026-04-02T16:34:08.658Z</time></trkpt><trkpt lat="39.80264" lon="-0.2607283"><ele>158.0</ele><time>2026-04-02T16:34:10.658Z</time></trkpt><trkpt lat="39.8027267" lon="-0.260695"><ele>158.16666666666666</ele><time>2026-04-02T16:34:12.657Z</time></trkpt><trkpt lat="39.8028117" lon="-0.26066"><ele>158.33333333333331</ele><time>2026-04-02T16:34:14.657Z</time></trkpt><trkpt lat="39.802895" lon="-0.26063"><ele>158.5</ele><time>2026-04-02T16:34:16.657Z</time></trkpt><trkpt lat="39.802975" lon="-0.260595"><ele>158.66666666666666</ele><time>2026-04-02T16:34:18.658Z</time></trkpt><trkpt lat="39.8030517" lon="-0.2605517"><ele>158.83333333333334</ele><time>2026-04-02T16:34:20.658Z</time></trkpt><trkpt lat="39.8031217" lon="-0.2604867"><ele>159.0</ele><time>2026-04-02T16:34:22.658Z</time></trkpt><trkpt lat="39.80319" lon="-0.2603917"><ele>159.0</ele><time>2026-04-02T16:34:24.657Z</time></trkpt><trkpt lat="39.80326" lon="-0.260275"><ele>159.0</ele><time>2026-04-02T16:34:26.657Z</time></trkpt><trkpt lat="39.8033117" lon="-0.260135"><ele>159.0</ele><time>2026-04-02T16:34:28.657Z</time></trkpt><trkpt lat="39.8033267" lon="-0.2599883"><ele>159.0</ele><time>2026-04-02T16:34:30.658Z</time></trkpt><trkpt lat="39.8033267" lon="-0.2598567"><ele>159.0</ele><time>2026-04-02T16:34:32.657Z</time></trkpt><trkpt lat="39.80333" lon="-0.259725"><ele>158.4</ele><time>2026-04-02T16:34:34.657Z</time></trkpt><trkpt lat="39.8033367" lon="-0.2595933"><ele>157.8</ele><time>2026-04-02T16:34:36.657Z</time></trkpt><trkpt lat="39.8033383" lon="-0.2594667"><ele>157.2</ele><time>2026-04-02T16:34:38.658Z</time></trkpt><trkpt lat="39.8033217" lon="-0.2593383"><ele>156.6</ele><time>2026-04-02T16:34:40.657Z</time></trkpt><trkpt lat="39.8033067" lon="-0.259205"><ele>156.0</ele><time>2026-04-02T16:34:42.657Z</time></trkpt><trkpt lat="39.80326" lon="-0.2590717"><ele>156.0</ele><time>2026-04-02T16:34:44.658Z</time></trkpt><trkpt lat="39.803185" lon="-0.25896"><ele>156.0</ele><time>2026-04-02T16:34:46.657Z</time></trkpt><trkpt lat="39.8031367" lon="-0.2589"><ele>156.0</ele><time>2026-04-02T16:34:47.657Z</time></trkpt><trkpt lat="39.8030883" lon="-0.2588317"><ele>156.0</ele><time>2026-04-02T16:34:48.657Z</time></trkpt><trkpt lat="39.8030517" lon="-0.2587533"><ele>156.0</ele><time>2026-04-02T16:34:49.657Z</time></trkpt><trkpt lat="39.8030183" lon="-0.25868"><ele>156.0</ele><time>2026-04-02T16:34:50.657Z</time></trkpt><trkpt lat="39.8029833" lon="-0.2586033"><ele>156.4</ele><time>2026-04-02T16:34:51.658Z</time></trkpt><trkpt lat="39.802955" lon="-0.2585267"><ele>156.8</ele><time>2026-04-02T16:34:52.658Z</time></trkpt><trkpt lat="39.8029133" lon="-0.258395"><ele>157.20000000000002</ele><time>2026-04-02T16:34:54.657Z</time></trkpt><trkpt lat="39.802915" lon="-0.2582467"><ele>157.6</ele><time>2026-04-02T16:34:56.657Z</time></trkpt><trkpt lat="39.8029133" lon="-0.2581117"><ele>158.0</ele><time>2026-04-02T16:34:58.657Z</time></trkpt><trkpt lat="39.80291" lon="-0.2579883"><ele>159.2</ele><time>2026-04-02T16:35:00.657Z</time></trkpt><trkpt lat="39.8029117" lon="-0.257865"><ele>160.4</ele><time>2026-04-02T16:35:02.657Z</time></trkpt><trkpt lat="39.80291" lon="-0.25774"><ele>161.6</ele><time>2026-04-02T16:35:04.657Z</time></trkpt><trkpt lat="39.8028817" lon="-0.2576067"><ele>162.79999999999998</ele><time>2026-04-02T16:35:06.657Z</time></trkpt><trkpt lat="39.8028633" lon="-0.2574767"><ele>164.0</ele><time>2026-04-02T16:35:08.657Z</time></trkpt><trkpt lat="39.802835" lon="-0.257355"><ele>165.39999999999998</ele><time>2026-04-02T16:35:10.657Z</time></trkpt><trkpt lat="39.80281" lon="-0.25723"><ele>166.8</ele><time>2026-04-02T16:35:12.657Z</time></trkpt><trkpt lat="39.8027767" lon="-0.2571117"><ele>168.2</ele><time>2026-04-02T16:35:14.657Z</time></trkpt><trkpt lat="39.8027383" lon="-0.2570033"><ele>169.60000000000002</ele><time>2026-04-02T16:35:16.657Z</time></trkpt><trkpt lat="39.8027" lon="-0.2569"><ele>171.0</ele><time>2026-04-02T16:35:18.657Z</time></trkpt><trkpt lat="39.802655" lon="-0.25678"><ele>168.33333333333334</ele><time>2026-04-02T16:35:20.658Z</time></trkpt><trkpt lat="39.8025767" lon="-0.256665"><ele>165.66666666666666</ele><time>2026-04-02T16:35:22.657Z</time></trkpt><trkpt lat="39.8024983" lon="-0.2565367"><ele>163.0</ele><time>2026-04-02T16:35:24.657Z</time></trkpt><trkpt lat="39.8024583" lon="-0.2564667"><ele>160.33333333333331</ele><time>2026-04-02T16:35:25.657Z</time></trkpt><trkpt lat="39.802415" lon="-0.256395"><ele>157.66666666666666</ele><time>2026-04-02T16:35:26.658Z</time></trkpt><trkpt lat="39.802365" lon="-0.25634"><ele>155.0</ele><time>2026-04-02T16:35:27.657Z</time></trkpt><trkpt lat="39.8023083" lon="-0.256285"><ele>155.0</ele><time>2026-04-02T16:35:28.657Z</time></trkpt><trkpt lat="39.8022533" lon="-0.2562333"><ele>155.0</ele><time>2026-04-02T16:35:29.658Z</time></trkpt><trkpt lat="39.8021967" lon="-0.256185"><ele>155.0</ele><time>2026-04-02T16:35:30.657Z</time></trkpt><trkpt lat="39.8021467" lon="-0.256125"><ele>155.0</ele><time>2026-04-02T16:35:31.658Z</time></trkpt><trkpt lat="39.80209" lon="-0.2560683"><ele>155.0</ele><time>2026-04-02T16:35:32.657Z</time></trkpt><trkpt lat="39.8020367" lon="-0.256005"><ele>155.0</ele><time>2026-04-02T16:35:33.657Z</time></trkpt><trkpt lat="39.80199" lon="-0.25594"><ele>155.0</ele><time>2026-04-02T16:35:34.658Z</time></trkpt><trkpt lat="39.8019417" lon="-0.2558683"><ele>155.0</ele><time>2026-04-02T16:35:35.657Z</time></trkpt><trkpt lat="39.8018967" lon="-0.2557917"><ele>155.0</ele><time>2026-04-02T16:35:36.657Z</time></trkpt><trkpt lat="39.8018483" lon="-0.255705"><ele>155.0</ele><time>2026-04-02T16:35:37.657Z</time></trkpt><trkpt lat="39.8018083" lon="-0.2556217"><ele>155.0</ele><time>2026-04-02T16:35:38.657Z</time></trkpt><trkpt lat="39.8017683" lon="-0.2555417"><ele>155.0</ele><time>2026-04-02T16:35:39.658Z</time></trkpt><trkpt lat="39.8017233" lon="-0.2554617"><ele>155.0</ele><time>2026-04-02T16:35:40.657Z</time></trkpt><trkpt lat="39.80168" lon="-0.2553767"><ele>153.14285714285714</ele><time>2026-04-02T16:35:41.657Z</time></trkpt><trkpt lat="39.8016383" lon="-0.2552817"><ele>151.28571428571428</ele><time>2026-04-02T16:35:42.657Z</time></trkpt><trkpt lat="39.8016083" lon="-0.2551833"><ele>149.42857142857142</ele><time>2026-04-02T16:35:43.657Z</time></trkpt><trkpt lat="39.8015967" lon="-0.2550883"><ele>147.57142857142856</ele><time>2026-04-02T16:35:44.657Z</time></trkpt><trkpt lat="39.8015883" lon="-0.2549917"><ele>145.7142857142857</ele><time>2026-04-02T16:35:45.657Z</time></trkpt><trkpt lat="39.80158" lon="-0.2549067"><ele>143.85714285714286</ele><time>2026-04-02T16:35:46.657Z</time></trkpt><trkpt lat="39.801575" lon="-0.2548167"><ele>142.0</ele><time>2026-04-02T16:35:47.658Z</time></trkpt><trkpt lat="39.80157" lon="-0.2547317"><ele>142.0</ele><time>2026-04-02T16:35:48.658Z</time></trkpt><trkpt lat="39.8015617" lon="-0.254565"><ele>142.0</ele><time>2026-04-02T16:35:50.657Z</time></trkpt><trkpt lat="39.8015533" lon="-0.2544817"><ele>142.0</ele><time>2026-04-02T16:35:51.657Z</time></trkpt><trkpt lat="39.8015283" lon="-0.25433"><ele>142.0</ele><time>2026-04-02T16:35:53.657Z</time></trkpt><trkpt lat="39.8014817" lon="-0.2541833"><ele>142.0</ele><time>2026-04-02T16:35:55.658Z</time></trkpt><trkpt lat="39.8014333" lon="-0.254035"><ele>143.0</ele><time>2026-04-02T16:35:57.657Z</time></trkpt><trkpt lat="39.8013867" lon="-0.253885"><ele>144.0</ele><time>2026-04-02T16:35:59.657Z</time></trkpt><trkpt lat="39.801375" lon="-0.2538017"><ele>145.0</ele><time>2026-04-02T16:36:00.658Z</time></trkpt><trkpt lat="39.8013417" lon="-0.2536483"><ele>146.0</ele><time>2026-04-02T16:36:02.658Z</time></trkpt><trkpt lat="39.8013033" lon="-0.2534967"><ele>147.0</ele><time>2026-04-02T16:36:04.657Z</time></trkpt><trkpt lat="39.8012667" lon="-0.2533633"><ele>147.0</ele><time>2026-04-02T16:36:06.657Z</time></trkpt><trkpt lat="39.8012333" lon="-0.2532183"><ele>147.0</ele><time>2026-04-02T16:36:08.658Z</time></trkpt><trkpt lat="39.8011933" lon="-0.253085"><ele>147.0</ele><time>2026-04-02T16:36:10.657Z</time></trkpt><trkpt lat="39.80115" lon="-0.25295"><ele>147.0</ele><time>2026-04-02T16:36:12.658Z</time></trkpt><trkpt lat="39.8011167" lon="-0.2528067"><ele>148.57142857142858</ele><time>2026-04-02T16:36:14.657Z</time></trkpt><trkpt lat="39.8010983" lon="-0.2527233"><ele>150.14285714285714</ele><time>2026-04-02T16:36:15.657Z</time></trkpt><trkpt lat="39.8010783" lon="-0.25264"><ele>151.71428571428572</ele><time>2026-04-02T16:36:16.657Z</time></trkpt><trkpt lat="39.8010483" lon="-0.2525517"><ele>153.28571428571428</ele><time>2026-04-02T16:36:17.657Z</time></trkpt><trkpt lat="39.80102" lon="-0.2524667"><ele>154.85714285714286</ele><time>2026-04-02T16:36:18.657Z</time></trkpt><trkpt lat="39.8009917" lon="-0.2523817"><ele>156.42857142857144</ele><time>2026-04-02T16:36:19.657Z</time></trkpt><trkpt lat="39.8009617" lon="-0.2522967"><ele>158.0</ele><time>2026-04-02T16:36:20.657Z</time></trkpt><trkpt lat="39.8009283" lon="-0.2522133"><ele>154.85714285714286</ele><time>2026-04-02T16:36:21.657Z</time></trkpt><trkpt lat="39.8009" lon="-0.252125"><ele>151.71428571428572</ele><time>2026-04-02T16:36:22.657Z</time></trkpt><trkpt lat="39.8008767" lon="-0.2520367"><ele>148.57142857142856</ele><time>2026-04-02T16:36:23.658Z</time></trkpt><trkpt lat="39.800855" lon="-0.2519567"><ele>145.42857142857144</ele><time>2026-04-02T16:36:24.657Z</time></trkpt><trkpt lat="39.80084" lon="-0.2518767"><ele>142.28571428571428</ele><time>2026-04-02T16:36:25.658Z</time></trkpt><trkpt lat="39.8008167" lon="-0.2517983"><ele>139.14285714285714</ele><time>2026-04-02T16:36:26.657Z</time></trkpt><trkpt lat="39.8008017" lon="-0.2517167"><ele>136.0</ele><time>2026-04-02T16:36:27.657Z</time></trkpt><trkpt lat="39.800785" lon="-0.251635"><ele>135.99999999999997</ele><time>2026-04-02T16:36:28.657Z</time></trkpt><trkpt lat="39.80077" lon="-0.2515533"><ele>136.0</ele><time>2026-04-02T16:36:29.657Z</time></trkpt><trkpt lat="39.8007517" lon="-0.2514717"><ele>136.0</ele><time>2026-04-02T16:36:30.658Z</time></trkpt><trkpt lat="39.8007333" lon="-0.2513933"><ele>136.0</ele><time>2026-04-02T16:36:31.657Z</time></trkpt><trkpt lat="39.800715" lon="-0.2513083"><ele>136.0</ele><time>2026-04-02T16:36:32.657Z</time></trkpt><trkpt lat="39.800695" lon="-0.2512217"><ele>135.99999999999997</ele><time>2026-04-02T16:36:33.657Z</time></trkpt><trkpt lat="39.8006867" lon="-0.25114"><ele>136.0</ele><time>2026-04-02T16:36:34.657Z</time></trkpt><trkpt lat="39.8006683" lon="-0.250985"><ele>136.2</ele><time>2026-04-02T16:36:36.657Z</time></trkpt><trkpt lat="39.8006567" lon="-0.250845"><ele>136.39999999999998</ele><time>2026-04-02T16:36:38.657Z</time></trkpt><trkpt lat="39.8006733" lon="-0.2506933"><ele>136.6</ele><time>2026-04-02T16:36:40.657Z</time></trkpt><trkpt lat="39.8006967" lon="-0.2505617"><ele>136.79999999999998</ele><time>2026-04-02T16:36:42.657Z</time></trkpt><trkpt lat="39.800715" lon="-0.2504367"><ele>137.0</ele><time>2026-04-02T16:36:45.657Z</time></trkpt><trkpt lat="39.8007267" lon="-0.25035"><ele>136.2857142857143</ele><time>2026-04-02T16:36:47.657Z</time></trkpt><trkpt lat="39.80073" lon="-0.25026"><ele>135.57142857142858</ele><time>2026-04-02T16:36:49.658Z</time></trkpt><trkpt lat="39.8007517" lon="-0.2501633"><ele>134.85714285714286</ele><time>2026-04-02T16:36:51.657Z</time></trkpt><trkpt lat="39.8007617" lon="-0.250075"><ele>134.14285714285717</ele><time>2026-04-02T16:36:53.657Z</time></trkpt><trkpt lat="39.8007633" lon="-0.249985"><ele>133.42857142857144</ele><time>2026-04-02T16:36:55.657Z</time></trkpt><trkpt lat="39.80078" lon="-0.249895"><ele>132.71428571428572</ele><time>2026-04-02T16:36:57.657Z</time></trkpt><trkpt lat="39.800795" lon="-0.2498033"><ele>132.0</ele><time>2026-04-02T16:36:59.657Z</time></trkpt><trkpt lat="39.8008067" lon="-0.249715"><ele>131.42857142857142</ele><time>2026-04-02T16:37:01.657Z</time></trkpt><trkpt lat="39.8008167" lon="-0.2496183"><ele>130.85714285714286</ele><time>2026-04-02T16:37:03.658Z</time></trkpt><trkpt lat="39.8008117" lon="-0.2495283"><ele>130.28571428571428</ele><time>2026-04-02T16:37:05.657Z</time></trkpt><trkpt lat="39.80081" lon="-0.2494383"><ele>129.71428571428572</ele><time>2026-04-02T16:37:07.657Z</time></trkpt><trkpt lat="39.8007917" lon="-0.24935"><ele>129.14285714285714</ele><time>2026-04-02T16:37:09.657Z</time></trkpt><trkpt lat="39.8007767" lon="-0.24927"><ele>128.57142857142856</ele><time>2026-04-02T16:37:11.657Z</time></trkpt><trkpt lat="39.8007467" lon="-0.249155"><ele>128.0</ele><time>2026-04-02T16:37:14.657Z</time></trkpt><trkpt lat="39.8007183" lon="-0.2490733"><ele>128.0</ele><time>2026-04-02T16:37:16.657Z</time></trkpt><trkpt lat="39.8006917" lon="-0.2489733"><ele>128.0</ele><time>2026-04-02T16:37:18.657Z</time></trkpt><trkpt lat="39.8006683" lon="-0.2488617"><ele>128.0</ele><time>2026-04-02T16:37:20.657Z</time></trkpt><trkpt lat="39.8006283" lon="-0.2487417"><ele>128.0</ele><time>2026-04-02T16:37:22.658Z</time></trkpt><trkpt lat="39.80059" lon="-0.24861"><ele>128.0</ele><time>2026-04-02T16:37:24.657Z</time></trkpt><trkpt lat="39.800545" lon="-0.2484717"><ele>127.0</ele><time>2026-04-02T16:37:26.658Z</time></trkpt><trkpt lat="39.8004967" lon="-0.2483467"><ele>126.00000000000001</ele><time>2026-04-02T16:37:28.657Z</time></trkpt><trkpt lat="39.800445" lon="-0.2482417"><ele>125.00000000000001</ele><time>2026-04-02T16:37:30.657Z</time></trkpt><trkpt lat="39.8003617" lon="-0.2481783"><ele>124.0</ele><time>2026-04-02T16:37:32.657Z</time></trkpt><trkpt lat="39.8002583" lon="-0.2481367"><ele>123.0</ele><time>2026-04-02T16:37:34.657Z</time></trkpt><trkpt lat="39.800175" lon="-0.2480783"><ele>122.16666666666667</ele><time>2026-04-02T16:37:36.657Z</time></trkpt><trkpt lat="39.80011" lon="-0.2479967"><ele>121.33333333333334</ele><time>2026-04-02T16:37:38.658Z</time></trkpt><trkpt lat="39.8000667" lon="-0.2479117"><ele>120.5</ele><time>2026-04-02T16:37:40.657Z</time></trkpt><trkpt lat="39.8000017" lon="-0.2478733"><ele>119.66666666666667</ele><time>2026-04-02T16:37:43.658Z</time></trkpt><trkpt lat="39.7999383" lon="-0.24797"><ele>118.83333333333334</ele><time>2026-04-02T16:37:46.657Z</time></trkpt><trkpt lat="39.7999033" lon="-0.248055"><ele>118.0</ele><time>2026-04-02T16:37:48.657Z</time></trkpt><trkpt lat="39.7998617" lon="-0.2481367"><ele>118.0</ele><time>2026-04-02T16:37:50.657Z</time></trkpt><trkpt lat="39.7998217" lon="-0.2482167"><ele>118.0</ele><time>2026-04-02T16:37:52.658Z</time></trkpt><trkpt lat="39.7997783" lon="-0.2482817"><ele>118.0</ele><time>2026-04-02T16:37:54.657Z</time></trkpt><trkpt lat="39.799735" lon="-0.2483433"><ele>118.0</ele><time>2026-04-02T16:37:56.658Z</time></trkpt><trkpt lat="39.799685" lon="-0.2484083"><ele>118.0</ele><time>2026-04-02T16:37:58.657Z</time></trkpt><trkpt lat="39.7996517" lon="-0.248485"><ele>118.0</ele><time>2026-04-02T16:38:00.657Z</time></trkpt><trkpt lat="39.799615" lon="-0.2485617"><ele>118.0</ele><time>2026-04-02T16:38:02.658Z</time></trkpt><trkpt lat="39.7995783" lon="-0.2486333"><ele>118.00000000000001</ele><time>2026-04-02T16:38:04.658Z</time></trkpt><trkpt lat="39.799525" lon="-0.24874"><ele>118.0</ele><time>2026-04-02T16:38:07.658Z</time></trkpt><trkpt lat="39.79948" lon="-0.2488317"><ele>118.0</ele><time>2026-04-02T16:38:10.657Z</time></trkpt><trkpt lat="39.7994433" lon="-0.2489033"><ele>118.0</ele><time>2026-04-02T16:38:12.657Z</time></trkpt><trkpt lat="39.7994017" lon="-0.2489683"><ele>118.00000000000001</ele><time>2026-04-02T16:38:14.657Z</time></trkpt><trkpt lat="39.7993383" lon="-0.2490533"><ele>118.0</ele><time>2026-04-02T16:38:17.657Z</time></trkpt><trkpt lat="39.7992967" lon="-0.24912"><ele>118.0</ele><time>2026-04-02T16:38:19.658Z</time></trkpt><trkpt lat="39.7992583" lon="-0.2491867"><ele>118.0</ele><time>2026-04-02T16:38:21.657Z</time></trkpt><trkpt lat="39.7992083" lon="-0.2492883"><ele>118.0</ele><time>2026-04-02T16:38:24.657Z</time></trkpt><trkpt lat="39.7991817" lon="-0.2493667"><ele>118.0</ele><time>2026-04-02T16:38:26.657Z</time></trkpt><trkpt lat="39.7991467" lon="-0.249435"><ele>118.0</ele><time>2026-04-02T16:38:28.657Z</time></trkpt><trkpt lat="39.7990967" lon="-0.2495283"><ele>118.0</ele><time>2026-04-02T16:38:31.658Z</time></trkpt><trkpt lat="39.79906" lon="-0.2495983"><ele>118.0</ele><time>2026-04-02T16:38:33.657Z</time></trkpt><trkpt lat="39.7990117" lon="-0.2497033"><ele>118.33333333333334</ele><time>2026-04-02T16:38:36.658Z</time></trkpt><trkpt lat="39.7989583" lon="-0.2498033"><ele>118.66666666666667</ele><time>2026-04-02T16:38:39.657Z</time></trkpt><trkpt lat="39.7989217" lon="-0.249875"><ele>119.0</ele><time>2026-04-02T16:38:41.657Z</time></trkpt><trkpt lat="39.79888" lon="-0.24995"><ele>119.33333333333334</ele><time>2026-04-02T16:38:43.658Z</time></trkpt><trkpt lat="39.7988417" lon="-0.2500333"><ele>119.66666666666667</ele><time>2026-04-02T16:38:45.657Z</time></trkpt><trkpt lat="39.7988033" lon="-0.2501233"><ele>120.0</ele><time>2026-04-02T16:38:47.657Z</time></trkpt><trkpt lat="39.7987583" lon="-0.2502067"><ele>120.0</ele><time>2026-04-02T16:38:49.657Z</time></trkpt><trkpt lat="39.7987083" lon="-0.2502917"><ele>120.0</ele><time>2026-04-02T16:38:51.657Z</time></trkpt><trkpt lat="39.7986533" lon="-0.2503717"><ele>120.0</ele><time>2026-04-02T16:38:53.658Z</time></trkpt><trkpt lat="39.79861" lon="-0.2504683"><ele>120.0</ele><time>2026-04-02T16:38:55.657Z</time></trkpt><trkpt lat="39.798555" lon="-0.2505667"><ele>120.0</ele><time>2026-04-02T16:38:57.658Z</time></trkpt><trkpt lat="39.7985083" lon="-0.2506617"><ele>120.0</ele><time>2026-04-02T16:38:59.657Z</time></trkpt><trkpt lat="39.79847" lon="-0.2507733"><ele>119.6</ele><time>2026-04-02T16:39:01.657Z</time></trkpt><trkpt lat="39.7984217" lon="-0.2508867"><ele>119.2</ele><time>2026-04-02T16:39:03.657Z</time></trkpt><trkpt lat="39.7983667" lon="-0.250995"><ele>118.80000000000001</ele><time>2026-04-02T16:39:05.657Z</time></trkpt><trkpt lat="39.7983183" lon="-0.2511067"><ele>118.4</ele><time>2026-04-02T16:39:07.658Z</time></trkpt><trkpt lat="39.7982733" lon="-0.251225"><ele>118.0</ele><time>2026-04-02T16:39:09.658Z</time></trkpt><trkpt lat="39.798235" lon="-0.2513333"><ele>118.0</ele><time>2026-04-02T16:39:11.657Z</time></trkpt><trkpt lat="39.798185" lon="-0.2514467"><ele>118.00000000000001</ele><time>2026-04-02T16:39:13.657Z</time></trkpt><trkpt lat="39.7981567" lon="-0.2515567"><ele>118.00000000000001</ele><time>2026-04-02T16:39:15.658Z</time></trkpt><trkpt lat="39.79813" lon="-0.2516633"><ele>118.0</ele><time>2026-04-02T16:39:17.657Z</time></trkpt><trkpt lat="39.798105" lon="-0.2517767"><ele>118.0</ele><time>2026-04-02T16:39:19.658Z</time></trkpt><trkpt lat="39.7980783" lon="-0.25188"><ele>118.33333333333334</ele><time>2026-04-02T16:39:21.658Z</time></trkpt><trkpt lat="39.798045" lon="-0.2519783"><ele>118.66666666666667</ele><time>2026-04-02T16:39:23.658Z</time></trkpt><trkpt lat="39.7980183" lon="-0.2520817"><ele>119.0</ele><time>2026-04-02T16:39:25.657Z</time></trkpt><trkpt lat="39.7979933" lon="-0.2521867"><ele>119.33333333333334</ele><time>2026-04-02T16:39:27.657Z</time></trkpt><trkpt lat="39.7979667" lon="-0.252295"><ele>119.66666666666667</ele><time>2026-04-02T16:39:29.658Z</time></trkpt><trkpt lat="39.7979317" lon="-0.2524083"><ele>120.0</ele><time>2026-04-02T16:39:31.657Z</time></trkpt><trkpt lat="39.7979033" lon="-0.2525067"><ele>120.16666666666667</ele><time>2026-04-02T16:39:33.658Z</time></trkpt><trkpt lat="39.7978733" lon="-0.2526"><ele>120.33333333333334</ele><time>2026-04-02T16:39:35.657Z</time></trkpt><trkpt lat="39.79785" lon="-0.252705"><ele>120.5</ele><time>2026-04-02T16:39:37.657Z</time></trkpt><trkpt lat="39.7978217" lon="-0.2528133"><ele>120.66666666666667</ele><time>2026-04-02T16:39:39.657Z</time></trkpt><trkpt lat="39.797785" lon="-0.2529133"><ele>120.83333333333334</ele><time>2026-04-02T16:39:41.657Z</time></trkpt><trkpt lat="39.7977533" lon="-0.2530117"><ele>121.0</ele><time>2026-04-02T16:39:43.657Z</time></trkpt><trkpt lat="39.7977283" lon="-0.253105"><ele>120.83333333333334</ele><time>2026-04-02T16:39:45.657Z</time></trkpt><trkpt lat="39.797695" lon="-0.2532017"><ele>120.66666666666667</ele><time>2026-04-02T16:39:47.657Z</time></trkpt><trkpt lat="39.79766" lon="-0.2533033"><ele>120.5</ele><time>2026-04-02T16:39:49.657Z</time></trkpt><trkpt lat="39.797615" lon="-0.2534017"><ele>120.33333333333334</ele><time>2026-04-02T16:39:51.657Z</time></trkpt><trkpt lat="39.7975817" lon="-0.253485"><ele>120.16666666666667</ele><time>2026-04-02T16:39:53.657Z</time></trkpt><trkpt lat="39.7975433" lon="-0.2535783"><ele>120.0</ele><time>2026-04-02T16:39:55.657Z</time></trkpt><trkpt lat="39.7975033" lon="-0.2536567"><ele>120.0</ele><time>2026-04-02T16:39:57.657Z</time></trkpt><trkpt lat="39.7974617" lon="-0.2537367"><ele>120.0</ele><time>2026-04-02T16:39:59.657Z</time></trkpt><trkpt lat="39.7974333" lon="-0.253825"><ele>120.0</ele><time>2026-04-02T16:40:01.658Z</time></trkpt><trkpt lat="39.797425" lon="-0.2539133"><ele>120.0</ele><time>2026-04-02T16:40:03.657Z</time></trkpt><trkpt lat="39.7974283" lon="-0.2540267"><ele>120.0</ele><time>2026-04-02T16:40:06.657Z</time></trkpt><trkpt lat="39.7974367" lon="-0.254115"><ele>120.0</ele><time>2026-04-02T16:40:08.657Z</time></trkpt><trkpt lat="39.7974517" lon="-0.2542083"><ele>120.0</ele><time>2026-04-02T16:40:10.657Z</time></trkpt><trkpt lat="39.7974717" lon="-0.2543"><ele>120.33333333333333</ele><time>2026-04-02T16:40:12.657Z</time></trkpt><trkpt lat="39.7974933" lon="-0.2543833"><ele>120.66666666666666</ele><time>2026-04-02T16:40:14.658Z</time></trkpt><trkpt lat="39.7975167" lon="-0.254495"><ele>121.0</ele><time>2026-04-02T16:40:17.657Z</time></trkpt><trkpt lat="39.7975217" lon="-0.2545883"><ele>121.33333333333333</ele><time>2026-04-02T16:40:19.657Z</time></trkpt><trkpt lat="39.79751" lon="-0.254675"><ele>121.66666666666666</ele><time>2026-04-02T16:40:21.657Z</time></trkpt><trkpt lat="39.7974817" lon="-0.2547567"><ele>122.0</ele><time>2026-04-02T16:40:23.657Z</time></trkpt><trkpt lat="39.79745" lon="-0.2548717"><ele>122.49999999999999</ele><time>2026-04-02T16:40:26.657Z</time></trkpt><trkpt lat="39.797415" lon="-0.2549467"><ele>123.0</ele><time>2026-04-02T16:40:28.657Z</time></trkpt><trkpt lat="39.7973817" lon="-0.25503"><ele>123.5</ele><time>2026-04-02T16:40:30.657Z</time></trkpt><trkpt lat="39.7973383" lon="-0.255115"><ele>124.0</ele><time>2026-04-02T16:40:32.657Z</time></trkpt><trkpt lat="39.797295" lon="-0.25521"><ele>124.49999999999999</ele><time>2026-04-02T16:40:34.657Z</time></trkpt><trkpt lat="39.79726" lon="-0.2553033"><ele>125.0</ele><time>2026-04-02T16:40:36.657Z</time></trkpt><trkpt lat="39.7972283" lon="-0.255395"><ele>124.99999999999999</ele><time>2026-04-02T16:40:38.657Z</time></trkpt><trkpt lat="39.797195" lon="-0.2554883"><ele>125.0</ele><time>2026-04-02T16:40:40.657Z</time></trkpt><trkpt lat="39.7971617" lon="-0.2555767"><ele>125.0</ele><time>2026-04-02T16:40:42.657Z</time></trkpt><trkpt lat="39.797125" lon="-0.255645"><ele>125.0</ele><time>2026-04-02T16:40:44.657Z</time></trkpt><trkpt lat="39.7970783" lon="-0.2557417"><ele>124.99999999999999</ele><time>2026-04-02T16:40:47.657Z</time></trkpt><trkpt lat="39.7970283" lon="-0.2558167"><ele>125.0</ele><time>2026-04-02T16:40:50.658Z</time></trkpt><trkpt lat="39.79697" lon="-0.255875"><ele>124.28571428571428</ele><time>2026-04-02T16:40:53.657Z</time></trkpt><trkpt lat="39.79692" lon="-0.2559283"><ele>123.57142857142858</ele><time>2026-04-02T16:40:56.657Z</time></trkpt><trkpt lat="39.7968633" lon="-0.2559683"><ele>122.85714285714286</ele><time>2026-04-02T16:40:59.657Z</time></trkpt><trkpt lat="39.7967917" lon="-0.2560133"><ele>122.14285714285714</ele><time>2026-04-02T16:41:03.657Z</time></trkpt><trkpt lat="39.796715" lon="-0.2560467"><ele>121.42857142857142</ele><time>2026-04-02T16:41:06.658Z</time></trkpt><trkpt lat="39.7966383" lon="-0.25607"><ele>120.71428571428572</ele><time>2026-04-02T16:41:09.658Z</time></trkpt><trkpt lat="39.7965717" lon="-0.2560717"><ele>120.0</ele><time>2026-04-02T16:41:11.657Z</time></trkpt><trkpt lat="39.7965067" lon="-0.2560883"><ele>120.0</ele><time>2026-04-02T16:41:13.657Z</time></trkpt><trkpt lat="39.796435" lon="-0.256105"><ele>120.0</ele><time>2026-04-02T16:41:15.657Z</time></trkpt><trkpt lat="39.79637" lon="-0.25613"><ele>120.0</ele><time>2026-04-02T16:41:17.657Z</time></trkpt><trkpt lat="39.79628" lon="-0.2561633"><ele>120.0</ele><time>2026-04-02T16:41:20.657Z</time></trkpt><trkpt lat="39.7961917" lon="-0.256205"><ele>120.0</ele><time>2026-04-02T16:41:23.657Z</time></trkpt><trkpt lat="39.7961033" lon="-0.2562383"><ele>120.0</ele><time>2026-04-02T16:41:26.657Z</time></trkpt><trkpt lat="39.796035" lon="-0.2562733"><ele>119.83333333333333</ele><time>2026-04-02T16:41:28.658Z</time></trkpt><trkpt lat="39.7959667" lon="-0.256315"><ele>119.66666666666666</ele><time>2026-04-02T16:41:30.657Z</time></trkpt><trkpt lat="39.7959" lon="-0.2563533"><ele>119.5</ele><time>2026-04-02T16:41:32.657Z</time></trkpt><trkpt lat="39.7958333" lon="-0.2563983"><ele>119.33333333333333</ele><time>2026-04-02T16:41:34.657Z</time></trkpt><trkpt lat="39.7957567" lon="-0.2564483"><ele>119.16666666666666</ele><time>2026-04-02T16:41:36.657Z</time></trkpt><trkpt lat="39.79568" lon="-0.25651"><ele>119.0</ele><time>2026-04-02T16:41:38.657Z</time></trkpt><trkpt lat="39.7955983" lon="-0.256575"><ele>121.0</ele><time>2026-04-02T16:41:40.658Z</time></trkpt><trkpt lat="39.7955083" lon="-0.256635"><ele>123.0</ele><time>2026-04-02T16:41:42.657Z</time></trkpt><trkpt lat="39.7954233" lon="-0.256695"><ele>125.0</ele><time>2026-04-02T16:41:44.657Z</time></trkpt><trkpt lat="39.7953483" lon="-0.2567583"><ele>127.0</ele><time>2026-04-02T16:41:46.657Z</time></trkpt><trkpt lat="39.795285" lon="-0.256835"><ele>129.0</ele><time>2026-04-02T16:41:48.657Z</time></trkpt><trkpt lat="39.7952317" lon="-0.2569217"><ele>129.0</ele><time>2026-04-02T16:41:50.657Z</time></trkpt><trkpt lat="39.7951733" lon="-0.257"><ele>129.0</ele><time>2026-04-02T16:41:52.657Z</time></trkpt><trkpt lat="39.7951117" lon="-0.2571033"><ele>129.0</ele><time>2026-04-02T16:41:54.657Z</time></trkpt><trkpt lat="39.7950533" lon="-0.25723"><ele>129.0</ele><time>2026-04-02T16:41:56.657Z</time></trkpt><trkpt lat="39.7950133" lon="-0.2573767"><ele>129.0</ele><time>2026-04-02T16:41:58.657Z</time></trkpt><trkpt lat="39.7950033" lon="-0.257465"><ele>128.5</ele><time>2026-04-02T16:41:59.657Z</time></trkpt><trkpt lat="39.7949983" lon="-0.2575667"><ele>128.0</ele><time>2026-04-02T16:42:00.657Z</time></trkpt><trkpt lat="39.795005" lon="-0.2576733"><ele>127.5</ele><time>2026-04-02T16:42:01.657Z</time></trkpt><trkpt lat="39.7950383" lon="-0.2577767"><ele>127.0</ele><time>2026-04-02T16:42:02.657Z</time></trkpt><trkpt lat="39.79508" lon="-0.25787"><ele>126.5</ele><time>2026-04-02T16:42:03.657Z</time></trkpt><trkpt lat="39.795125" lon="-0.2579517"><ele>126.0</ele><time>2026-04-02T16:42:04.657Z</time></trkpt><trkpt lat="39.7951617" lon="-0.2580367"><ele>126.0</ele><time>2026-04-02T16:42:05.657Z</time></trkpt><trkpt lat="39.7951867" lon="-0.2581217"><ele>126.0</ele><time>2026-04-02T16:42:06.658Z</time></trkpt><trkpt lat="39.7951983" lon="-0.258205"><ele>126.0</ele><time>2026-04-02T16:42:07.657Z</time></trkpt><trkpt lat="39.7952" lon="-0.2583"><ele>126.0</ele><time>2026-04-02T16:42:08.657Z</time></trkpt><trkpt lat="39.7951867" lon="-0.2583883"><ele>126.0</ele><time>2026-04-02T16:42:09.657Z</time></trkpt><trkpt lat="39.79517" lon="-0.258475"><ele>126.0</ele><time>2026-04-02T16:42:10.657Z</time></trkpt><trkpt lat="39.7951667" lon="-0.2586217"><ele>128.16666666666666</ele><time>2026-04-02T16:42:12.658Z</time></trkpt><trkpt lat="39.79518" lon="-0.258735"><ele>130.33333333333334</ele><time>2026-04-02T16:42:14.657Z</time></trkpt><trkpt lat="39.7952033" lon="-0.25885"><ele>132.5</ele><time>2026-04-02T16:42:17.657Z</time></trkpt><trkpt lat="39.7952133" lon="-0.25894"><ele>134.66666666666669</ele><time>2026-04-02T16:42:20.657Z</time></trkpt><trkpt lat="39.795225" lon="-0.2590583"><ele>136.83333333333334</ele><time>2026-04-02T16:42:23.658Z</time></trkpt><trkpt lat="39.7952233" lon="-0.25915"><ele>139.0</ele><time>2026-04-02T16:42:25.657Z</time></trkpt><trkpt lat="39.795205" lon="-0.25925"><ele>137.16666666666669</ele><time>2026-04-02T16:42:27.657Z</time></trkpt><trkpt lat="39.7951667" lon="-0.2593483"><ele>135.33333333333334</ele><time>2026-04-02T16:42:29.658Z</time></trkpt><trkpt lat="39.7951167" lon="-0.2594267"><ele>133.5</ele><time>2026-04-02T16:42:31.657Z</time></trkpt><trkpt lat="39.79506" lon="-0.2595"><ele>131.66666666666666</ele><time>2026-04-02T16:42:33.658Z</time></trkpt><trkpt lat="39.79501" lon="-0.2595883"><ele>129.83333333333331</ele><time>2026-04-02T16:42:35.658Z</time></trkpt><trkpt lat="39.7949583" lon="-0.2596817"><ele>128.0</ele><time>2026-04-02T16:42:37.657Z</time></trkpt><trkpt lat="39.794905" lon="-0.2597767"><ele>127.80000000000001</ele><time>2026-04-02T16:42:39.657Z</time></trkpt><trkpt lat="39.7949017" lon="-0.2599117"><ele>127.60000000000001</ele><time>2026-04-02T16:42:41.658Z</time></trkpt><trkpt lat="39.7949467" lon="-0.2600617"><ele>127.39999999999999</ele><time>2026-04-02T16:42:43.657Z</time></trkpt><trkpt lat="39.7949733" lon="-0.26014"><ele>127.19999999999999</ele><time>2026-04-02T16:42:44.657Z</time></trkpt><trkpt lat="39.7949933" lon="-0.2602633"><ele>127.0</ele><time>2026-04-02T16:42:46.657Z</time></trkpt><trkpt lat="39.7949517" lon="-0.2603267"><ele>127.0</ele><time>2026-04-02T16:42:48.657Z</time></trkpt><trkpt lat="39.7948867" lon="-0.2603167"><ele>127.0</ele><time>2026-04-02T16:42:50.657Z</time></trkpt><trkpt lat="39.79482" lon="-0.2603067"><ele>127.0</ele><time>2026-04-02T16:42:52.657Z</time></trkpt><trkpt lat="39.7947467" lon="-0.2602967"><ele>127.0</ele><time>2026-04-02T16:42:54.658Z</time></trkpt><trkpt lat="39.7946683" lon="-0.2602833"><ele>127.0</ele><time>2026-04-02T16:42:56.658Z</time></trkpt><trkpt lat="39.794585" lon="-0.2602783"><ele>127.0</ele><time>2026-04-02T16:42:58.658Z</time></trkpt><trkpt lat="39.7945083" lon="-0.2602633"><ele>127.0</ele><time>2026-04-02T16:43:00.657Z</time></trkpt><trkpt lat="39.7944333" lon="-0.2602533"><ele>127.00000000000001</ele><time>2026-04-02T16:43:02.657Z</time></trkpt><trkpt lat="39.7943567" lon="-0.2602583"><ele>127.0</ele><time>2026-04-02T16:43:04.657Z</time></trkpt><trkpt lat="39.79428" lon="-0.260255"><ele>127.0</ele><time>2026-04-02T16:43:06.657Z</time></trkpt><trkpt lat="39.794195" lon="-0.2602383"><ele>127.0</ele><time>2026-04-02T16:43:08.657Z</time></trkpt><trkpt lat="39.794115" lon="-0.2602233"><ele>127.00000000000001</ele><time>2026-04-02T16:43:10.657Z</time></trkpt><trkpt lat="39.7940283" lon="-0.2602183"><ele>127.0</ele><time>2026-04-02T16:43:12.657Z</time></trkpt><trkpt lat="39.7939567" lon="-0.2602483"><ele>127.14285714285714</ele><time>2026-04-02T16:43:14.657Z</time></trkpt><trkpt lat="39.7938983" lon="-0.2603"><ele>127.28571428571428</ele><time>2026-04-02T16:43:16.657Z</time></trkpt><trkpt lat="39.7938533" lon="-0.260365"><ele>127.42857142857142</ele><time>2026-04-02T16:43:18.658Z</time></trkpt><trkpt lat="39.7938033" lon="-0.2604333"><ele>127.57142857142857</ele><time>2026-04-02T16:43:20.657Z</time></trkpt><trkpt lat="39.793765" lon="-0.2605217"><ele>127.7142857142857</ele><time>2026-04-02T16:43:22.657Z</time></trkpt><trkpt lat="39.793725" lon="-0.26061"><ele>127.85714285714285</ele><time>2026-04-02T16:43:24.657Z</time></trkpt><trkpt lat="39.7936867" lon="-0.2606917"><ele>128.0</ele><time>2026-04-02T16:43:26.657Z</time></trkpt><trkpt lat="39.7936717" lon="-0.260775"><ele>128.42857142857142</ele><time>2026-04-02T16:43:28.657Z</time></trkpt><trkpt lat="39.7936467" lon="-0.2608533"><ele>128.85714285714283</ele><time>2026-04-02T16:43:30.657Z</time></trkpt><trkpt lat="39.7936317" lon="-0.2609517"><ele>129.28571428571428</ele><time>2026-04-02T16:43:32.657Z</time></trkpt><trkpt lat="39.7936133" lon="-0.261055"><ele>129.71428571428572</ele><time>2026-04-02T16:43:34.657Z</time></trkpt><trkpt lat="39.7935983" lon="-0.2611517"><ele>130.14285714285717</ele><time>2026-04-02T16:43:36.657Z</time></trkpt><trkpt lat="39.7935833" lon="-0.26125"><ele>130.57142857142858</ele><time>2026-04-02T16:43:38.658Z</time></trkpt><trkpt lat="39.7935783" lon="-0.26134"><ele>131.0</ele><time>2026-04-02T16:43:40.657Z</time></trkpt><trkpt lat="39.79356" lon="-0.2614383"><ele>131.2</ele><time>2026-04-02T16:43:42.657Z</time></trkpt><trkpt lat="39.7935667" lon="-0.2615317"><ele>131.39999999999998</ele><time>2026-04-02T16:43:44.657Z</time></trkpt><trkpt lat="39.7935717" lon="-0.2616617"><ele>131.6</ele><time>2026-04-02T16:43:46.657Z</time></trkpt><trkpt lat="39.7935583" lon="-0.2617967"><ele>131.79999999999998</ele><time>2026-04-02T16:43:48.657Z</time></trkpt><trkpt lat="39.79353" lon="-0.26194"><ele>132.0</ele><time>2026-04-02T16:43:50.657Z</time></trkpt><trkpt lat="39.7934533" lon="-0.2620767"><ele>132.0</ele><time>2026-04-02T16:43:52.657Z</time></trkpt><trkpt lat="39.7934083" lon="-0.2621467"><ele>132.0</ele><time>2026-04-02T16:43:53.658Z</time></trkpt><trkpt lat="39.7933667" lon="-0.2622683"><ele>132.0</ele><time>2026-04-02T16:43:55.657Z</time></trkpt><trkpt lat="39.7933833" lon="-0.2623567"><ele>132.0</ele><time>2026-04-02T16:43:57.657Z</time></trkpt><trkpt lat="39.7934133" lon="-0.2624583"><ele>132.0</ele><time>2026-04-02T16:43:59.657Z</time></trkpt><trkpt lat="39.793445" lon="-0.2625367"><ele>132.0</ele><time>2026-04-02T16:44:01.657Z</time></trkpt><trkpt lat="39.7934683" lon="-0.2626567"><ele>132.0</ele><time>2026-04-02T16:44:04.657Z</time></trkpt><trkpt lat="39.7934567" lon="-0.2627783"><ele>132.0</ele><time>2026-04-02T16:44:07.657Z</time></trkpt><trkpt lat="39.7934383" lon="-0.262865"><ele>132.0</ele><time>2026-04-02T16:44:09.657Z</time></trkpt><trkpt lat="39.7934067" lon="-0.2629517"><ele>132.0</ele><time>2026-04-02T16:44:11.657Z</time></trkpt><trkpt lat="39.79337" lon="-0.2630383"><ele>132.0</ele><time>2026-04-02T16:44:13.657Z</time></trkpt><trkpt lat="39.7933333" lon="-0.263115"><ele>132.0</ele><time>2026-04-02T16:44:15.657Z</time></trkpt><trkpt lat="39.79329" lon="-0.263185"><ele>132.42857142857142</ele><time>2026-04-02T16:44:17.658Z</time></trkpt><trkpt lat="39.7932267" lon="-0.263245"><ele>132.85714285714286</ele><time>2026-04-02T16:44:19.657Z</time></trkpt><trkpt lat="39.7931617" lon="-0.2632683"><ele>133.28571428571428</ele><time>2026-04-02T16:44:21.657Z</time></trkpt><trkpt lat="39.7930933" lon="-0.2632567"><ele>133.71428571428572</ele><time>2026-04-02T16:44:23.657Z</time></trkpt><trkpt lat="39.7930317" lon="-0.2632267"><ele>134.14285714285714</ele><time>2026-04-02T16:44:25.657Z</time></trkpt><trkpt lat="39.7929633" lon="-0.2631867"><ele>134.57142857142856</ele><time>2026-04-02T16:44:27.658Z</time></trkpt><trkpt lat="39.7929033" lon="-0.2631467"><ele>135.0</ele><time>2026-04-02T16:44:29.657Z</time></trkpt><trkpt lat="39.7928417" lon="-0.2631267"><ele>135.33333333333334</ele><time>2026-04-02T16:44:31.657Z</time></trkpt><trkpt lat="39.7927783" lon="-0.2631083"><ele>135.66666666666666</ele><time>2026-04-02T16:44:33.657Z</time></trkpt><trkpt lat="39.792705" lon="-0.2630917"><ele>136.0</ele><time>2026-04-02T16:44:35.657Z</time></trkpt><trkpt lat="39.792635" lon="-0.26307"><ele>136.33333333333331</ele><time>2026-04-02T16:44:37.657Z</time></trkpt><trkpt lat="39.7925583" lon="-0.2630267"><ele>136.66666666666666</ele><time>2026-04-02T16:44:39.657Z</time></trkpt><trkpt lat="39.7924867" lon="-0.2629883"><ele>137.0</ele><time>2026-04-02T16:44:41.657Z</time></trkpt><trkpt lat="39.79241" lon="-0.2629483"><ele>137.0</ele><time>2026-04-02T16:44:43.657Z</time></trkpt><trkpt lat="39.79234" lon="-0.2629033"><ele>137.0</ele><time>2026-04-02T16:44:45.657Z</time></trkpt><trkpt lat="39.7922733" lon="-0.2628617"><ele>137.0</ele><time>2026-04-02T16:44:47.657Z</time></trkpt><trkpt lat="39.7921983" lon="-0.2628317"><ele>137.0</ele><time>2026-04-02T16:44:49.657Z</time></trkpt><trkpt lat="39.7921233" lon="-0.2627967"><ele>137.0</ele><time>2026-04-02T16:44:51.657Z</time></trkpt><trkpt lat="39.792045" lon="-0.262795"><ele>137.0</ele><time>2026-04-02T16:44:53.657Z</time></trkpt><trkpt lat="39.791975" lon="-0.26283"><ele>137.0</ele><time>2026-04-02T16:44:55.657Z</time></trkpt><trkpt lat="39.791895" lon="-0.2628467"><ele>137.0</ele><time>2026-04-02T16:44:57.657Z</time></trkpt><trkpt lat="39.7918067" lon="-0.2628283"><ele>137.0</ele><time>2026-04-02T16:44:59.657Z</time></trkpt><trkpt lat="39.79172" lon="-0.2627883"><ele>137.0</ele><time>2026-04-02T16:45:01.657Z</time></trkpt><trkpt lat="39.7916433" lon="-0.262745"><ele>137.0</ele><time>2026-04-02T16:45:03.657Z</time></trkpt><trkpt lat="39.7915633" lon="-0.2626883"><ele>137.0</ele><time>2026-04-02T16:45:05.658Z</time></trkpt><trkpt lat="39.7914833" lon="-0.2626433"><ele>137.4</ele><time>2026-04-02T16:45:07.657Z</time></trkpt><trkpt lat="39.7913967" lon="-0.2625933"><ele>137.79999999999998</ele><time>2026-04-02T16:45:09.657Z</time></trkpt><trkpt lat="39.7913117" lon="-0.2625483"><ele>138.2</ele><time>2026-04-02T16:45:11.657Z</time></trkpt><trkpt lat="39.7912167" lon="-0.2625017"><ele>138.6</ele><time>2026-04-02T16:45:13.657Z</time></trkpt><trkpt lat="39.7911167" lon="-0.2624817"><ele>139.0</ele><time>2026-04-02T16:45:15.657Z</time></trkpt><trkpt lat="39.7910217" lon="-0.2624667"><ele>138.6</ele><time>2026-04-02T16:45:17.658Z</time></trkpt><trkpt lat="39.79092" lon="-0.262445"><ele>138.2</ele><time>2026-04-02T16:45:19.657Z</time></trkpt><trkpt lat="39.790815" lon="-0.2624467"><ele>137.79999999999998</ele><time>2026-04-02T16:45:21.657Z</time></trkpt><trkpt lat="39.7907117" lon="-0.2624133"><ele>137.4</ele><time>2026-04-02T16:45:23.657Z</time></trkpt><trkpt lat="39.790625" lon="-0.2623483"><ele>137.0</ele><time>2026-04-02T16:45:25.657Z</time></trkpt><trkpt lat="39.79055" lon="-0.2622667"><ele>137.0</ele><time>2026-04-02T16:45:27.657Z</time></trkpt><trkpt lat="39.7904683" lon="-0.2621983"><ele>137.0</ele><time>2026-04-02T16:45:29.658Z</time></trkpt><trkpt lat="39.790395" lon="-0.262165"><ele>137.0</ele><time>2026-04-02T16:45:31.657Z</time></trkpt><trkpt lat="39.7903267" lon="-0.262235"><ele>137.0</ele><time>2026-04-02T16:45:34.658Z</time></trkpt><trkpt lat="39.7903033" lon="-0.2623167"><ele>137.0</ele><time>2026-04-02T16:45:36.658Z</time></trkpt><trkpt lat="39.7902967" lon="-0.2624"><ele>137.0</ele><time>2026-04-02T16:45:38.657Z</time></trkpt><trkpt lat="39.7902883" lon="-0.262485"><ele>137.00000000000003</ele><time>2026-04-02T16:45:40.658Z</time></trkpt><trkpt lat="39.7902817" lon="-0.26258"><ele>137.0</ele><time>2026-04-02T16:45:42.657Z</time></trkpt><trkpt lat="39.790275" lon="-0.2626667"><ele>137.0</ele><time>2026-04-02T16:45:44.657Z</time></trkpt><trkpt lat="39.790265" lon="-0.2627617"><ele>137.0</ele><time>2026-04-02T16:45:46.657Z</time></trkpt><trkpt lat="39.7902517" lon="-0.2628583"><ele>137.0</ele><time>2026-04-02T16:45:48.657Z</time></trkpt><trkpt lat="39.79023" lon="-0.26295"><ele>137.00000000000003</ele><time>2026-04-02T16:45:50.658Z</time></trkpt><trkpt lat="39.7902117" lon="-0.26304"><ele>137.0</ele><time>2026-04-02T16:45:52.658Z</time></trkpt><trkpt lat="39.790195" lon="-0.2631283"><ele>137.5</ele><time>2026-04-02T16:45:54.657Z</time></trkpt><trkpt lat="39.79018" lon="-0.2632317"><ele>138.0</ele><time>2026-04-02T16:45:56.657Z</time></trkpt><trkpt lat="39.7901567" lon="-0.26333"><ele>138.5</ele><time>2026-04-02T16:45:58.657Z</time></trkpt><trkpt lat="39.79014" lon="-0.26343"><ele>139.0</ele><time>2026-04-02T16:46:00.658Z</time></trkpt><trkpt lat="39.7901283" lon="-0.26353"><ele>139.5</ele><time>2026-04-02T16:46:02.657Z</time></trkpt><trkpt lat="39.7901167" lon="-0.2636283"><ele>140.0</ele><time>2026-04-02T16:46:04.658Z</time></trkpt><trkpt lat="39.7900917" lon="-0.2637217"><ele>140.0</ele><time>2026-04-02T16:46:06.658Z</time></trkpt><trkpt lat="39.790075" lon="-0.2638383"><ele>140.0</ele><time>2026-04-02T16:46:09.658Z</time></trkpt><trkpt lat="39.79007" lon="-0.2639217"><ele>140.0</ele><time>2026-04-02T16:46:11.657Z</time></trkpt><trkpt lat="39.7900767" lon="-0.264035"><ele>140.0</ele><time>2026-04-02T16:46:14.657Z</time></trkpt><trkpt lat="39.790105" lon="-0.2641483"><ele>140.0</ele><time>2026-04-02T16:46:17.657Z</time></trkpt><trkpt lat="39.79011" lon="-0.26423"><ele>140.0</ele><time>2026-04-02T16:46:19.657Z</time></trkpt><trkpt lat="39.79013" lon="-0.2643233"><ele>140.83333333333331</ele><time>2026-04-02T16:46:21.657Z</time></trkpt><trkpt lat="39.7901517" lon="-0.2644183"><ele>141.66666666666666</ele><time>2026-04-02T16:46:23.657Z</time></trkpt><trkpt lat="39.7901667" lon="-0.26452"><ele>142.5</ele><time>2026-04-02T16:46:25.658Z</time></trkpt><trkpt lat="39.7901683" lon="-0.26462"><ele>143.33333333333334</ele><time>2026-04-02T16:46:27.658Z</time></trkpt><trkpt lat="39.7901667" lon="-0.2647217"><ele>144.16666666666669</ele><time>2026-04-02T16:46:29.658Z</time></trkpt><trkpt lat="39.7901767" lon="-0.2648233"><ele>145.0</ele><time>2026-04-02T16:46:31.657Z</time></trkpt><trkpt lat="39.79019" lon="-0.2649183"><ele>145.0</ele><time>2026-04-02T16:46:33.658Z</time></trkpt><trkpt lat="39.7902117" lon="-0.2650033"><ele>145.0</ele><time>2026-04-02T16:46:35.658Z</time></trkpt><trkpt lat="39.7902383" lon="-0.265095"><ele>145.0</ele><time>2026-04-02T16:46:37.657Z</time></trkpt><trkpt lat="39.7902567" lon="-0.2651867"><ele>145.0</ele><time>2026-04-02T16:46:39.657Z</time></trkpt><trkpt lat="39.79027" lon="-0.2652817"><ele>145.0</ele><time>2026-04-02T16:46:41.657Z</time></trkpt><trkpt lat="39.790275" lon="-0.2653867"><ele>145.0</ele><time>2026-04-02T16:46:43.657Z</time></trkpt><trkpt lat="39.79028" lon="-0.2654867"><ele>145.0</ele><time>2026-04-02T16:46:45.657Z</time></trkpt><trkpt lat="39.7902833" lon="-0.2655817"><ele>145.42857142857144</ele><time>2026-04-02T16:46:47.657Z</time></trkpt><trkpt lat="39.79029" lon="-0.265675"><ele>145.85714285714286</ele><time>2026-04-02T16:46:49.657Z</time></trkpt><trkpt lat="39.79029" lon="-0.26577"><ele>146.28571428571428</ele><time>2026-04-02T16:46:51.657Z</time></trkpt><trkpt lat="39.79029" lon="-0.2658667"><ele>146.71428571428572</ele><time>2026-04-02T16:46:53.657Z</time></trkpt><trkpt lat="39.7902833" lon="-0.2659567"><ele>147.14285714285714</ele><time>2026-04-02T16:46:55.657Z</time></trkpt><trkpt lat="39.7902717" lon="-0.266045"><ele>147.57142857142858</ele><time>2026-04-02T16:46:57.657Z</time></trkpt><trkpt lat="39.7902567" lon="-0.2661367"><ele>148.0</ele><time>2026-04-02T16:46:59.657Z</time></trkpt><trkpt lat="39.790245" lon="-0.2662317"><ele>148.0</ele><time>2026-04-02T16:47:01.657Z</time></trkpt><trkpt lat="39.7902333" lon="-0.2663267"><ele>148.0</ele><time>2026-04-02T16:47:03.657Z</time></trkpt><trkpt lat="39.7902233" lon="-0.2664167"><ele>148.0</ele><time>2026-04-02T16:47:05.657Z</time></trkpt><trkpt lat="39.7902183" lon="-0.26651"><ele>148.0</ele><time>2026-04-02T16:47:07.657Z</time></trkpt><trkpt lat="39.79021" lon="-0.266595"><ele>148.0</ele><time>2026-04-02T16:47:09.657Z</time></trkpt><trkpt lat="39.7901867" lon="-0.266675"><ele>148.0</ele><time>2026-04-02T16:47:11.657Z</time></trkpt><trkpt lat="39.7901583" lon="-0.2667517"><ele>148.0</ele><time>2026-04-02T16:47:13.657Z</time></trkpt><trkpt lat="39.790115" lon="-0.2668133"><ele>149.16666666666669</ele><time>2026-04-02T16:47:15.657Z</time></trkpt><trkpt lat="39.79007" lon="-0.2668733"><ele>150.33333333333334</ele><time>2026-04-02T16:47:17.657Z</time></trkpt><trkpt lat="39.7900167" lon="-0.2669667"><ele>151.5</ele><time>2026-04-02T16:47:20.658Z</time></trkpt><trkpt lat="39.789975" lon="-0.267075"><ele>152.66666666666666</ele><time>2026-04-02T16:47:23.657Z</time></trkpt><trkpt lat="39.789935" lon="-0.267185"><ele>153.83333333333331</ele><time>2026-04-02T16:47:26.657Z</time></trkpt><trkpt lat="39.7899033" lon="-0.2672617"><ele>155.0</ele><time>2026-04-02T16:47:28.657Z</time></trkpt><trkpt lat="39.7898717" lon="-0.2673417"><ele>155.0</ele><time>2026-04-02T16:47:30.657Z</time></trkpt><trkpt lat="39.78983" lon="-0.26743"><ele>155.0</ele><time>2026-04-02T16:47:33.657Z</time></trkpt><trkpt lat="39.78979" lon="-0.2675017"><ele>155.0</ele><time>2026-04-02T16:47:37.658Z</time></trkpt><trkpt lat="39.789835" lon="-0.2674167"><ele>155.0</ele><time>2026-04-02T16:47:46.657Z</time></trkpt><trkpt lat="39.7898833" lon="-0.2673067"><ele>155.0</ele><time>2026-04-02T16:47:49.657Z</time></trkpt><trkpt lat="39.7899183" lon="-0.2672283"><ele>155.0</ele><time>2026-04-02T16:47:51.657Z</time></trkpt><trkpt lat="39.7899667" lon="-0.2671417"><ele>155.0</ele><time>2026-04-02T16:47:53.657Z</time></trkpt><trkpt lat="39.790015" lon="-0.2670367"><ele>155.0</ele><time>2026-04-02T16:47:55.657Z</time></trkpt><trkpt lat="39.7900667" lon="-0.2669083"><ele>155.0</ele><time>2026-04-02T16:47:57.657Z</time></trkpt><trkpt lat="39.7901383" lon="-0.266785"><ele>155.0</ele><time>2026-04-02T16:47:59.657Z</time></trkpt><trkpt lat="39.7901983" lon="-0.26664"><ele>153.83333333333331</ele><time>2026-04-02T16:48:01.657Z</time></trkpt><trkpt lat="39.7902217" lon="-0.2664767"><ele>152.66666666666666</ele><time>2026-04-02T16:48:03.657Z</time></trkpt><trkpt lat="39.79023" lon="-0.26639"><ele>151.5</ele><time>2026-04-02T16:48:04.657Z</time></trkpt><trkpt lat="39.7902317" lon="-0.266295"><ele>150.33333333333334</ele><time>2026-04-02T16:48:05.657Z</time></trkpt><trkpt lat="39.7902367" lon="-0.2661983"><ele>149.16666666666669</ele><time>2026-04-02T16:48:06.658Z</time></trkpt><trkpt lat="39.790245" lon="-0.2661017"><ele>148.0</ele><time>2026-04-02T16:48:07.658Z</time></trkpt><trkpt lat="39.7902483" lon="-0.2660133"><ele>148.0</ele><time>2026-04-02T16:48:08.657Z</time></trkpt><trkpt lat="39.7902533" lon="-0.265915"><ele>148.0</ele><time>2026-04-02T16:48:09.657Z</time></trkpt><trkpt lat="39.790265" lon="-0.2658267"><ele>148.0</ele><time>2026-04-02T16:48:10.657Z</time></trkpt><trkpt lat="39.7902667" lon="-0.2657417"><ele>148.0</ele><time>2026-04-02T16:48:11.657Z</time></trkpt><trkpt lat="39.79026" lon="-0.2656567"><ele>148.0</ele><time>2026-04-02T16:48:12.657Z</time></trkpt><trkpt lat="39.7902583" lon="-0.2655667"><ele>148.0</ele><time>2026-04-02T16:48:13.657Z</time></trkpt><trkpt lat="39.7902683" lon="-0.265475"><ele>148.0</ele><time>2026-04-02T16:48:14.657Z</time></trkpt><trkpt lat="39.790265" lon="-0.265385"><ele>148.0</ele><time>2026-04-02T16:48:15.657Z</time></trkpt><trkpt lat="39.7902567" lon="-0.2652933"><ele>148.0</ele><time>2026-04-02T16:48:16.657Z</time></trkpt><trkpt lat="39.7902417" lon="-0.2652"><ele>148.0</ele><time>2026-04-02T16:48:17.657Z</time></trkpt><trkpt lat="39.79022" lon="-0.2651117"><ele>148.0</ele><time>2026-04-02T16:48:18.657Z</time></trkpt><trkpt lat="39.790195" lon="-0.2650317"><ele>148.0</ele><time>2026-04-02T16:48:19.657Z</time></trkpt><trkpt lat="39.7901817" lon="-0.264935"><ele>148.0</ele><time>2026-04-02T16:48:20.657Z</time></trkpt><trkpt lat="39.7901733" lon="-0.2648383"><ele>148.0</ele><time>2026-04-02T16:48:21.658Z</time></trkpt><trkpt lat="39.7901717" lon="-0.2647433"><ele>147.5</ele><time>2026-04-02T16:48:22.657Z</time></trkpt><trkpt lat="39.790165" lon="-0.2646367"><ele>147.0</ele><time>2026-04-02T16:48:23.657Z</time></trkpt><trkpt lat="39.79015" lon="-0.26454"><ele>146.5</ele><time>2026-04-02T16:48:24.658Z</time></trkpt><trkpt lat="39.790125" lon="-0.2644433"><ele>146.0</ele><time>2026-04-02T16:48:25.657Z</time></trkpt><trkpt lat="39.7901083" lon="-0.26435"><ele>145.5</ele><time>2026-04-02T16:48:26.657Z</time></trkpt><trkpt lat="39.7900933" lon="-0.264265"><ele>145.0</ele><time>2026-04-02T16:48:27.657Z</time></trkpt><trkpt lat="39.7900883" lon="-0.2641683"><ele>145.0</ele><time>2026-04-02T16:48:28.657Z</time></trkpt><trkpt lat="39.7900767" lon="-0.2640733"><ele>145.0</ele><time>2026-04-02T16:48:29.657Z</time></trkpt><trkpt lat="39.7900767" lon="-0.2639667"><ele>145.0</ele><time>2026-04-02T16:48:30.657Z</time></trkpt><trkpt lat="39.7900817" lon="-0.2638633"><ele>145.0</ele><time>2026-04-02T16:48:31.657Z</time></trkpt><trkpt lat="39.7900917" lon="-0.263755"><ele>145.0</ele><time>2026-04-02T16:48:32.657Z</time></trkpt><trkpt lat="39.790105" lon="-0.2636467"><ele>145.0</ele><time>2026-04-02T16:48:33.658Z</time></trkpt><trkpt lat="39.790125" lon="-0.2635317"><ele>144.0</ele><time>2026-04-02T16:48:34.657Z</time></trkpt><trkpt lat="39.7901517" lon="-0.26342"><ele>143.0</ele><time>2026-04-02T16:48:35.658Z</time></trkpt><trkpt lat="39.7901717" lon="-0.2633133"><ele>142.0</ele><time>2026-04-02T16:48:36.657Z</time></trkpt><trkpt lat="39.79019" lon="-0.2631933"><ele>141.0</ele><time>2026-04-02T16:48:37.658Z</time></trkpt><trkpt lat="39.7902117" lon="-0.2630717"><ele>140.0</ele><time>2026-04-02T16:48:38.657Z</time></trkpt><trkpt lat="39.7902317" lon="-0.26295"><ele>139.5</ele><time>2026-04-02T16:48:39.657Z</time></trkpt><trkpt lat="39.790255" lon="-0.2628317"><ele>139.0</ele><time>2026-04-02T16:48:40.657Z</time></trkpt><trkpt lat="39.7902683" lon="-0.2627167"><ele>138.5</ele><time>2026-04-02T16:48:41.657Z</time></trkpt><trkpt lat="39.79028" lon="-0.2626033"><ele>138.0</ele><time>2026-04-02T16:48:42.657Z</time></trkpt><trkpt lat="39.7902833" lon="-0.2625033"><ele>137.5</ele><time>2026-04-02T16:48:43.657Z</time></trkpt><trkpt lat="39.7902867" lon="-0.2624017"><ele>137.0</ele><time>2026-04-02T16:48:44.657Z</time></trkpt><trkpt lat="39.7902983" lon="-0.2622967"><ele>136.85714285714286</ele><time>2026-04-02T16:48:45.657Z</time></trkpt><trkpt lat="39.7903133" lon="-0.2621933"><ele>136.71428571428572</ele><time>2026-04-02T16:48:46.657Z</time></trkpt><trkpt lat="39.790325" lon="-0.2620983"><ele>136.57142857142856</ele><time>2026-04-02T16:48:47.657Z</time></trkpt><trkpt lat="39.7903383" lon="-0.2620017"><ele>136.42857142857144</ele><time>2026-04-02T16:48:48.657Z</time></trkpt><trkpt lat="39.7903533" lon="-0.2619133"><ele>136.28571428571428</ele><time>2026-04-02T16:48:49.658Z</time></trkpt><trkpt lat="39.79037" lon="-0.2618233"><ele>136.14285714285714</ele><time>2026-04-02T16:48:50.658Z</time></trkpt><trkpt lat="39.7903817" lon="-0.2617267"><ele>136.0</ele><time>2026-04-02T16:48:51.657Z</time></trkpt><trkpt lat="39.79039" lon="-0.2616317"><ele>136.0</ele><time>2026-04-02T16:48:52.657Z</time></trkpt><trkpt lat="39.7903933" lon="-0.261535"><ele>136.0</ele><time>2026-04-02T16:48:53.657Z</time></trkpt><trkpt lat="39.7904083" lon="-0.2614483"><ele>136.0</ele><time>2026-04-02T16:48:54.657Z</time></trkpt><trkpt lat="39.79044" lon="-0.26136"><ele>136.0</ele><time>2026-04-02T16:48:55.657Z</time></trkpt><trkpt lat="39.7904717" lon="-0.2612833"><ele>136.0</ele><time>2026-04-02T16:48:56.658Z</time></trkpt><trkpt lat="39.790505" lon="-0.2612083"><ele>136.0</ele><time>2026-04-02T16:48:57.657Z</time></trkpt><trkpt lat="39.7905383" lon="-0.2610517"><ele>136.2</ele><time>2026-04-02T16:48:59.658Z</time></trkpt><trkpt lat="39.79054" lon="-0.2609"><ele>136.39999999999998</ele><time>2026-04-02T16:49:01.657Z</time></trkpt><trkpt lat="39.790545" lon="-0.2607717"><ele>136.6</ele><time>2026-04-02T16:49:03.657Z</time></trkpt><trkpt lat="39.790545" lon="-0.2606333"><ele>136.79999999999998</ele><time>2026-04-02T16:49:05.657Z</time></trkpt><trkpt lat="39.7905417" lon="-0.2604983"><ele>137.0</ele><time>2026-04-02T16:49:07.657Z</time></trkpt><trkpt lat="39.7905383" lon="-0.2603683"><ele>137.0</ele><time>2026-04-02T16:49:09.657Z</time></trkpt><trkpt lat="39.7905417" lon="-0.2602383"><ele>137.0</ele><time>2026-04-02T16:49:11.657Z</time></trkpt><trkpt lat="39.7905717" lon="-0.2601083"><ele>137.0</ele><time>2026-04-02T16:49:13.657Z</time></trkpt><trkpt lat="39.7906083" lon="-0.2599867"><ele>137.0</ele><time>2026-04-02T16:49:15.657Z</time></trkpt><trkpt lat="39.7906367" lon="-0.25986"><ele>137.0</ele><time>2026-04-02T16:49:17.657Z</time></trkpt><trkpt lat="39.7906633" lon="-0.25974"><ele>136.6</ele><time>2026-04-02T16:49:19.657Z</time></trkpt><trkpt lat="39.7906933" lon="-0.259625"><ele>136.2</ele><time>2026-04-02T16:49:21.657Z</time></trkpt><trkpt lat="39.79071" lon="-0.2595083"><ele>135.8</ele><time>2026-04-02T16:49:23.658Z</time></trkpt><trkpt lat="39.7907417" lon="-0.2593883"><ele>135.4</ele><time>2026-04-02T16:49:25.658Z</time></trkpt><trkpt lat="39.7907683" lon="-0.25927"><ele>135.0</ele><time>2026-04-02T16:49:27.657Z</time></trkpt><trkpt lat="39.7907933" lon="-0.2591433"><ele>135.0</ele><time>2026-04-02T16:49:29.657Z</time></trkpt><trkpt lat="39.7908183" lon="-0.2590117"><ele>135.0</ele><time>2026-04-02T16:49:31.658Z</time></trkpt><trkpt lat="39.790835" lon="-0.25887"><ele>135.0</ele><time>2026-04-02T16:49:33.658Z</time></trkpt><trkpt lat="39.7908433" lon="-0.258715"><ele>135.0</ele><time>2026-04-02T16:49:35.657Z</time></trkpt><trkpt lat="39.7908417" lon="-0.2586317"><ele>135.0</ele><time>2026-04-02T16:49:36.657Z</time></trkpt><trkpt lat="39.790855" lon="-0.2584683"><ele>134.57142857142856</ele><time>2026-04-02T16:49:38.657Z</time></trkpt><trkpt lat="39.7908617" lon="-0.2583817"><ele>134.14285714285714</ele><time>2026-04-02T16:49:39.657Z</time></trkpt><trkpt lat="39.7908717" lon="-0.2583"><ele>133.71428571428572</ele><time>2026-04-02T16:49:40.657Z</time></trkpt><trkpt lat="39.79089" lon="-0.258215"><ele>133.28571428571428</ele><time>2026-04-02T16:49:41.657Z</time></trkpt><trkpt lat="39.7909117" lon="-0.2581333"><ele>132.85714285714286</ele><time>2026-04-02T16:49:42.657Z</time></trkpt><trkpt lat="39.7909433" lon="-0.2580583"><ele>132.42857142857142</ele><time>2026-04-02T16:49:43.658Z</time></trkpt><trkpt lat="39.7909767" lon="-0.2579833"><ele>132.0</ele><time>2026-04-02T16:49:44.657Z</time></trkpt><trkpt lat="39.7910183" lon="-0.257915"><ele>132.0</ele><time>2026-04-02T16:49:45.657Z</time></trkpt><trkpt lat="39.7910583" lon="-0.2578483"><ele>132.0</ele><time>2026-04-02T16:49:46.657Z</time></trkpt><trkpt lat="39.7911017" lon="-0.257785"><ele>132.0</ele><time>2026-04-02T16:49:47.657Z</time></trkpt><trkpt lat="39.7911717" lon="-0.2576583"><ele>132.0</ele><time>2026-04-02T16:49:49.658Z</time></trkpt><trkpt lat="39.7912483" lon="-0.2575467"><ele>132.0</ele><time>2026-04-02T16:49:51.658Z</time></trkpt><trkpt lat="39.79132" lon="-0.2574383"><ele>132.0</ele><time>2026-04-02T16:49:53.657Z</time></trkpt><trkpt lat="39.7913733" lon="-0.2573167"><ele>132.0</ele><time>2026-04-02T16:49:55.657Z</time></trkpt><trkpt lat="39.7913767" lon="-0.2571817"><ele>132.0</ele><time>2026-04-02T16:49:57.657Z</time></trkpt><trkpt lat="39.79134" lon="-0.2570583"><ele>132.0</ele><time>2026-04-02T16:49:59.657Z</time></trkpt><trkpt lat="39.7913017" lon="-0.25693"><ele>132.0</ele><time>2026-04-02T16:50:01.657Z</time></trkpt><trkpt lat="39.7912767" lon="-0.2568533"><ele>131.2</ele><time>2026-04-02T16:50:02.657Z</time></trkpt><trkpt lat="39.7912567" lon="-0.25677"><ele>130.39999999999998</ele><time>2026-04-02T16:50:03.657Z</time></trkpt><trkpt lat="39.7912067" lon="-0.25662"><ele>129.60000000000002</ele><time>2026-04-02T16:50:05.658Z</time></trkpt><trkpt lat="39.7911833" lon="-0.2565433"><ele>128.8</ele><time>2026-04-02T16:50:06.658Z</time></trkpt><trkpt lat="39.7911383" lon="-0.2564017"><ele>128.0</ele><time>2026-04-02T16:50:08.657Z</time></trkpt><trkpt lat="39.7910933" lon="-0.2562567"><ele>128.0</ele><time>2026-04-02T16:50:10.657Z</time></trkpt><trkpt lat="39.791035" lon="-0.2561267"><ele>128.0</ele><time>2026-04-02T16:50:12.657Z</time></trkpt><trkpt lat="39.7909767" lon="-0.2559867"><ele>128.0</ele><time>2026-04-02T16:50:14.657Z</time></trkpt><trkpt lat="39.790925" lon="-0.2558483"><ele>128.0</ele><time>2026-04-02T16:50:16.657Z</time></trkpt><trkpt lat="39.7908933" lon="-0.2557767"><ele>128.0</ele><time>2026-04-02T16:50:17.658Z</time></trkpt><trkpt lat="39.79086" lon="-0.2556967"><ele>127.57142857142857</ele><time>2026-04-02T16:50:18.657Z</time></trkpt><trkpt lat="39.7908283" lon="-0.2556217"><ele>127.14285714285714</ele><time>2026-04-02T16:50:19.657Z</time></trkpt><trkpt lat="39.7908" lon="-0.2555467"><ele>126.71428571428571</ele><time>2026-04-02T16:50:20.657Z</time></trkpt><trkpt lat="39.79077" lon="-0.2554717"><ele>126.28571428571428</ele><time>2026-04-02T16:50:21.657Z</time></trkpt><trkpt lat="39.7907433" lon="-0.2553967"><ele>125.85714285714286</ele><time>2026-04-02T16:50:22.658Z</time></trkpt><trkpt lat="39.7906933" lon="-0.2552683"><ele>125.42857142857142</ele><time>2026-04-02T16:50:24.657Z</time></trkpt><trkpt lat="39.7906483" lon="-0.2551867"><ele>125.0</ele><time>2026-04-02T16:50:26.657Z</time></trkpt><trkpt lat="39.7906183" lon="-0.2550883"><ele>124.8</ele><time>2026-04-02T16:50:29.657Z</time></trkpt><trkpt lat="39.7906417" lon="-0.2549683"><ele>124.6</ele><time>2026-04-02T16:50:32.658Z</time></trkpt><trkpt lat="39.790685" lon="-0.2548783"><ele>124.4</ele><time>2026-04-02T16:50:34.657Z</time></trkpt><trkpt lat="39.7907417" lon="-0.2547883"><ele>124.2</ele><time>2026-04-02T16:50:36.657Z</time></trkpt><trkpt lat="39.7908" lon="-0.254685"><ele>124.0</ele><time>2026-04-02T16:50:38.657Z</time></trkpt><trkpt lat="39.7908683" lon="-0.25458"><ele>123.6</ele><time>2026-04-02T16:50:40.657Z</time></trkpt><trkpt lat="39.790925" lon="-0.2544617"><ele>123.2</ele><time>2026-04-02T16:50:42.657Z</time></trkpt><trkpt lat="39.7909833" lon="-0.25435"><ele>122.79999999999998</ele><time>2026-04-02T16:50:44.657Z</time></trkpt><trkpt lat="39.7910433" lon="-0.2542483"><ele>122.39999999999999</ele><time>2026-04-02T16:50:46.658Z</time></trkpt><trkpt lat="39.7911117" lon="-0.2541383"><ele>122.0</ele><time>2026-04-02T16:50:48.658Z</time></trkpt><trkpt lat="39.791175" lon="-0.2540233"><ele>122.25</ele><time>2026-04-02T16:50:50.657Z</time></trkpt><trkpt lat="39.7912417" lon="-0.253915"><ele>122.5</ele><time>2026-04-02T16:50:52.658Z</time></trkpt><trkpt lat="39.7913017" lon="-0.2537933"><ele>122.75</ele><time>2026-04-02T16:50:54.657Z</time></trkpt><trkpt lat="39.7913717" lon="-0.2536717"><ele>123.0</ele><time>2026-04-02T16:50:56.657Z</time></trkpt><trkpt lat="39.7914383" lon="-0.2535467"><ele>123.0</ele><time>2026-04-02T16:50:58.658Z</time></trkpt><trkpt lat="39.79151" lon="-0.25343"><ele>123.00000000000001</ele><time>2026-04-02T16:51:00.657Z</time></trkpt><trkpt lat="39.7915717" lon="-0.2533117"><ele>123.00000000000001</ele><time>2026-04-02T16:51:02.657Z</time></trkpt><trkpt lat="39.7916367" lon="-0.2531983"><ele>123.0</ele><time>2026-04-02T16:51:04.657Z</time></trkpt><trkpt lat="39.7917067" lon="-0.253095"><ele>123.0</ele><time>2026-04-02T16:51:06.657Z</time></trkpt><trkpt lat="39.79177" lon="-0.252985"><ele>122.0</ele><time>2026-04-02T16:51:08.658Z</time></trkpt><trkpt lat="39.791835" lon="-0.2528767"><ele>121.00000000000001</ele><time>2026-04-02T16:51:10.657Z</time></trkpt><trkpt lat="39.7919117" lon="-0.2527683"><ele>120.00000000000001</ele><time>2026-04-02T16:51:12.658Z</time></trkpt><trkpt lat="39.791985" lon="-0.252655"><ele>119.0</ele><time>2026-04-02T16:51:14.657Z</time></trkpt><trkpt lat="39.7920567" lon="-0.2525433"><ele>118.0</ele><time>2026-04-02T16:51:16.657Z</time></trkpt><trkpt lat="39.79213" lon="-0.2524217"><ele>117.80000000000001</ele><time>2026-04-02T16:51:18.658Z</time></trkpt><trkpt lat="39.7922033" lon="-0.2523017"><ele>117.60000000000001</ele><time>2026-04-02T16:51:20.658Z</time></trkpt><trkpt lat="39.7922417" lon="-0.2522367"><ele>117.39999999999999</ele><time>2026-04-02T16:51:21.657Z</time></trkpt><trkpt lat="39.7923167" lon="-0.25211"><ele>117.19999999999999</ele><time>2026-04-02T16:51:23.657Z</time></trkpt><trkpt lat="39.7923933" lon="-0.251985"><ele>117.0</ele><time>2026-04-02T16:51:25.658Z</time></trkpt><trkpt lat="39.792435" lon="-0.2519217"><ele>116.66666666666667</ele><time>2026-04-02T16:51:26.657Z</time></trkpt><trkpt lat="39.7924733" lon="-0.2518517"><ele>116.33333333333334</ele><time>2026-04-02T16:51:27.657Z</time></trkpt><trkpt lat="39.7925117" lon="-0.2517833"><ele>116.0</ele><time>2026-04-02T16:51:28.657Z</time></trkpt><trkpt lat="39.792555" lon="-0.2517183"><ele>115.66666666666667</ele><time>2026-04-02T16:51:29.657Z</time></trkpt><trkpt lat="39.7925967" lon="-0.2516533"><ele>115.33333333333334</ele><time>2026-04-02T16:51:30.657Z</time></trkpt><trkpt lat="39.7926383" lon="-0.2515917"><ele>115.0</ele><time>2026-04-02T16:51:31.657Z</time></trkpt><trkpt lat="39.7927167" lon="-0.25146"><ele>114.8</ele><time>2026-04-02T16:51:33.657Z</time></trkpt><trkpt lat="39.7927933" lon="-0.2513367"><ele>114.6</ele><time>2026-04-02T16:51:35.657Z</time></trkpt><trkpt lat="39.792865" lon="-0.25121"><ele>114.4</ele><time>2026-04-02T16:51:37.658Z</time></trkpt><trkpt lat="39.7929017" lon="-0.2511433"><ele>114.2</ele><time>2026-04-02T16:51:38.657Z</time></trkpt><trkpt lat="39.7929717" lon="-0.25101"><ele>114.0</ele><time>2026-04-02T16:51:40.657Z</time></trkpt><trkpt lat="39.7930367" lon="-0.2508717"><ele>114.0</ele><time>2026-04-02T16:51:42.657Z</time></trkpt><trkpt lat="39.7930983" lon="-0.25074"><ele>114.0</ele><time>2026-04-02T16:51:44.657Z</time></trkpt><trkpt lat="39.793135" lon="-0.2506717"><ele>114.0</ele><time>2026-04-02T16:51:45.657Z</time></trkpt><trkpt lat="39.7932" lon="-0.250535"><ele>114.0</ele><time>2026-04-02T16:51:47.657Z</time></trkpt><trkpt lat="39.7932317" lon="-0.2504633"><ele>114.0</ele><time>2026-04-02T16:51:48.658Z</time></trkpt><trkpt lat="39.7932683" lon="-0.2503933"><ele>114.0</ele><time>2026-04-02T16:51:49.657Z</time></trkpt><trkpt lat="39.793335" lon="-0.2502617"><ele>114.0</ele><time>2026-04-02T16:51:51.657Z</time></trkpt><trkpt lat="39.7933917" lon="-0.2501283"><ele>114.0</ele><time>2026-04-02T16:51:53.657Z</time></trkpt><trkpt lat="39.793465" lon="-0.25"><ele>114.0</ele><time>2026-04-02T16:51:55.658Z</time></trkpt><trkpt lat="39.7935317" lon="-0.2498817"><ele>114.0</ele><time>2026-04-02T16:51:57.657Z</time></trkpt><trkpt lat="39.7936083" lon="-0.2497633"><ele>113.4</ele><time>2026-04-02T16:51:59.657Z</time></trkpt><trkpt lat="39.793685" lon="-0.249655"><ele>112.80000000000001</ele><time>2026-04-02T16:52:01.657Z</time></trkpt><trkpt lat="39.79376" lon="-0.2495483"><ele>112.19999999999999</ele><time>2026-04-02T16:52:03.657Z</time></trkpt><trkpt lat="39.7938417" lon="-0.24945"><ele>111.6</ele><time>2026-04-02T16:52:05.657Z</time></trkpt><trkpt lat="39.79392" lon="-0.249355"><ele>111.0</ele><time>2026-04-02T16:52:07.657Z</time></trkpt><trkpt lat="39.7940017" lon="-0.2492767"><ele>111.0</ele><time>2026-04-02T16:52:09.657Z</time></trkpt><trkpt lat="39.7940833" lon="-0.249205"><ele>111.0</ele><time>2026-04-02T16:52:11.657Z</time></trkpt><trkpt lat="39.79417" lon="-0.249145"><ele>111.0</ele><time>2026-04-02T16:52:13.657Z</time></trkpt><trkpt lat="39.79426" lon="-0.24909"><ele>111.0</ele><time>2026-04-02T16:52:15.658Z</time></trkpt><trkpt lat="39.7943517" lon="-0.24905"><ele>111.0</ele><time>2026-04-02T16:52:17.658Z</time></trkpt><trkpt lat="39.7944433" lon="-0.249015"><ele>111.0</ele><time>2026-04-02T16:52:19.657Z</time></trkpt><trkpt lat="39.7945367" lon="-0.2489883"><ele>111.0</ele><time>2026-04-02T16:52:21.657Z</time></trkpt><trkpt lat="39.7946217" lon="-0.2489583"><ele>111.0</ele><time>2026-04-02T16:52:23.657Z</time></trkpt><trkpt lat="39.7947083" lon="-0.24892"><ele>111.0</ele><time>2026-04-02T16:52:25.658Z</time></trkpt><trkpt lat="39.79478" lon="-0.2488667"><ele>111.0</ele><time>2026-04-02T16:52:27.657Z</time></trkpt><trkpt lat="39.79485" lon="-0.2488033"><ele>111.0</ele><time>2026-04-02T16:52:29.657Z</time></trkpt><trkpt lat="39.79493" lon="-0.2487567"><ele>110.8</ele><time>2026-04-02T16:52:31.658Z</time></trkpt><trkpt lat="39.7950183" lon="-0.2487267"><ele>110.6</ele><time>2026-04-02T16:52:33.657Z</time></trkpt><trkpt lat="39.79511" lon="-0.248725"><ele>110.4</ele><time>2026-04-02T16:52:35.657Z</time></trkpt><trkpt lat="39.7952067" lon="-0.2487083"><ele>110.2</ele><time>2026-04-02T16:52:37.657Z</time></trkpt><trkpt lat="39.7953" lon="-0.2486833"><ele>110.0</ele><time>2026-04-02T16:52:39.657Z</time></trkpt><trkpt lat="39.7954017" lon="-0.24867"><ele>110.0</ele><time>2026-04-02T16:52:41.657Z</time></trkpt><trkpt lat="39.7955017" lon="-0.2486483"><ele>110.0</ele><time>2026-04-02T16:52:43.657Z</time></trkpt><trkpt lat="39.7956" lon="-0.248605"><ele>110.0</ele><time>2026-04-02T16:52:45.657Z</time></trkpt><trkpt lat="39.795695" lon="-0.2485533"><ele>110.0</ele><time>2026-04-02T16:52:47.657Z</time></trkpt><trkpt lat="39.7957883" lon="-0.24848"><ele>110.0</ele><time>2026-04-02T16:52:49.657Z</time></trkpt><trkpt lat="39.7958733" lon="-0.2483917"><ele>110.0</ele><time>2026-04-02T16:52:51.658Z</time></trkpt><trkpt lat="39.7959567" lon="-0.2482917"><ele>110.0</ele><time>2026-04-02T16:52:53.657Z</time></trkpt><trkpt lat="39.7960467" lon="-0.24818"><ele>110.0</ele><time>2026-04-02T16:52:55.658Z</time></trkpt><trkpt lat="39.79612" lon="-0.2480683"><ele>110.0</ele><time>2026-04-02T16:52:57.658Z</time></trkpt><trkpt lat="39.7961867" lon="-0.2479433"><ele>109.8</ele><time>2026-04-02T16:52:59.657Z</time></trkpt><trkpt lat="39.7962483" lon="-0.247825"><ele>109.6</ele><time>2026-04-02T16:53:01.657Z</time></trkpt><trkpt lat="39.7963117" lon="-0.2477133"><ele>109.4</ele><time>2026-04-02T16:53:03.658Z</time></trkpt><trkpt lat="39.7963833" lon="-0.2475983"><ele>109.2</ele><time>2026-04-02T16:53:05.657Z</time></trkpt><trkpt lat="39.796455" lon="-0.2474833"><ele>109.0</ele><time>2026-04-02T16:53:07.657Z</time></trkpt><trkpt lat="39.796525" lon="-0.2473667"><ele>108.80000000000001</ele><time>2026-04-02T16:53:09.657Z</time></trkpt><trkpt lat="39.7965983" lon="-0.247255"><ele>108.60000000000001</ele><time>2026-04-02T16:53:11.657Z</time></trkpt><trkpt lat="39.7966717" lon="-0.247145"><ele>108.4</ele><time>2026-04-02T16:53:13.657Z</time></trkpt><trkpt lat="39.7967433" lon="-0.247035"><ele>108.2</ele><time>2026-04-02T16:53:15.657Z</time></trkpt><trkpt lat="39.796815" lon="-0.246935"><ele>108.0</ele><time>2026-04-02T16:53:17.658Z</time></trkpt><trkpt lat="39.79689" lon="-0.2468333"><ele>108.4</ele><time>2026-04-02T16:53:19.658Z</time></trkpt><trkpt lat="39.796965" lon="-0.2467317"><ele>108.80000000000001</ele><time>2026-04-02T16:53:21.657Z</time></trkpt><trkpt lat="39.7970467" lon="-0.2466383"><ele>109.2</ele><time>2026-04-02T16:53:23.657Z</time></trkpt><trkpt lat="39.79713" lon="-0.2465383"><ele>109.6</ele><time>2026-04-02T16:53:25.657Z</time></trkpt><trkpt lat="39.7972133" lon="-0.2464367"><ele>110.0</ele><time>2026-04-02T16:53:27.657Z</time></trkpt><trkpt lat="39.797295" lon="-0.2463367"><ele>110.0</ele><time>2026-04-02T16:53:29.657Z</time></trkpt><trkpt lat="39.7973817" lon="-0.246235"><ele>110.0</ele><time>2026-04-02T16:53:31.657Z</time></trkpt><trkpt lat="39.7974667" lon="-0.2461367"><ele>110.0</ele><time>2026-04-02T16:53:33.657Z</time></trkpt><trkpt lat="39.7975567" lon="-0.246045"><ele>110.0</ele><time>2026-04-02T16:53:35.657Z</time></trkpt><trkpt lat="39.7976417" lon="-0.24595"><ele>110.25</ele><time>2026-04-02T16:53:37.657Z</time></trkpt><trkpt lat="39.79773" lon="-0.245855"><ele>110.5</ele><time>2026-04-02T16:53:39.657Z</time></trkpt><trkpt lat="39.7978167" lon="-0.2457567"><ele>110.75</ele><time>2026-04-02T16:53:41.658Z</time></trkpt><trkpt lat="39.7979017" lon="-0.24566"><ele>111.0</ele><time>2026-04-02T16:53:43.657Z</time></trkpt><trkpt lat="39.7979883" lon="-0.245565"><ele>110.19999999999999</ele><time>2026-04-02T16:53:45.657Z</time></trkpt><trkpt lat="39.7980717" lon="-0.2454767"><ele>109.39999999999999</ele><time>2026-04-02T16:53:47.658Z</time></trkpt><trkpt lat="39.79816" lon="-0.245385"><ele>108.6</ele><time>2026-04-02T16:53:49.657Z</time></trkpt><trkpt lat="39.798235" lon="-0.245295"><ele>107.8</ele><time>2026-04-02T16:53:51.657Z</time></trkpt><trkpt lat="39.7983133" lon="-0.2452"><ele>107.0</ele><time>2026-04-02T16:53:53.657Z</time></trkpt><trkpt lat="39.7984083" lon="-0.2451117"><ele>107.0</ele><time>2026-04-02T16:53:55.657Z</time></trkpt><trkpt lat="39.79849" lon="-0.24502"><ele>107.0</ele><time>2026-04-02T16:53:57.658Z</time></trkpt><trkpt lat="39.79857" lon="-0.2449267"><ele>107.0</ele><time>2026-04-02T16:53:59.658Z</time></trkpt><trkpt lat="39.7986617" lon="-0.2448317"><ele>107.0</ele><time>2026-04-02T16:54:01.657Z</time></trkpt><trkpt lat="39.7987517" lon="-0.2447317"><ele>106.8</ele><time>2026-04-02T16:54:03.657Z</time></trkpt><trkpt lat="39.7988383" lon="-0.2446367"><ele>106.6</ele><time>2026-04-02T16:54:05.657Z</time></trkpt><trkpt lat="39.79893" lon="-0.2445283"><ele>106.39999999999999</ele><time>2026-04-02T16:54:07.657Z</time></trkpt><trkpt lat="39.7990233" lon="-0.2444233"><ele>106.19999999999999</ele><time>2026-04-02T16:54:09.657Z</time></trkpt><trkpt lat="39.7990717" lon="-0.2443617"><ele>106.0</ele><time>2026-04-02T16:54:10.657Z</time></trkpt><trkpt lat="39.7991233" lon="-0.2443067"><ele>106.00000000000001</ele><time>2026-04-02T16:54:11.657Z</time></trkpt><trkpt lat="39.799175" lon="-0.2442517"><ele>106.0</ele><time>2026-04-02T16:54:12.657Z</time></trkpt><trkpt lat="39.7992267" lon="-0.2442017"><ele>106.0</ele><time>2026-04-02T16:54:13.658Z</time></trkpt><trkpt lat="39.7993167" lon="-0.244095"><ele>106.0</ele><time>2026-04-02T16:54:15.658Z</time></trkpt><trkpt lat="39.7994167" lon="-0.2439867"><ele>106.00000000000001</ele><time>2026-04-02T16:54:17.657Z</time></trkpt><trkpt lat="39.7994667" lon="-0.2439333"><ele>106.0</ele><time>2026-04-02T16:54:18.657Z</time></trkpt><trkpt lat="39.7995133" lon="-0.2438767"><ele>105.57142857142857</ele><time>2026-04-02T16:54:19.657Z</time></trkpt><trkpt lat="39.7995617" lon="-0.24382"><ele>105.14285714285714</ele><time>2026-04-02T16:54:20.657Z</time></trkpt><trkpt lat="39.7996083" lon="-0.2437583"><ele>104.71428571428571</ele><time>2026-04-02T16:54:21.657Z</time></trkpt><trkpt lat="39.7996583" lon="-0.243705"><ele>104.28571428571428</ele><time>2026-04-02T16:54:22.658Z</time></trkpt><trkpt lat="39.799705" lon="-0.2436483"><ele>103.85714285714286</ele><time>2026-04-02T16:54:23.657Z</time></trkpt><trkpt lat="39.7997533" lon="-0.2435933"><ele>103.42857142857142</ele><time>2026-04-02T16:54:24.657Z</time></trkpt><trkpt lat="39.7998467" lon="-0.2434883"><ele>103.0</ele><time>2026-04-02T16:54:26.657Z</time></trkpt><trkpt lat="39.7999417" lon="-0.243385"><ele>103.00000000000001</ele><time>2026-04-02T16:54:28.657Z</time></trkpt><trkpt lat="39.7999917" lon="-0.2433333"><ele>103.0</ele><time>2026-04-02T16:54:29.657Z</time></trkpt><trkpt lat="39.8000383" lon="-0.243275"><ele>103.0</ele><time>2026-04-02T16:54:30.657Z</time></trkpt><trkpt lat="39.800085" lon="-0.24322"><ele>103.0</ele><time>2026-04-02T16:54:31.657Z</time></trkpt><trkpt lat="39.8001683" lon="-0.243105"><ele>103.00000000000001</ele><time>2026-04-02T16:54:33.657Z</time></trkpt><trkpt lat="39.8002567" lon="-0.2429917"><ele>103.0</ele><time>2026-04-02T16:54:35.657Z</time></trkpt><trkpt lat="39.80034" lon="-0.242885"><ele>102.5</ele><time>2026-04-02T16:54:37.657Z</time></trkpt><trkpt lat="39.8004317" lon="-0.2427767"><ele>102.0</ele><time>2026-04-02T16:54:39.657Z</time></trkpt><trkpt lat="39.8005217" lon="-0.2426717"><ele>101.5</ele><time>2026-04-02T16:54:41.657Z</time></trkpt><trkpt lat="39.80062" lon="-0.2425717"><ele>101.0</ele><time>2026-04-02T16:54:43.657Z</time></trkpt><trkpt lat="39.80071" lon="-0.2424617"><ele>101.0</ele><time>2026-04-02T16:54:45.658Z</time></trkpt><trkpt lat="39.8007967" lon="-0.242355"><ele>101.0</ele><time>2026-04-02T16:54:47.657Z</time></trkpt><trkpt lat="39.8008867" lon="-0.2422533"><ele>101.0</ele><time>2026-04-02T16:54:49.658Z</time></trkpt><trkpt lat="39.8009767" lon="-0.2421417"><ele>101.0</ele><time>2026-04-02T16:54:51.657Z</time></trkpt><trkpt lat="39.8010267" lon="-0.2420817"><ele>101.0</ele><time>2026-04-02T16:54:52.657Z</time></trkpt><trkpt lat="39.8010733" lon="-0.24202"><ele>100.57142857142857</ele><time>2026-04-02T16:54:53.657Z</time></trkpt><trkpt lat="39.80112" lon="-0.2419617"><ele>100.14285714285714</ele><time>2026-04-02T16:54:54.658Z</time></trkpt><trkpt lat="39.801165" lon="-0.2419033"><ele>99.71428571428572</ele><time>2026-04-02T16:54:55.658Z</time></trkpt><trkpt lat="39.8012133" lon="-0.2418467"><ele>99.28571428571428</ele><time>2026-04-02T16:54:56.657Z</time></trkpt><trkpt lat="39.80126" lon="-0.241785"><ele>98.85714285714286</ele><time>2026-04-02T16:54:57.657Z</time></trkpt><trkpt lat="39.801305" lon="-0.241725"><ele>98.42857142857143</ele><time>2026-04-02T16:54:58.657Z</time></trkpt><trkpt lat="39.8013567" lon="-0.2416733"><ele>98.0</ele><time>2026-04-02T16:54:59.658Z</time></trkpt><trkpt lat="39.8014033" lon="-0.2416133"><ele>98.0</ele><time>2026-04-02T16:55:00.657Z</time></trkpt><trkpt lat="39.8014467" lon="-0.2415533"><ele>98.0</ele><time>2026-04-02T16:55:01.657Z</time></trkpt><trkpt lat="39.8014917" lon="-0.2414917"><ele>98.0</ele><time>2026-04-02T16:55:02.657Z</time></trkpt><trkpt lat="39.8015383" lon="-0.2414267"><ele>98.0</ele><time>2026-04-02T16:55:03.657Z</time></trkpt><trkpt lat="39.8015867" lon="-0.2413683"><ele>98.0</ele><time>2026-04-02T16:55:04.658Z</time></trkpt><trkpt lat="39.801635" lon="-0.2413083"><ele>98.0</ele><time>2026-04-02T16:55:05.657Z</time></trkpt><trkpt lat="39.801685" lon="-0.2412517"><ele>98.0</ele><time>2026-04-02T16:55:06.657Z</time></trkpt><trkpt lat="39.8017317" lon="-0.2411933"><ele>97.85714285714286</ele><time>2026-04-02T16:55:07.657Z</time></trkpt><trkpt lat="39.8017817" lon="-0.241135"><ele>97.71428571428572</ele><time>2026-04-02T16:55:08.657Z</time></trkpt><trkpt lat="39.8018317" lon="-0.2410767"><ele>97.57142857142857</ele><time>2026-04-02T16:55:09.657Z</time></trkpt><trkpt lat="39.8018817" lon="-0.2410167"><ele>97.42857142857143</ele><time>2026-04-02T16:55:10.657Z</time></trkpt><trkpt lat="39.8019333" lon="-0.2409567"><ele>97.28571428571429</ele><time>2026-04-02T16:55:11.658Z</time></trkpt><trkpt lat="39.8019817" lon="-0.2409"><ele>97.14285714285714</ele><time>2026-04-02T16:55:12.657Z</time></trkpt><trkpt lat="39.802035" lon="-0.240845"><ele>97.0</ele><time>2026-04-02T16:55:13.657Z</time></trkpt><trkpt lat="39.8020867" lon="-0.2407883"><ele>96.8</ele><time>2026-04-02T16:55:14.657Z</time></trkpt><trkpt lat="39.8021767" lon="-0.240675"><ele>96.6</ele><time>2026-04-02T16:55:16.657Z</time></trkpt><trkpt lat="39.8022283" lon="-0.2406167"><ele>96.39999999999999</ele><time>2026-04-02T16:55:17.658Z</time></trkpt><trkpt lat="39.8023183" lon="-0.240515"><ele>96.19999999999999</ele><time>2026-04-02T16:55:19.658Z</time></trkpt><trkpt lat="39.8024017" lon="-0.2404017"><ele>96.0</ele><time>2026-04-02T16:55:21.657Z</time></trkpt><trkpt lat="39.8024733" lon="-0.2402883"><ele>95.8</ele><time>2026-04-02T16:55:23.657Z</time></trkpt><trkpt lat="39.80255" lon="-0.240185"><ele>95.6</ele><time>2026-04-02T16:55:25.657Z</time></trkpt><trkpt lat="39.8026233" lon="-0.24008"><ele>95.4</ele><time>2026-04-02T16:55:27.657Z</time></trkpt><trkpt lat="39.8027" lon="-0.23999"><ele>95.2</ele><time>2026-04-02T16:55:29.658Z</time></trkpt><trkpt lat="39.8027783" lon="-0.2398967"><ele>95.0</ele><time>2026-04-02T16:55:31.657Z</time></trkpt><trkpt lat="39.802855" lon="-0.2398083"><ele>94.8</ele><time>2026-04-02T16:55:33.657Z</time></trkpt><trkpt lat="39.8029333" lon="-0.23971"><ele>94.6</ele><time>2026-04-02T16:55:35.657Z</time></trkpt><trkpt lat="39.8030117" lon="-0.239615"><ele>94.4</ele><time>2026-04-02T16:55:37.657Z</time></trkpt><trkpt lat="39.80309" lon="-0.2395183"><ele>94.2</ele><time>2026-04-02T16:55:39.657Z</time></trkpt><trkpt lat="39.8031683" lon="-0.2394133"><ele>94.0</ele><time>2026-04-02T16:55:41.657Z</time></trkpt><trkpt lat="39.8032467" lon="-0.23932"><ele>94.0</ele><time>2026-04-02T16:55:43.657Z</time></trkpt><trkpt lat="39.8033233" lon="-0.2392267"><ele>94.0</ele><time>2026-04-02T16:55:45.657Z</time></trkpt><trkpt lat="39.803405" lon="-0.2391367"><ele>94.0</ele><time>2026-04-02T16:55:47.657Z</time></trkpt><trkpt lat="39.8034867" lon="-0.2390433"><ele>94.0</ele><time>2026-04-02T16:55:49.657Z</time></trkpt><trkpt lat="39.8035633" lon="-0.23895"><ele>94.0</ele><time>2026-04-02T16:55:51.657Z</time></trkpt><trkpt lat="39.803645" lon="-0.2388567"><ele>93.4</ele><time>2026-04-02T16:55:53.658Z</time></trkpt><trkpt lat="39.8037317" lon="-0.2387767"><ele>92.80000000000001</ele><time>2026-04-02T16:55:55.657Z</time></trkpt><trkpt lat="39.803815" lon="-0.2386967"><ele>92.19999999999999</ele><time>2026-04-02T16:55:57.657Z</time></trkpt><trkpt lat="39.803895" lon="-0.23861"><ele>91.6</ele><time>2026-04-02T16:55:59.657Z</time></trkpt><trkpt lat="39.8039833" lon="-0.2385333"><ele>91.0</ele><time>2026-04-02T16:56:01.657Z</time></trkpt><trkpt lat="39.8040717" lon="-0.238455"><ele>91.0</ele><time>2026-04-02T16:56:03.657Z</time></trkpt><trkpt lat="39.8041567" lon="-0.23838"><ele>91.0</ele><time>2026-04-02T16:56:05.657Z</time></trkpt><trkpt lat="39.804245" lon="-0.2383017"><ele>91.0</ele><time>2026-04-02T16:56:07.658Z</time></trkpt><trkpt lat="39.8043283" lon="-0.2382183"><ele>91.0</ele><time>2026-04-02T16:56:09.657Z</time></trkpt><trkpt lat="39.8044033" lon="-0.23814"><ele>91.0</ele><time>2026-04-02T16:56:11.657Z</time></trkpt><trkpt lat="39.80448" lon="-0.2380583"><ele>91.0</ele><time>2026-04-02T16:56:13.657Z</time></trkpt><trkpt lat="39.804565" lon="-0.2379817"><ele>91.0</ele><time>2026-04-02T16:56:15.657Z</time></trkpt><trkpt lat="39.8046483" lon="-0.2379033"><ele>91.0</ele><time>2026-04-02T16:56:17.657Z</time></trkpt><trkpt lat="39.804735" lon="-0.2378267"><ele>91.0</ele><time>2026-04-02T16:56:19.657Z</time></trkpt><trkpt lat="39.8048133" lon="-0.2377383"><ele>91.0</ele><time>2026-04-02T16:56:21.657Z</time></trkpt><trkpt lat="39.8048967" lon="-0.237655"><ele>91.0</ele><time>2026-04-02T16:56:23.657Z</time></trkpt><trkpt lat="39.8049783" lon="-0.2375917"><ele>91.0</ele><time>2026-04-02T16:56:25.657Z</time></trkpt><trkpt lat="39.8050767" lon="-0.2375167"><ele>91.0</ele><time>2026-04-02T16:56:27.658Z</time></trkpt><trkpt lat="39.8051717" lon="-0.23744"><ele>91.0</ele><time>2026-04-02T16:56:29.657Z</time></trkpt><trkpt lat="39.805265" lon="-0.2373583"><ele>91.0</ele><time>2026-04-02T16:56:31.657Z</time></trkpt><trkpt lat="39.8053683" lon="-0.23728"><ele>91.0</ele><time>2026-04-02T16:56:33.657Z</time></trkpt><trkpt lat="39.8054233" lon="-0.2372383"><ele>91.0</ele><time>2026-04-02T16:56:34.657Z</time></trkpt><trkpt lat="39.8055217" lon="-0.2371467"><ele>91.0</ele><time>2026-04-02T16:56:36.657Z</time></trkpt><trkpt lat="39.8055733" lon="-0.2370983"><ele>91.0</ele><time>2026-04-02T16:56:37.657Z</time></trkpt><trkpt lat="39.8056717" lon="-0.237015"><ele>91.0</ele><time>2026-04-02T16:56:39.657Z</time></trkpt><trkpt lat="39.8057683" lon="-0.2369233"><ele>91.0</ele><time>2026-04-02T16:56:41.657Z</time></trkpt><trkpt lat="39.8058267" lon="-0.23688"><ele>91.0</ele><time>2026-04-02T16:56:42.657Z</time></trkpt><trkpt lat="39.8059333" lon="-0.236795"><ele>91.0</ele><time>2026-04-02T16:56:44.658Z</time></trkpt><trkpt lat="39.8060267" lon="-0.23671"><ele>91.0</ele><time>2026-04-02T16:56:46.658Z</time></trkpt><trkpt lat="39.8061233" lon="-0.2366317"><ele>91.0</ele><time>2026-04-02T16:56:48.657Z</time></trkpt><trkpt lat="39.8062083" lon="-0.236555"><ele>91.0</ele><time>2026-04-02T16:56:50.657Z</time></trkpt><trkpt lat="39.806295" lon="-0.2364817"><ele>91.0</ele><time>2026-04-02T16:56:52.657Z</time></trkpt><trkpt lat="39.8063883" lon="-0.2364"><ele>91.0</ele><time>2026-04-02T16:56:54.657Z</time></trkpt><trkpt lat="39.8064817" lon="-0.2363417"><ele>91.0</ele><time>2026-04-02T16:56:56.657Z</time></trkpt><trkpt lat="39.8065683" lon="-0.236355"><ele>91.0</ele><time>2026-04-02T16:56:58.657Z</time></trkpt><trkpt lat="39.80663" lon="-0.236425"><ele>92.16666666666666</ele><time>2026-04-02T16:57:00.657Z</time></trkpt><trkpt lat="39.80668" lon="-0.236495"><ele>93.33333333333333</ele><time>2026-04-02T16:57:02.657Z</time></trkpt><trkpt lat="39.8067417" lon="-0.2365433"><ele>94.5</ele><time>2026-04-02T16:57:05.657Z</time></trkpt><trkpt lat="39.8068217" lon="-0.2365267"><ele>95.66666666666666</ele><time>2026-04-02T16:57:09.657Z</time></trkpt><trkpt lat="39.8069017" lon="-0.236525"><ele>96.83333333333333</ele><time>2026-04-02T16:57:12.657Z</time></trkpt><trkpt lat="39.806965" lon="-0.2365067"><ele>98.0</ele><time>2026-04-02T16:57:14.657Z</time></trkpt><trkpt lat="39.80706" lon="-0.23649"><ele>98.85714285714286</ele><time>2026-04-02T16:57:17.658Z</time></trkpt><trkpt lat="39.807125" lon="-0.2364883"><ele>99.71428571428572</ele><time>2026-04-02T16:57:19.658Z</time></trkpt><trkpt lat="39.8071883" lon="-0.2364833"><ele>100.57142857142857</ele><time>2026-04-02T16:57:21.658Z</time></trkpt><trkpt lat="39.8072567" lon="-0.2364817"><ele>101.42857142857143</ele><time>2026-04-02T16:57:23.657Z</time></trkpt><trkpt lat="39.8073267" lon="-0.2364833"><ele>102.28571428571429</ele><time>2026-04-02T16:57:25.658Z</time></trkpt><trkpt lat="39.8073967" lon="-0.2364733"><ele>103.14285714285714</ele><time>2026-04-02T16:57:27.658Z</time></trkpt><trkpt lat="39.80747" lon="-0.2364733"><ele>104.0</ele><time>2026-04-02T16:57:29.658Z</time></trkpt><trkpt lat="39.8075483" lon="-0.2365"><ele>104.0</ele><time>2026-04-02T16:57:31.657Z</time></trkpt><trkpt lat="39.8076183" lon="-0.23654"><ele>104.0</ele><time>2026-04-02T16:57:33.658Z</time></trkpt><trkpt lat="39.807675" lon="-0.2365967"><ele>104.0</ele><time>2026-04-02T16:57:35.657Z</time></trkpt><trkpt lat="39.80773" lon="-0.2366667"><ele>104.0</ele><time>2026-04-02T16:57:37.657Z</time></trkpt><trkpt lat="39.8077717" lon="-0.2367483"><ele>104.0</ele><time>2026-04-02T16:57:39.657Z</time></trkpt><trkpt lat="39.80782" lon="-0.2368233"><ele>104.0</ele><time>2026-04-02T16:57:41.658Z</time></trkpt><trkpt lat="39.8078517" lon="-0.2369"><ele>104.0</ele><time>2026-04-02T16:57:43.657Z</time></trkpt><trkpt lat="39.8078983" lon="-0.236985"><ele>103.6</ele><time>2026-04-02T16:57:45.657Z</time></trkpt><trkpt lat="39.80793" lon="-0.2371017"><ele>103.2</ele><time>2026-04-02T16:57:47.658Z</time></trkpt><trkpt lat="39.8079567" lon="-0.2372183"><ele>102.8</ele><time>2026-04-02T16:57:49.658Z</time></trkpt><trkpt lat="39.80799" lon="-0.2373367"><ele>102.39999999999999</ele><time>2026-04-02T16:57:51.657Z</time></trkpt><trkpt lat="39.8080417" lon="-0.2374633"><ele>102.0</ele><time>2026-04-02T16:57:53.657Z</time></trkpt><trkpt lat="39.8080883" lon="-0.2375817"><ele>102.66666666666667</ele><time>2026-04-02T16:57:55.658Z</time></trkpt><trkpt lat="39.808125" lon="-0.2377033"><ele>103.33333333333334</ele><time>2026-04-02T16:57:57.657Z</time></trkpt><trkpt lat="39.80814" lon="-0.2378133"><ele>104.0</ele><time>2026-04-02T16:57:59.657Z</time></trkpt><trkpt lat="39.8081367" lon="-0.2379217"><ele>104.66666666666667</ele><time>2026-04-02T16:58:01.657Z</time></trkpt><trkpt lat="39.8081117" lon="-0.2380233"><ele>105.33333333333334</ele><time>2026-04-02T16:58:03.657Z</time></trkpt><trkpt lat="39.808095" lon="-0.238125"><ele>106.0</ele><time>2026-04-02T16:58:05.658Z</time></trkpt><trkpt lat="39.808075" lon="-0.2382367"><ele>106.16666666666667</ele><time>2026-04-02T16:58:07.657Z</time></trkpt><trkpt lat="39.8080533" lon="-0.238345"><ele>106.33333333333334</ele><time>2026-04-02T16:58:09.657Z</time></trkpt><trkpt lat="39.808015" lon="-0.2384417"><ele>106.5</ele><time>2026-04-02T16:58:11.657Z</time></trkpt><trkpt lat="39.8079767" lon="-0.2385383"><ele>106.66666666666666</ele><time>2026-04-02T16:58:13.657Z</time></trkpt><trkpt lat="39.8079617" lon="-0.2386483"><ele>106.83333333333333</ele><time>2026-04-02T16:58:15.657Z</time></trkpt><trkpt lat="39.8079983" lon="-0.2387483"><ele>107.0</ele><time>2026-04-02T16:58:17.657Z</time></trkpt><trkpt lat="39.8080717" lon="-0.2388217"><ele>107.0</ele><time>2026-04-02T16:58:19.657Z</time></trkpt><trkpt lat="39.8081583" lon="-0.2388817"><ele>106.99999999999999</ele><time>2026-04-02T16:58:21.658Z</time></trkpt><trkpt lat="39.8082467" lon="-0.2389467"><ele>106.99999999999999</ele><time>2026-04-02T16:58:23.657Z</time></trkpt><trkpt lat="39.80833" lon="-0.2390133"><ele>107.0</ele><time>2026-04-02T16:58:25.657Z</time></trkpt><trkpt lat="39.8084067" lon="-0.2390733"><ele>107.0</ele><time>2026-04-02T16:58:27.657Z</time></trkpt><trkpt lat="39.808485" lon="-0.239145"><ele>107.39999999999999</ele><time>2026-04-02T16:58:29.657Z</time></trkpt><trkpt lat="39.80857" lon="-0.23921"><ele>107.79999999999998</ele><time>2026-04-02T16:58:31.657Z</time></trkpt><trkpt lat="39.8086517" lon="-0.2392833"><ele>108.2</ele><time>2026-04-02T16:58:33.657Z</time></trkpt><trkpt lat="39.808725" lon="-0.23935"><ele>108.6</ele><time>2026-04-02T16:58:35.658Z</time></trkpt><trkpt lat="39.8087917" lon="-0.2394117"><ele>109.0</ele><time>2026-04-02T16:58:37.657Z</time></trkpt><trkpt lat="39.8088617" lon="-0.239475"><ele>109.0</ele><time>2026-04-02T16:58:39.657Z</time></trkpt><trkpt lat="39.8089333" lon="-0.23953"><ele>109.0</ele><time>2026-04-02T16:58:41.657Z</time></trkpt><trkpt lat="39.8090067" lon="-0.23959"><ele>109.0</ele><time>2026-04-02T16:58:43.657Z</time></trkpt><trkpt lat="39.8090883" lon="-0.239655"><ele>109.0</ele><time>2026-04-02T16:58:45.657Z</time></trkpt><trkpt lat="39.8091733" lon="-0.2397167"><ele>109.0</ele><time>2026-04-02T16:58:47.657Z</time></trkpt><trkpt lat="39.809255" lon="-0.2397733"><ele>110.00000000000001</ele><time>2026-04-02T16:58:49.657Z</time></trkpt><trkpt lat="39.809335" lon="-0.2398417"><ele>111.0</ele><time>2026-04-02T16:58:51.657Z</time></trkpt><trkpt lat="39.8094133" lon="-0.23991"><ele>112.0</ele><time>2026-04-02T16:58:53.657Z</time></trkpt><trkpt lat="39.8094867" lon="-0.23997"><ele>113.0</ele><time>2026-04-02T16:58:55.657Z</time></trkpt><trkpt lat="39.8095533" lon="-0.24003"><ele>114.00000000000001</ele><time>2026-04-02T16:58:57.658Z</time></trkpt><trkpt lat="39.80964" lon="-0.2400283"><ele>115.0</ele><time>2026-04-02T16:59:00.657Z</time></trkpt><trkpt lat="39.8096833" lon="-0.2399333"><ele>115.00000000000001</ele><time>2026-04-02T16:59:02.658Z</time></trkpt><trkpt lat="39.8097233" lon="-0.2398283"><ele>115.0</ele><time>2026-04-02T16:59:04.658Z</time></trkpt><trkpt lat="39.8097733" lon="-0.2397533"><ele>115.0</ele><time>2026-04-02T16:59:06.657Z</time></trkpt><trkpt lat="39.8098417" lon="-0.23976"><ele>115.0</ele><time>2026-04-02T16:59:08.657Z</time></trkpt><trkpt lat="39.8099117" lon="-0.23979"><ele>115.00000000000001</ele><time>2026-04-02T16:59:10.657Z</time></trkpt><trkpt lat="39.809985" lon="-0.2398233"><ele>115.0</ele><time>2026-04-02T16:59:12.657Z</time></trkpt><trkpt lat="39.810055" lon="-0.2398583"><ele>114.99999999999999</ele><time>2026-04-02T16:59:14.657Z</time></trkpt><trkpt lat="39.810125" lon="-0.2399067"><ele>115.0</ele><time>2026-04-02T16:59:16.657Z</time></trkpt><trkpt lat="39.810185" lon="-0.2399717"><ele>114.99999999999999</ele><time>2026-04-02T16:59:18.658Z</time></trkpt><trkpt lat="39.810245" lon="-0.2400367"><ele>114.99999999999999</ele><time>2026-04-02T16:59:20.657Z</time></trkpt><trkpt lat="39.8103017" lon="-0.2400917"><ele>115.0</ele><time>2026-04-02T16:59:22.657Z</time></trkpt><trkpt lat="39.810355" lon="-0.24015"><ele>114.99999999999999</ele><time>2026-04-02T16:59:24.657Z</time></trkpt><trkpt lat="39.8104083" lon="-0.2401967"><ele>114.99999999999999</ele><time>2026-04-02T16:59:26.657Z</time></trkpt><trkpt lat="39.8104667" lon="-0.2402467"><ele>116.16666666666667</ele><time>2026-04-02T16:59:28.657Z</time></trkpt><trkpt lat="39.8105467" lon="-0.2402383"><ele>117.33333333333334</ele><time>2026-04-02T16:59:31.657Z</time></trkpt><trkpt lat="39.810625" lon="-0.240185"><ele>118.5</ele><time>2026-04-02T16:59:34.657Z</time></trkpt><trkpt lat="39.810705" lon="-0.2402183"><ele>119.66666666666666</ele><time>2026-04-02T16:59:37.657Z</time></trkpt><trkpt lat="39.81075" lon="-0.2402883"><ele>120.83333333333333</ele><time>2026-04-02T16:59:39.658Z</time></trkpt><trkpt lat="39.8107717" lon="-0.2403767"><ele>122.0</ele><time>2026-04-02T16:59:41.657Z</time></trkpt><trkpt lat="39.8107983" lon="-0.2404767"><ele>122.0</ele><time>2026-04-02T16:59:43.658Z</time></trkpt><trkpt lat="39.8108383" lon="-0.24058"><ele>121.99999999999999</ele><time>2026-04-02T16:59:45.657Z</time></trkpt><trkpt lat="39.8108883" lon="-0.2406867"><ele>121.99999999999999</ele><time>2026-04-02T16:59:47.657Z</time></trkpt><trkpt lat="39.8109267" lon="-0.2408"><ele>122.0</ele><time>2026-04-02T16:59:49.657Z</time></trkpt><trkpt lat="39.810965" lon="-0.2409133"><ele>122.0</ele><time>2026-04-02T16:59:51.657Z</time></trkpt><trkpt lat="39.8110033" lon="-0.2410233"><ele>123.8</ele><time>2026-04-02T16:59:53.657Z</time></trkpt><trkpt lat="39.81104" lon="-0.241135"><ele>125.6</ele><time>2026-04-02T16:59:55.657Z</time></trkpt><trkpt lat="39.8110683" lon="-0.2412533"><ele>127.39999999999999</ele><time>2026-04-02T16:59:57.657Z</time></trkpt><trkpt lat="39.8110817" lon="-0.2413717"><ele>129.2</ele><time>2026-04-02T16:59:59.657Z</time></trkpt><trkpt lat="39.8111017" lon="-0.24149"><ele>131.0</ele><time>2026-04-02T17:00:01.657Z</time></trkpt><trkpt lat="39.8111267" lon="-0.2416117"><ele>131.33333333333331</ele><time>2026-04-02T17:00:03.657Z</time></trkpt><trkpt lat="39.8111533" lon="-0.24172"><ele>131.66666666666666</ele><time>2026-04-02T17:00:05.657Z</time></trkpt><trkpt lat="39.8111783" lon="-0.2418167"><ele>132.0</ele><time>2026-04-02T17:00:07.657Z</time></trkpt><trkpt lat="39.8111867" lon="-0.2419267"><ele>132.33333333333334</ele><time>2026-04-02T17:00:09.657Z</time></trkpt><trkpt lat="39.8111917" lon="-0.2420467"><ele>132.66666666666669</ele><time>2026-04-02T17:00:11.658Z</time></trkpt><trkpt lat="39.8111967" lon="-0.242165"><ele>133.0</ele><time>2026-04-02T17:00:13.657Z</time></trkpt><trkpt lat="39.8112017" lon="-0.2422967"><ele>133.0</ele><time>2026-04-02T17:00:15.657Z</time></trkpt><trkpt lat="39.8112117" lon="-0.2424283"><ele>133.0</ele><time>2026-04-02T17:00:17.657Z</time></trkpt><trkpt lat="39.8112183" lon="-0.24256"><ele>133.0</ele><time>2026-04-02T17:00:19.658Z</time></trkpt><trkpt lat="39.811225" lon="-0.2426883"><ele>133.0</ele><time>2026-04-02T17:00:21.657Z</time></trkpt><trkpt lat="39.8112383" lon="-0.2428117"><ele>133.0</ele><time>2026-04-02T17:00:23.657Z</time></trkpt><trkpt lat="39.8112517" lon="-0.242935"><ele>133.0</ele><time>2026-04-02T17:00:25.657Z</time></trkpt><trkpt lat="39.8112683" lon="-0.2430533"><ele>133.0</ele><time>2026-04-02T17:00:27.657Z</time></trkpt><trkpt lat="39.8112867" lon="-0.2431767"><ele>133.0</ele><time>2026-04-02T17:00:29.657Z</time></trkpt><trkpt lat="39.8113133" lon="-0.2432933"><ele>133.0</ele><time>2026-04-02T17:00:31.657Z</time></trkpt><trkpt lat="39.81134" lon="-0.2434067"><ele>133.0</ele><time>2026-04-02T17:00:33.657Z</time></trkpt><trkpt lat="39.8113633" lon="-0.243515"><ele>133.0</ele><time>2026-04-02T17:00:35.657Z</time></trkpt><trkpt lat="39.8113833" lon="-0.2436183"><ele>133.0</ele><time>2026-04-02T17:00:37.657Z</time></trkpt><trkpt lat="39.811405" lon="-0.2437233"><ele>133.0</ele><time>2026-04-02T17:00:39.657Z</time></trkpt><trkpt lat="39.811435" lon="-0.2438283"><ele>133.0</ele><time>2026-04-02T17:00:41.657Z</time></trkpt><trkpt lat="39.811455" lon="-0.2439317"><ele>133.0</ele><time>2026-04-02T17:00:43.657Z</time></trkpt><trkpt lat="39.8114733" lon="-0.2440333"><ele>133.0</ele><time>2026-04-02T17:00:45.657Z</time></trkpt><trkpt lat="39.8115" lon="-0.2441267"><ele>133.0</ele><time>2026-04-02T17:00:47.657Z</time></trkpt><trkpt lat="39.811535" lon="-0.2442283"><ele>133.0</ele><time>2026-04-02T17:00:49.657Z</time></trkpt><trkpt lat="39.8115733" lon="-0.2443267"><ele>133.0</ele><time>2026-04-02T17:00:51.657Z</time></trkpt><trkpt lat="39.8116217" lon="-0.2444133"><ele>133.0</ele><time>2026-04-02T17:00:53.658Z</time></trkpt><trkpt lat="39.811675" lon="-0.2444733"><ele>133.0</ele><time>2026-04-02T17:00:55.657Z</time></trkpt><trkpt lat="39.8117417" lon="-0.2445317"><ele>133.0</ele><time>2026-04-02T17:00:57.658Z</time></trkpt><trkpt lat="39.8118067" lon="-0.24459"><ele>134.16666666666669</ele><time>2026-04-02T17:00:59.657Z</time></trkpt><trkpt lat="39.81187" lon="-0.2446633"><ele>135.33333333333334</ele><time>2026-04-02T17:01:01.658Z</time></trkpt><trkpt lat="39.8119333" lon="-0.2447467"><ele>136.5</ele><time>2026-04-02T17:01:03.657Z</time></trkpt><trkpt lat="39.81199" lon="-0.2448333"><ele>137.66666666666666</ele><time>2026-04-02T17:01:05.657Z</time></trkpt><trkpt lat="39.81203" lon="-0.2449383"><ele>138.83333333333331</ele><time>2026-04-02T17:01:07.657Z</time></trkpt><trkpt lat="39.8120633" lon="-0.2450317"><ele>140.0</ele><time>2026-04-02T17:01:09.657Z</time></trkpt><trkpt lat="39.8120767" lon="-0.24512"><ele>140.0</ele><time>2026-04-02T17:01:11.658Z</time></trkpt><trkpt lat="39.8121117" lon="-0.2452017"><ele>140.0</ele><time>2026-04-02T17:01:13.658Z</time></trkpt><trkpt lat="39.8121617" lon="-0.2452883"><ele>140.0</ele><time>2026-04-02T17:01:15.657Z</time></trkpt><trkpt lat="39.812205" lon="-0.24537"><ele>140.0</ele><time>2026-04-02T17:01:17.657Z</time></trkpt><trkpt lat="39.8122583" lon="-0.2454167"><ele>140.0</ele><time>2026-04-02T17:01:19.657Z</time></trkpt><trkpt lat="39.8123267" lon="-0.2454217"><ele>140.0</ele><time>2026-04-02T17:01:21.657Z</time></trkpt><trkpt lat="39.8123983" lon="-0.2454"><ele>140.0</ele><time>2026-04-02T17:01:23.658Z</time></trkpt><trkpt lat="39.8124667" lon="-0.2453633"><ele>140.0</ele><time>2026-04-02T17:01:25.657Z</time></trkpt><trkpt lat="39.812535" lon="-0.2453267"><ele>140.0</ele><time>2026-04-02T17:01:27.657Z</time></trkpt><trkpt lat="39.8126017" lon="-0.2452933"><ele>140.0</ele><time>2026-04-02T17:01:29.657Z</time></trkpt><trkpt lat="39.8126667" lon="-0.245265"><ele>140.0</ele><time>2026-04-02T17:01:31.657Z</time></trkpt><trkpt lat="39.812735" lon="-0.2452383"><ele>140.0</ele><time>2026-04-02T17:01:33.657Z</time></trkpt><trkpt lat="39.8128" lon="-0.2452117"><ele>140.0</ele><time>2026-04-02T17:01:35.658Z</time></trkpt><trkpt lat="39.8128667" lon="-0.245185"><ele>140.0</ele><time>2026-04-02T17:01:37.657Z</time></trkpt><trkpt lat="39.81293" lon="-0.2451433"><ele>141.0</ele><time>2026-04-02T17:01:39.657Z</time></trkpt><trkpt lat="39.8129967" lon="-0.2451133"><ele>142.0</ele><time>2026-04-02T17:01:41.657Z</time></trkpt><trkpt lat="39.813075" lon="-0.2450783"><ele>143.0</ele><time>2026-04-02T17:01:43.658Z</time></trkpt><trkpt lat="39.8131533" lon="-0.2450517"><ele>144.0</ele><time>2026-04-02T17:01:45.657Z</time></trkpt><trkpt lat="39.8132217" lon="-0.2450567"><ele>145.0</ele><time>2026-04-02T17:01:47.657Z</time></trkpt><trkpt lat="39.8132883" lon="-0.2450983"><ele>146.0</ele><time>2026-04-02T17:01:49.657Z</time></trkpt><trkpt lat="39.813355" lon="-0.2451917"><ele>146.0</ele><time>2026-04-02T17:01:52.657Z</time></trkpt><trkpt lat="39.8133967" lon="-0.2452633"><ele>146.0</ele><time>2026-04-02T17:01:54.657Z</time></trkpt><trkpt lat="39.81343" lon="-0.2453483"><ele>146.0</ele><time>2026-04-02T17:01:56.657Z</time></trkpt><trkpt lat="39.813465" lon="-0.2454433"><ele>146.0</ele><time>2026-04-02T17:01:58.657Z</time></trkpt><trkpt lat="39.8135017" lon="-0.2455383"><ele>146.0</ele><time>2026-04-02T17:02:00.657Z</time></trkpt><trkpt lat="39.8135333" lon="-0.2456433"><ele>146.0</ele><time>2026-04-02T17:02:02.657Z</time></trkpt><trkpt lat="39.8135583" lon="-0.24575"><ele>147.83333333333331</ele><time>2026-04-02T17:02:04.658Z</time></trkpt><trkpt lat="39.8135883" lon="-0.2458483"><ele>149.66666666666666</ele><time>2026-04-02T17:02:06.657Z</time></trkpt><trkpt lat="39.8136067" lon="-0.2459617"><ele>151.5</ele><time>2026-04-02T17:02:08.657Z</time></trkpt><trkpt lat="39.813625" lon="-0.2460667"><ele>153.33333333333334</ele><time>2026-04-02T17:02:10.657Z</time></trkpt><trkpt lat="39.8136467" lon="-0.2461717"><ele>155.16666666666669</ele><time>2026-04-02T17:02:12.657Z</time></trkpt><trkpt lat="39.81366" lon="-0.2462883"><ele>157.0</ele><time>2026-04-02T17:02:14.657Z</time></trkpt><trkpt lat="39.8136633" lon="-0.246415"><ele>157.0</ele><time>2026-04-02T17:02:16.657Z</time></trkpt><trkpt lat="39.813665" lon="-0.2465317"><ele>157.0</ele><time>2026-04-02T17:02:18.657Z</time></trkpt><trkpt lat="39.813665" lon="-0.246635"><ele>157.0</ele><time>2026-04-02T17:02:20.658Z</time></trkpt><trkpt lat="39.8136917" lon="-0.2467267"><ele>157.0</ele><time>2026-04-02T17:02:22.657Z</time></trkpt><trkpt lat="39.8137417" lon="-0.2468117"><ele>157.0</ele><time>2026-04-02T17:02:24.657Z</time></trkpt><trkpt lat="39.8137967" lon="-0.2468567"><ele>157.0</ele><time>2026-04-02T17:02:26.658Z</time></trkpt><trkpt lat="39.8138667" lon="-0.2469067"><ele>157.0</ele><time>2026-04-02T17:02:29.657Z</time></trkpt><trkpt lat="39.8139383" lon="-0.24696"><ele>157.0</ele><time>2026-04-02T17:02:32.657Z</time></trkpt><trkpt lat="39.8139933" lon="-0.2470317"><ele>157.0</ele><time>2026-04-02T17:02:35.657Z</time></trkpt><trkpt lat="39.8140317" lon="-0.247125"><ele>157.0</ele><time>2026-04-02T17:02:38.658Z</time></trkpt><trkpt lat="39.8140567" lon="-0.247205"><ele>157.0</ele><time>2026-04-02T17:02:40.657Z</time></trkpt><trkpt lat="39.814075" lon="-0.2473"><ele>157.0</ele><time>2026-04-02T17:02:42.658Z</time></trkpt><trkpt lat="39.8140883" lon="-0.2474017"><ele>156.0</ele><time>2026-04-02T17:02:44.657Z</time></trkpt><trkpt lat="39.8141067" lon="-0.2475217"><ele>155.0</ele><time>2026-04-02T17:02:46.658Z</time></trkpt><trkpt lat="39.8141267" lon="-0.2476633"><ele>154.0</ele><time>2026-04-02T17:02:48.658Z</time></trkpt><trkpt lat="39.814145" lon="-0.2478167"><ele>153.0</ele><time>2026-04-02T17:02:50.657Z</time></trkpt><trkpt lat="39.8141817" lon="-0.247955"><ele>152.0</ele><time>2026-04-02T17:02:52.658Z</time></trkpt><trkpt lat="39.8142467" lon="-0.2480483"><ele>152.83333333333331</ele><time>2026-04-02T17:02:54.657Z</time></trkpt><trkpt lat="39.8143333" lon="-0.2480767"><ele>153.66666666666666</ele><time>2026-04-02T17:02:56.657Z</time></trkpt><trkpt lat="39.81441" lon="-0.2481"><ele>154.5</ele><time>2026-04-02T17:02:58.657Z</time></trkpt><trkpt lat="39.814475" lon="-0.248115"><ele>155.33333333333334</ele><time>2026-04-02T17:03:00.658Z</time></trkpt><trkpt lat="39.8145667" lon="-0.248125"><ele>156.16666666666669</ele><time>2026-04-02T17:03:03.657Z</time></trkpt><trkpt lat="39.814635" lon="-0.2481517"><ele>157.0</ele><time>2026-04-02T17:03:05.657Z</time></trkpt><trkpt lat="39.814705" lon="-0.2481867"><ele>157.57142857142856</ele><time>2026-04-02T17:03:07.658Z</time></trkpt><trkpt lat="39.8147767" lon="-0.2482133"><ele>158.14285714285714</ele><time>2026-04-02T17:03:09.657Z</time></trkpt><trkpt lat="39.8148433" lon="-0.2482417"><ele>158.71428571428572</ele><time>2026-04-02T17:03:11.658Z</time></trkpt><trkpt lat="39.8149117" lon="-0.2482733"><ele>159.28571428571428</ele><time>2026-04-02T17:03:13.659Z</time></trkpt><trkpt lat="39.8149767" lon="-0.248295"><ele>159.85714285714286</ele><time>2026-04-02T17:03:15.659Z</time></trkpt><trkpt lat="39.8150567" lon="-0.2483233"><ele>160.42857142857142</ele><time>2026-04-02T17:03:18.658Z</time></trkpt><trkpt lat="39.8151233" lon="-0.2483433"><ele>161.0</ele><time>2026-04-02T17:03:20.658Z</time></trkpt><trkpt lat="39.81519" lon="-0.2483633"><ele>162.0</ele><time>2026-04-02T17:03:22.658Z</time></trkpt><trkpt lat="39.815255" lon="-0.24837"><ele>163.0</ele><time>2026-04-02T17:03:24.659Z</time></trkpt><trkpt lat="39.8153433" lon="-0.2483233"><ele>164.0</ele><time>2026-04-02T17:03:27.658Z</time></trkpt><trkpt lat="39.8153983" lon="-0.2482683"><ele>165.0</ele><time>2026-04-02T17:03:29.658Z</time></trkpt><trkpt lat="39.8154667" lon="-0.2481983"><ele>166.0</ele><time>2026-04-02T17:03:31.658Z</time></trkpt><trkpt lat="39.8155367" lon="-0.2481183"><ele>167.0</ele><time>2026-04-02T17:03:33.658Z</time></trkpt><trkpt lat="39.815605" lon="-0.2480233"><ele>167.0</ele><time>2026-04-02T17:03:35.658Z</time></trkpt><trkpt lat="39.8156717" lon="-0.24793"><ele>167.0</ele><time>2026-04-02T17:03:37.658Z</time></trkpt><trkpt lat="39.8157367" lon="-0.247835"><ele>167.0</ele><time>2026-04-02T17:03:39.659Z</time></trkpt><trkpt lat="39.8158" lon="-0.247735"><ele>167.0</ele><time>2026-04-02T17:03:41.658Z</time></trkpt><trkpt lat="39.8158683" lon="-0.2476283"><ele>167.0</ele><time>2026-04-02T17:03:43.659Z</time></trkpt><trkpt lat="39.8159167" lon="-0.2475217"><ele>167.0</ele><time>2026-04-02T17:03:45.658Z</time></trkpt><trkpt lat="39.8159517" lon="-0.24743"><ele>167.0</ele><time>2026-04-02T17:03:47.658Z</time></trkpt><trkpt lat="39.81598" lon="-0.2473383"><ele>167.0</ele><time>2026-04-02T17:03:49.658Z</time></trkpt><trkpt lat="39.816005" lon="-0.2472483"><ele>167.0</ele><time>2026-04-02T17:03:51.658Z</time></trkpt><trkpt lat="39.8160433" lon="-0.2471533"><ele>167.0</ele><time>2026-04-02T17:03:53.658Z</time></trkpt><trkpt lat="39.8160733" lon="-0.2470617"><ele>167.0</ele><time>2026-04-02T17:03:55.658Z</time></trkpt><trkpt lat="39.8161083" lon="-0.2469917"><ele>168.5</ele><time>2026-04-02T17:03:57.658Z</time></trkpt><trkpt lat="39.8161533" lon="-0.2468967"><ele>170.0</ele><time>2026-04-02T17:04:00.658Z</time></trkpt><trkpt lat="39.8161883" lon="-0.246825"><ele>171.5</ele><time>2026-04-02T17:04:02.658Z</time></trkpt><trkpt lat="39.81622" lon="-0.2467517"><ele>173.0</ele><time>2026-04-02T17:04:04.658Z</time></trkpt><trkpt lat="39.8162717" lon="-0.2466533"><ele>174.5</ele><time>2026-04-02T17:04:07.659Z</time></trkpt><trkpt lat="39.8163067" lon="-0.2465567"><ele>176.0</ele><time>2026-04-02T17:04:10.658Z</time></trkpt><trkpt lat="39.81635" lon="-0.2464567"><ele>176.0</ele><time>2026-04-02T17:04:13.658Z</time></trkpt><trkpt lat="39.81638" lon="-0.2463783"><ele>176.0</ele><time>2026-04-02T17:04:15.658Z</time></trkpt><trkpt lat="39.816415" lon="-0.2463017"><ele>176.0</ele><time>2026-04-02T17:04:17.658Z</time></trkpt><trkpt lat="39.8164433" lon="-0.246225"><ele>176.0</ele><time>2026-04-02T17:04:19.658Z</time></trkpt><trkpt lat="39.81647" lon="-0.246145"><ele>176.0</ele><time>2026-04-02T17:04:21.658Z</time></trkpt><trkpt lat="39.8164967" lon="-0.2460483"><ele>176.0</ele><time>2026-04-02T17:04:24.658Z</time></trkpt><trkpt lat="39.816545" lon="-0.245965"><ele>176.0</ele><time>2026-04-02T17:04:27.658Z</time></trkpt><trkpt lat="39.8166067" lon="-0.2458883"><ele>176.0</ele><time>2026-04-02T17:04:30.658Z</time></trkpt><trkpt lat="39.8166717" lon="-0.2458767"><ele>176.0</ele><time>2026-04-02T17:04:33.658Z</time></trkpt><trkpt lat="39.8167417" lon="-0.2459017"><ele>176.0</ele><time>2026-04-02T17:04:37.658Z</time></trkpt><trkpt lat="39.8168033" lon="-0.245925"><ele>176.0</ele><time>2026-04-02T17:04:42.658Z</time></trkpt></trkseg></trk></gpx>